<?xml version="1.0" encoding="UTF-8" standalone="no" ?>
<gpx xmlns="http://www.topografix.com/GPX/1/1" xmlns:xsi="http://www.w3.org/2001/XMLSchema-instance" xsi:schemaLocation="http://www.topografix.com/GPX/1/1 http://www.topografix.com/GPX/1/1/gpx.xsd" version="1.1" creator="VisuGPX - https://www.visugpx.com">
  <metadata>
    <name>Tour du Besançon</name>
    <desc><![CDATA[Circuit autour du Besançon avec un petit détour par le zoo de St Martin la plaine]]></desc>
  </metadata>
  <trk>
    <name><![CDATA[St Maurice - St Martin - 29km]]></name>
    <trkseg>
      <trkpt lat="45.58276" lon="4.64119">
        <ele>434</ele>
        <time>2017-04-08T06:47:13Z</time>
      </trkpt>
      <trkpt lat="45.58258" lon="4.64135">
        <ele>424</ele>
        <time>2017-04-08T06:47:29Z</time>
      </trkpt>
      <trkpt lat="45.58249" lon="4.64128">
        <ele>415</ele>
        <time>2017-04-08T06:47:34Z</time>
      </trkpt>
      <trkpt lat="45.58245" lon="4.64102">
        <ele>413</ele>
        <time>2017-04-08T06:47:43Z</time>
      </trkpt>
      <trkpt lat="45.5825" lon="4.64087">
        <ele>413</ele>
        <time>2017-04-08T06:47:48Z</time>
      </trkpt>
      <trkpt lat="45.58255" lon="4.64075">
        <ele>412</ele>
        <time>2017-04-08T06:47:54Z</time>
      </trkpt>
      <trkpt lat="45.58263" lon="4.64057">
        <ele>412</ele>
        <time>2017-04-08T06:48:03Z</time>
      </trkpt>
      <trkpt lat="45.58272" lon="4.64033">
        <ele>411</ele>
        <time>2017-04-08T06:48:08Z</time>
      </trkpt>
      <trkpt lat="45.58278" lon="4.64016">
        <ele>411</ele>
        <time>2017-04-08T06:48:13Z</time>
      </trkpt>
      <trkpt lat="45.58282" lon="4.64003">
        <ele>410</ele>
        <time>2017-04-08T06:48:18Z</time>
      </trkpt>
      <trkpt lat="45.58286" lon="4.63984">
        <ele>411</ele>
        <time>2017-04-08T06:48:28Z</time>
      </trkpt>
      <trkpt lat="45.58286" lon="4.63977">
        <ele>411</ele>
        <time>2017-04-08T06:48:34Z</time>
      </trkpt>
      <trkpt lat="45.58302" lon="4.63925">
        <ele>424</ele>
        <time>2017-04-08T06:49:30Z</time>
      </trkpt>
      <trkpt lat="45.58303" lon="4.63916">
        <ele>425</ele>
        <time>2017-04-08T06:49:42Z</time>
      </trkpt>
      <trkpt lat="45.58295" lon="4.63893">
        <ele>424</ele>
        <time>2017-04-08T06:49:48Z</time>
      </trkpt>
      <trkpt lat="45.5828" lon="4.63888">
        <ele>424</ele>
        <time>2017-04-08T06:49:54Z</time>
      </trkpt>
      <trkpt lat="45.58259" lon="4.6389">
        <ele>423</ele>
        <time>2017-04-08T06:50:00Z</time>
      </trkpt>
      <trkpt lat="45.58235" lon="4.63895">
        <ele>421</ele>
        <time>2017-04-08T06:50:06Z</time>
      </trkpt>
      <trkpt lat="45.58214" lon="4.63892">
        <ele>420</ele>
        <time>2017-04-08T06:50:12Z</time>
      </trkpt>
      <trkpt lat="45.58194" lon="4.6389">
        <ele>418</ele>
        <time>2017-04-08T06:50:18Z</time>
      </trkpt>
      <trkpt lat="45.58175" lon="4.63892">
        <ele>418</ele>
        <time>2017-04-08T06:50:23Z</time>
      </trkpt>
      <trkpt lat="45.58149" lon="4.6389">
        <ele>419</ele>
        <time>2017-04-08T06:50:29Z</time>
      </trkpt>
      <trkpt lat="45.58134" lon="4.63884">
        <ele>421</ele>
        <time>2017-04-08T06:50:34Z</time>
      </trkpt>
      <trkpt lat="45.58109" lon="4.63864">
        <ele>422</ele>
        <time>2017-04-08T06:50:43Z</time>
      </trkpt>
      <trkpt lat="45.58094" lon="4.63853">
        <ele>423</ele>
        <time>2017-04-08T06:50:48Z</time>
      </trkpt>
      <trkpt lat="45.58081" lon="4.63841">
        <ele>422</ele>
        <time>2017-04-08T06:50:53Z</time>
      </trkpt>
      <trkpt lat="45.58066" lon="4.63831">
        <ele>422</ele>
        <time>2017-04-08T06:50:58Z</time>
      </trkpt>
      <trkpt lat="45.58047" lon="4.63829">
        <ele>423</ele>
        <time>2017-04-08T06:51:03Z</time>
      </trkpt>
      <trkpt lat="45.58027" lon="4.63832">
        <ele>425</ele>
        <time>2017-04-08T06:51:08Z</time>
      </trkpt>
      <trkpt lat="45.58008" lon="4.63832">
        <ele>427</ele>
        <time>2017-04-08T06:51:13Z</time>
      </trkpt>
      <trkpt lat="45.57993" lon="4.63832">
        <ele>431</ele>
        <time>2017-04-08T06:51:18Z</time>
      </trkpt>
      <trkpt lat="45.57978" lon="4.63833">
        <ele>433</ele>
        <time>2017-04-08T06:51:23Z</time>
      </trkpt>
      <trkpt lat="45.57966" lon="4.63831">
        <ele>436</ele>
        <time>2017-04-08T06:51:28Z</time>
      </trkpt>
      <trkpt lat="45.57966" lon="4.63821">
        <ele>445</ele>
        <time>2017-04-08T06:53:54Z</time>
      </trkpt>
      <trkpt lat="45.5797" lon="4.63777">
        <ele>444</ele>
        <time>2017-04-08T06:54:04Z</time>
      </trkpt>
      <trkpt lat="45.57972" lon="4.6375">
        <ele>443</ele>
        <time>2017-04-08T06:54:10Z</time>
      </trkpt>
      <trkpt lat="45.57976" lon="4.63725">
        <ele>442</ele>
        <time>2017-04-08T06:54:15Z</time>
      </trkpt>
      <trkpt lat="45.5798" lon="4.63701">
        <ele>441</ele>
        <time>2017-04-08T06:54:20Z</time>
      </trkpt>
      <trkpt lat="45.57986" lon="4.63676">
        <ele>439</ele>
        <time>2017-04-08T06:54:25Z</time>
      </trkpt>
      <trkpt lat="45.57991" lon="4.63652">
        <ele>439</ele>
        <time>2017-04-08T06:54:30Z</time>
      </trkpt>
      <trkpt lat="45.58" lon="4.63613">
        <ele>437</ele>
        <time>2017-04-08T06:54:39Z</time>
      </trkpt>
      <trkpt lat="45.58003" lon="4.63595">
        <ele>436</ele>
        <time>2017-04-08T06:54:44Z</time>
      </trkpt>
      <trkpt lat="45.58007" lon="4.63577">
        <ele>434</ele>
        <time>2017-04-08T06:54:49Z</time>
      </trkpt>
      <trkpt lat="45.58011" lon="4.63556">
        <ele>430</ele>
        <time>2017-04-08T06:54:54Z</time>
      </trkpt>
      <trkpt lat="45.58012" lon="4.63536">
        <ele>427</ele>
        <time>2017-04-08T06:54:59Z</time>
      </trkpt>
      <trkpt lat="45.58016" lon="4.63516">
        <ele>425</ele>
        <time>2017-04-08T06:55:04Z</time>
      </trkpt>
      <trkpt lat="45.58015" lon="4.63499">
        <ele>424</ele>
        <time>2017-04-08T06:55:09Z</time>
      </trkpt>
      <trkpt lat="45.58011" lon="4.63486">
        <ele>423</ele>
        <time>2017-04-08T06:55:14Z</time>
      </trkpt>
      <trkpt lat="45.58007" lon="4.63473">
        <ele>423</ele>
        <time>2017-04-08T06:55:19Z</time>
      </trkpt>
      <trkpt lat="45.58007" lon="4.6346">
        <ele>423</ele>
        <time>2017-04-08T06:55:24Z</time>
      </trkpt>
      <trkpt lat="45.5801" lon="4.63451">
        <ele>425</ele>
        <time>2017-04-08T06:55:29Z</time>
      </trkpt>
      <trkpt lat="45.58022" lon="4.63431">
        <ele>426</ele>
        <time>2017-04-08T06:55:35Z</time>
      </trkpt>
      <trkpt lat="45.58031" lon="4.63414">
        <ele>427</ele>
        <time>2017-04-08T06:55:40Z</time>
      </trkpt>
      <trkpt lat="45.58038" lon="4.63402">
        <ele>429</ele>
        <time>2017-04-08T06:55:45Z</time>
      </trkpt>
      <trkpt lat="45.58046" lon="4.63392">
        <ele>430</ele>
        <time>2017-04-08T06:55:54Z</time>
      </trkpt>
      <trkpt lat="45.58052" lon="4.63383">
        <ele>429</ele>
        <time>2017-04-08T06:55:59Z</time>
      </trkpt>
      <trkpt lat="45.58056" lon="4.63376">
        <ele>428</ele>
        <time>2017-04-08T06:56:04Z</time>
      </trkpt>
      <trkpt lat="45.58064" lon="4.63362">
        <ele>427</ele>
        <time>2017-04-08T06:56:09Z</time>
      </trkpt>
      <trkpt lat="45.58072" lon="4.63346">
        <ele>427</ele>
        <time>2017-04-08T06:56:14Z</time>
      </trkpt>
      <trkpt lat="45.58083" lon="4.63325">
        <ele>427</ele>
        <time>2017-04-08T06:56:19Z</time>
      </trkpt>
      <trkpt lat="45.58091" lon="4.63308">
        <ele>427</ele>
        <time>2017-04-08T06:56:24Z</time>
      </trkpt>
      <trkpt lat="45.58098" lon="4.63295">
        <ele>427</ele>
        <time>2017-04-08T06:56:29Z</time>
      </trkpt>
      <trkpt lat="45.58105" lon="4.63278">
        <ele>427</ele>
        <time>2017-04-08T06:56:35Z</time>
      </trkpt>
      <trkpt lat="45.58112" lon="4.6327">
        <ele>427</ele>
        <time>2017-04-08T06:56:40Z</time>
      </trkpt>
      <trkpt lat="45.58114" lon="4.63254">
        <ele>427</ele>
        <time>2017-04-08T06:56:45Z</time>
      </trkpt>
      <trkpt lat="45.58089" lon="4.63237">
        <ele>431</ele>
        <time>2017-04-08T06:56:54Z</time>
      </trkpt>
      <trkpt lat="45.58077" lon="4.63229">
        <ele>435</ele>
        <time>2017-04-08T06:56:59Z</time>
      </trkpt>
      <trkpt lat="45.58066" lon="4.6322">
        <ele>440</ele>
        <time>2017-04-08T06:57:04Z</time>
      </trkpt>
      <trkpt lat="45.58056" lon="4.6321">
        <ele>445</ele>
        <time>2017-04-08T06:57:09Z</time>
      </trkpt>
      <trkpt lat="45.58043" lon="4.63202">
        <ele>451</ele>
        <time>2017-04-08T06:57:14Z</time>
      </trkpt>
      <trkpt lat="45.58029" lon="4.63197">
        <ele>453</ele>
        <time>2017-04-08T06:57:19Z</time>
      </trkpt>
      <trkpt lat="45.58016" lon="4.63187">
        <ele>455</ele>
        <time>2017-04-08T06:57:24Z</time>
      </trkpt>
      <trkpt lat="45.58005" lon="4.6317">
        <ele>456</ele>
        <time>2017-04-08T06:57:29Z</time>
      </trkpt>
      <trkpt lat="45.57993" lon="4.63156">
        <ele>457</ele>
        <time>2017-04-08T06:57:34Z</time>
      </trkpt>
      <trkpt lat="45.57983" lon="4.63139">
        <ele>457</ele>
        <time>2017-04-08T06:57:39Z</time>
      </trkpt>
      <trkpt lat="45.57972" lon="4.63122">
        <ele>458</ele>
        <time>2017-04-08T06:57:44Z</time>
      </trkpt>
      <trkpt lat="45.57962" lon="4.63103">
        <ele>460</ele>
        <time>2017-04-08T06:57:49Z</time>
      </trkpt>
      <trkpt lat="45.57952" lon="4.63087">
        <ele>460</ele>
        <time>2017-04-08T06:57:54Z</time>
      </trkpt>
      <trkpt lat="45.57945" lon="4.63076">
        <ele>461</ele>
        <time>2017-04-08T06:57:59Z</time>
      </trkpt>
      <trkpt lat="45.57956" lon="4.63066">
        <ele>461</ele>
        <time>2017-04-08T06:58:05Z</time>
      </trkpt>
      <trkpt lat="45.57978" lon="4.63062">
        <ele>461</ele>
        <time>2017-04-08T06:58:14Z</time>
      </trkpt>
      <trkpt lat="45.57986" lon="4.6307">
        <ele>462</ele>
        <time>2017-04-08T06:58:19Z</time>
      </trkpt>
      <trkpt lat="45.57996" lon="4.6307">
        <ele>464</ele>
        <time>2017-04-08T06:58:24Z</time>
      </trkpt>
      <trkpt lat="45.58016" lon="4.63047">
        <ele>464</ele>
        <time>2017-04-08T06:58:31Z</time>
      </trkpt>
      <trkpt lat="45.58009" lon="4.63033">
        <ele>465</ele>
        <time>2017-04-08T06:58:36Z</time>
      </trkpt>
      <trkpt lat="45.57986" lon="4.6303">
        <ele>465</ele>
        <time>2017-04-08T06:58:45Z</time>
      </trkpt>
      <trkpt lat="45.57958" lon="4.63023">
        <ele>464</ele>
        <time>2017-04-08T06:58:55Z</time>
      </trkpt>
      <trkpt lat="45.57927" lon="4.63009">
        <ele>465</ele>
        <time>2017-04-08T06:59:04Z</time>
      </trkpt>
      <trkpt lat="45.57895" lon="4.63014">
        <ele>465</ele>
        <time>2017-04-08T06:59:10Z</time>
      </trkpt>
      <trkpt lat="45.57872" lon="4.62996">
        <ele>467</ele>
        <time>2017-04-08T06:59:15Z</time>
      </trkpt>
      <trkpt lat="45.57851" lon="4.62979">
        <ele>470</ele>
        <time>2017-04-08T06:59:20Z</time>
      </trkpt>
      <trkpt lat="45.57833" lon="4.62981">
        <ele>472</ele>
        <time>2017-04-08T06:59:25Z</time>
      </trkpt>
      <trkpt lat="45.57825" lon="4.62971">
        <ele>474</ele>
        <time>2017-04-08T06:59:30Z</time>
      </trkpt>
      <trkpt lat="45.57804" lon="4.62941">
        <ele>476</ele>
        <time>2017-04-08T06:59:40Z</time>
      </trkpt>
      <trkpt lat="45.57797" lon="4.62892">
        <ele>477</ele>
        <time>2017-04-08T06:59:50Z</time>
      </trkpt>
      <trkpt lat="45.57797" lon="4.62873">
        <ele>477</ele>
        <time>2017-04-08T06:59:55Z</time>
      </trkpt>
      <trkpt lat="45.57799" lon="4.62854">
        <ele>475</ele>
        <time>2017-04-08T07:00:29Z</time>
      </trkpt>
      <trkpt lat="45.57811" lon="4.6282">
        <ele>465</ele>
        <time>2017-04-08T07:00:35Z</time>
      </trkpt>
      <trkpt lat="45.5781" lon="4.62786">
        <ele>462</ele>
        <time>2017-04-08T07:00:44Z</time>
      </trkpt>
      <trkpt lat="45.57804" lon="4.62766">
        <ele>464</ele>
        <time>2017-04-08T07:00:49Z</time>
      </trkpt>
      <trkpt lat="45.57792" lon="4.62746">
        <ele>465</ele>
        <time>2017-04-08T07:00:54Z</time>
      </trkpt>
      <trkpt lat="45.57763" lon="4.62717">
        <ele>464</ele>
        <time>2017-04-08T07:01:03Z</time>
      </trkpt>
      <trkpt lat="45.57744" lon="4.627">
        <ele>466</ele>
        <time>2017-04-08T07:01:09Z</time>
      </trkpt>
      <trkpt lat="45.57729" lon="4.62684">
        <ele>468</ele>
        <time>2017-04-08T07:01:14Z</time>
      </trkpt>
      <trkpt lat="45.5772" lon="4.62662">
        <ele>466</ele>
        <time>2017-04-08T07:01:19Z</time>
      </trkpt>
      <trkpt lat="45.57716" lon="4.62636">
        <ele>464</ele>
        <time>2017-04-08T07:01:24Z</time>
      </trkpt>
      <trkpt lat="45.57718" lon="4.62606">
        <ele>465</ele>
        <time>2017-04-08T07:01:29Z</time>
      </trkpt>
      <trkpt lat="45.57722" lon="4.62577">
        <ele>466</ele>
        <time>2017-04-08T07:01:34Z</time>
      </trkpt>
      <trkpt lat="45.57727" lon="4.6252">
        <ele>466</ele>
        <time>2017-04-08T07:01:44Z</time>
      </trkpt>
      <trkpt lat="45.57732" lon="4.62493">
        <ele>467</ele>
        <time>2017-04-08T07:01:49Z</time>
      </trkpt>
      <trkpt lat="45.57737" lon="4.62465">
        <ele>467</ele>
        <time>2017-04-08T07:01:54Z</time>
      </trkpt>
      <trkpt lat="45.57745" lon="4.62438">
        <ele>466</ele>
        <time>2017-04-08T07:01:59Z</time>
      </trkpt>
      <trkpt lat="45.57756" lon="4.62411">
        <ele>465</ele>
        <time>2017-04-08T07:02:04Z</time>
      </trkpt>
      <trkpt lat="45.57767" lon="4.62389">
        <ele>464</ele>
        <time>2017-04-08T07:02:09Z</time>
      </trkpt>
      <trkpt lat="45.57783" lon="4.6237">
        <ele>464</ele>
        <time>2017-04-08T07:02:15Z</time>
      </trkpt>
      <trkpt lat="45.57823" lon="4.62342">
        <ele>464</ele>
        <time>2017-04-08T07:02:25Z</time>
      </trkpt>
      <trkpt lat="45.57855" lon="4.62342">
        <ele>464</ele>
        <time>2017-04-08T07:02:35Z</time>
      </trkpt>
      <trkpt lat="45.5788" lon="4.62327">
        <ele>464</ele>
        <time>2017-04-08T07:02:40Z</time>
      </trkpt>
      <trkpt lat="45.57901" lon="4.62319">
        <ele>465</ele>
        <time>2017-04-08T07:02:45Z</time>
      </trkpt>
      <trkpt lat="45.5792" lon="4.62318">
        <ele>465</ele>
        <time>2017-04-08T07:02:50Z</time>
      </trkpt>
      <trkpt lat="45.5794" lon="4.62313">
        <ele>465</ele>
        <time>2017-04-08T07:02:55Z</time>
      </trkpt>
      <trkpt lat="45.57957" lon="4.6231">
        <ele>465</ele>
        <time>2017-04-08T07:03:00Z</time>
      </trkpt>
      <trkpt lat="45.57985" lon="4.62306">
        <ele>466</ele>
        <time>2017-04-08T07:03:08Z</time>
      </trkpt>
      <trkpt lat="45.58003" lon="4.62301">
        <ele>466</ele>
        <time>2017-04-08T07:03:13Z</time>
      </trkpt>
      <trkpt lat="45.58028" lon="4.62293">
        <ele>465</ele>
        <time>2017-04-08T07:03:19Z</time>
      </trkpt>
      <trkpt lat="45.58049" lon="4.6229">
        <ele>465</ele>
        <time>2017-04-08T07:03:24Z</time>
      </trkpt>
      <trkpt lat="45.58065" lon="4.62293">
        <ele>464</ele>
        <time>2017-04-08T07:03:29Z</time>
      </trkpt>
      <trkpt lat="45.58082" lon="4.62292">
        <ele>464</ele>
        <time>2017-04-08T07:03:34Z</time>
      </trkpt>
      <trkpt lat="45.58097" lon="4.62293">
        <ele>466</ele>
        <time>2017-04-08T07:03:39Z</time>
      </trkpt>
      <trkpt lat="45.58113" lon="4.62295">
        <ele>468</ele>
        <time>2017-04-08T07:03:44Z</time>
      </trkpt>
      <trkpt lat="45.58132" lon="4.62291">
        <ele>470</ele>
        <time>2017-04-08T07:03:49Z</time>
      </trkpt>
      <trkpt lat="45.58164" lon="4.62293">
        <ele>471</ele>
        <time>2017-04-08T07:03:58Z</time>
      </trkpt>
      <trkpt lat="45.58182" lon="4.62306">
        <ele>472</ele>
        <time>2017-04-08T07:04:04Z</time>
      </trkpt>
      <trkpt lat="45.58197" lon="4.62313">
        <ele>473</ele>
        <time>2017-04-08T07:04:09Z</time>
      </trkpt>
      <trkpt lat="45.5821" lon="4.62322">
        <ele>474</ele>
        <time>2017-04-08T07:04:14Z</time>
      </trkpt>
      <trkpt lat="45.58223" lon="4.62332">
        <ele>476</ele>
        <time>2017-04-08T07:04:19Z</time>
      </trkpt>
      <trkpt lat="45.58236" lon="4.62341">
        <ele>477</ele>
        <time>2017-04-08T07:04:24Z</time>
      </trkpt>
      <trkpt lat="45.58246" lon="4.62355">
        <ele>478</ele>
        <time>2017-04-08T07:04:29Z</time>
      </trkpt>
      <trkpt lat="45.58256" lon="4.62363">
        <ele>479</ele>
        <time>2017-04-08T07:04:34Z</time>
      </trkpt>
      <trkpt lat="45.58273" lon="4.62356">
        <ele>479</ele>
        <time>2017-04-08T07:04:39Z</time>
      </trkpt>
      <trkpt lat="45.58291" lon="4.62346">
        <ele>479</ele>
        <time>2017-04-08T07:04:44Z</time>
      </trkpt>
      <trkpt lat="45.58302" lon="4.62342">
        <ele>480</ele>
        <time>2017-04-08T07:04:50Z</time>
      </trkpt>
      <trkpt lat="45.58318" lon="4.62319">
        <ele>481</ele>
        <time>2017-04-08T07:04:59Z</time>
      </trkpt>
      <trkpt lat="45.58323" lon="4.62302">
        <ele>483</ele>
        <time>2017-04-08T07:05:04Z</time>
      </trkpt>
      <trkpt lat="45.58328" lon="4.62274">
        <ele>484</ele>
        <time>2017-04-08T07:05:09Z</time>
      </trkpt>
      <trkpt lat="45.58332" lon="4.6222">
        <ele>485</ele>
        <time>2017-04-08T07:05:18Z</time>
      </trkpt>
      <trkpt lat="45.5833" lon="4.62194">
        <ele>486</ele>
        <time>2017-04-08T07:05:23Z</time>
      </trkpt>
      <trkpt lat="45.58326" lon="4.62164">
        <ele>486</ele>
        <time>2017-04-08T07:05:29Z</time>
      </trkpt>
      <trkpt lat="45.58315" lon="4.62122">
        <ele>485</ele>
        <time>2017-04-08T07:05:38Z</time>
      </trkpt>
      <trkpt lat="45.58314" lon="4.62095">
        <ele>485</ele>
        <time>2017-04-08T07:05:43Z</time>
      </trkpt>
      <trkpt lat="45.58318" lon="4.62066">
        <ele>485</ele>
        <time>2017-04-08T07:05:49Z</time>
      </trkpt>
      <trkpt lat="45.58327" lon="4.62023">
        <ele>486</ele>
        <time>2017-04-08T07:05:58Z</time>
      </trkpt>
      <trkpt lat="45.58332" lon="4.62">
        <ele>488</ele>
        <time>2017-04-08T07:06:03Z</time>
      </trkpt>
      <trkpt lat="45.58336" lon="4.61978">
        <ele>490</ele>
        <time>2017-04-08T07:06:08Z</time>
      </trkpt>
      <trkpt lat="45.58341" lon="4.61949">
        <ele>491</ele>
        <time>2017-04-08T07:06:14Z</time>
      </trkpt>
      <trkpt lat="45.58347" lon="4.61922">
        <ele>491</ele>
        <time>2017-04-08T07:06:19Z</time>
      </trkpt>
      <trkpt lat="45.58352" lon="4.61897">
        <ele>492</ele>
        <time>2017-04-08T07:06:24Z</time>
      </trkpt>
      <trkpt lat="45.58363" lon="4.61854">
        <ele>491</ele>
        <time>2017-04-08T07:06:33Z</time>
      </trkpt>
      <trkpt lat="45.58373" lon="4.61832">
        <ele>490</ele>
        <time>2017-04-08T07:06:38Z</time>
      </trkpt>
      <trkpt lat="45.58386" lon="4.61812">
        <ele>490</ele>
        <time>2017-04-08T07:06:43Z</time>
      </trkpt>
      <trkpt lat="45.58398" lon="4.61797">
        <ele>491</ele>
        <time>2017-04-08T07:06:48Z</time>
      </trkpt>
      <trkpt lat="45.58409" lon="4.61782">
        <ele>492</ele>
        <time>2017-04-08T07:06:53Z</time>
      </trkpt>
      <trkpt lat="45.58421" lon="4.61768">
        <ele>493</ele>
        <time>2017-04-08T07:06:58Z</time>
      </trkpt>
      <trkpt lat="45.5844" lon="4.61745">
        <ele>495</ele>
        <time>2017-04-08T07:07:04Z</time>
      </trkpt>
      <trkpt lat="45.5847" lon="4.61722">
        <ele>498</ele>
        <time>2017-04-08T07:07:14Z</time>
      </trkpt>
      <trkpt lat="45.5848" lon="4.61717">
        <ele>500</ele>
        <time>2017-04-08T07:07:19Z</time>
      </trkpt>
      <trkpt lat="45.58491" lon="4.61706">
        <ele>503</ele>
        <time>2017-04-08T07:07:24Z</time>
      </trkpt>
      <trkpt lat="45.58501" lon="4.61693">
        <ele>505</ele>
        <time>2017-04-08T07:07:29Z</time>
      </trkpt>
      <trkpt lat="45.58511" lon="4.61676">
        <ele>506</ele>
        <time>2017-04-08T07:07:34Z</time>
      </trkpt>
      <trkpt lat="45.58522" lon="4.61623">
        <ele>507</ele>
        <time>2017-04-08T07:07:43Z</time>
      </trkpt>
      <trkpt lat="45.58525" lon="4.61593">
        <ele>507</ele>
        <time>2017-04-08T07:07:48Z</time>
      </trkpt>
      <trkpt lat="45.58528" lon="4.61559">
        <ele>508</ele>
        <time>2017-04-08T07:07:54Z</time>
      </trkpt>
      <trkpt lat="45.5853" lon="4.61532">
        <ele>509</ele>
        <time>2017-04-08T07:07:59Z</time>
      </trkpt>
      <trkpt lat="45.58532" lon="4.61486">
        <ele>511</ele>
        <time>2017-04-08T07:08:08Z</time>
      </trkpt>
      <trkpt lat="45.5853" lon="4.61451">
        <ele>511</ele>
        <time>2017-04-08T07:08:13Z</time>
      </trkpt>
      <trkpt lat="45.58521" lon="4.61426">
        <ele>511</ele>
        <time>2017-04-08T07:08:18Z</time>
      </trkpt>
      <trkpt lat="45.58511" lon="4.61394">
        <ele>511</ele>
        <time>2017-04-08T07:08:23Z</time>
      </trkpt>
      <trkpt lat="45.58508" lon="4.61353">
        <ele>510</ele>
        <time>2017-04-08T07:08:29Z</time>
      </trkpt>
      <trkpt lat="45.58501" lon="4.61297">
        <ele>509</ele>
        <time>2017-04-08T07:08:38Z</time>
      </trkpt>
      <trkpt lat="45.58501" lon="4.61262">
        <ele>508</ele>
        <time>2017-04-08T07:08:43Z</time>
      </trkpt>
      <trkpt lat="45.58507" lon="4.61223">
        <ele>505</ele>
        <time>2017-04-08T07:08:49Z</time>
      </trkpt>
      <trkpt lat="45.58533" lon="4.61167">
        <ele>504</ele>
        <time>2017-04-08T07:08:59Z</time>
      </trkpt>
      <trkpt lat="45.58548" lon="4.61148">
        <ele>502</ele>
        <time>2017-04-08T07:09:04Z</time>
      </trkpt>
      <trkpt lat="45.58573" lon="4.61126">
        <ele>500</ele>
        <time>2017-04-08T07:09:10Z</time>
      </trkpt>
      <trkpt lat="45.58604" lon="4.61127">
        <ele>500</ele>
        <time>2017-04-08T07:09:19Z</time>
      </trkpt>
      <trkpt lat="45.5863" lon="4.61116">
        <ele>501</ele>
        <time>2017-04-08T07:09:24Z</time>
      </trkpt>
      <trkpt lat="45.58653" lon="4.61116">
        <ele>501</ele>
        <time>2017-04-08T07:09:29Z</time>
      </trkpt>
      <trkpt lat="45.58678" lon="4.61112">
        <ele>500</ele>
        <time>2017-04-08T07:09:34Z</time>
      </trkpt>
      <trkpt lat="45.58708" lon="4.61099">
        <ele>499</ele>
        <time>2017-04-08T07:09:39Z</time>
      </trkpt>
      <trkpt lat="45.58733" lon="4.61096">
        <ele>499</ele>
        <time>2017-04-08T07:09:44Z</time>
      </trkpt>
      <trkpt lat="45.58763" lon="4.61088">
        <ele>499</ele>
        <time>2017-04-08T07:09:50Z</time>
      </trkpt>
      <trkpt lat="45.58808" lon="4.61115">
        <ele>498</ele>
        <time>2017-04-08T07:09:59Z</time>
      </trkpt>
      <trkpt lat="45.58828" lon="4.61142">
        <ele>497</ele>
        <time>2017-04-08T07:10:05Z</time>
      </trkpt>
      <trkpt lat="45.58849" lon="4.61156">
        <ele>495</ele>
        <time>2017-04-08T07:10:10Z</time>
      </trkpt>
      <trkpt lat="45.58892" lon="4.61192">
        <ele>493</ele>
        <time>2017-04-08T07:10:20Z</time>
      </trkpt>
      <trkpt lat="45.58914" lon="4.61195">
        <ele>491</ele>
        <time>2017-04-08T07:10:25Z</time>
      </trkpt>
      <trkpt lat="45.58932" lon="4.61198">
        <ele>490</ele>
        <time>2017-04-08T07:10:30Z</time>
      </trkpt>
      <trkpt lat="45.58961" lon="4.61165">
        <ele>492</ele>
        <time>2017-04-08T07:10:35Z</time>
      </trkpt>
      <trkpt lat="45.58981" lon="4.61149">
        <ele>492</ele>
        <time>2017-04-08T07:10:40Z</time>
      </trkpt>
      <trkpt lat="45.59003" lon="4.61123">
        <ele>491</ele>
        <time>2017-04-08T07:10:45Z</time>
      </trkpt>
      <trkpt lat="45.59016" lon="4.61108">
        <ele>491</ele>
        <time>2017-04-08T07:10:50Z</time>
      </trkpt>
      <trkpt lat="45.59041" lon="4.61077">
        <ele>489</ele>
        <time>2017-04-08T07:10:55Z</time>
      </trkpt>
      <trkpt lat="45.59062" lon="4.61068">
        <ele>486</ele>
        <time>2017-04-08T07:11:04Z</time>
      </trkpt>
      <trkpt lat="45.59088" lon="4.61037">
        <ele>484</ele>
        <time>2017-04-08T07:11:09Z</time>
      </trkpt>
      <trkpt lat="45.59111" lon="4.61015">
        <ele>483</ele>
        <time>2017-04-08T07:11:14Z</time>
      </trkpt>
      <trkpt lat="45.59136" lon="4.60993">
        <ele>482</ele>
        <time>2017-04-08T07:11:19Z</time>
      </trkpt>
      <trkpt lat="45.59157" lon="4.60987">
        <ele>483</ele>
        <time>2017-04-08T07:11:24Z</time>
      </trkpt>
      <trkpt lat="45.59187" lon="4.60981">
        <ele>484</ele>
        <time>2017-04-08T07:11:30Z</time>
      </trkpt>
      <trkpt lat="45.59213" lon="4.60988">
        <ele>487</ele>
        <time>2017-04-08T07:11:39Z</time>
      </trkpt>
      <trkpt lat="45.5925" lon="4.60953">
        <ele>488</ele>
        <time>2017-04-08T07:11:49Z</time>
      </trkpt>
      <trkpt lat="45.59287" lon="4.60941">
        <ele>489</ele>
        <time>2017-04-08T07:11:59Z</time>
      </trkpt>
      <trkpt lat="45.59301" lon="4.60938">
        <ele>490</ele>
        <time>2017-04-08T07:12:04Z</time>
      </trkpt>
      <trkpt lat="45.59325" lon="4.60915">
        <ele>490</ele>
        <time>2017-04-08T07:12:10Z</time>
      </trkpt>
      <trkpt lat="45.59359" lon="4.6089">
        <ele>489</ele>
        <time>2017-04-08T07:12:19Z</time>
      </trkpt>
      <trkpt lat="45.59386" lon="4.60877">
        <ele>487</ele>
        <time>2017-04-08T07:12:25Z</time>
      </trkpt>
      <trkpt lat="45.59407" lon="4.60865">
        <ele>486</ele>
        <time>2017-04-08T07:12:30Z</time>
      </trkpt>
      <trkpt lat="45.59423" lon="4.60834">
        <ele>484</ele>
        <time>2017-04-08T07:12:35Z</time>
      </trkpt>
      <trkpt lat="45.59411" lon="4.60767">
        <ele>484</ele>
        <time>2017-04-08T07:12:44Z</time>
      </trkpt>
      <trkpt lat="45.59391" lon="4.60737">
        <ele>483</ele>
        <time>2017-04-08T07:12:49Z</time>
      </trkpt>
      <trkpt lat="45.59348" lon="4.60713">
        <ele>485</ele>
        <time>2017-04-08T07:12:58Z</time>
      </trkpt>
      <trkpt lat="45.59327" lon="4.60705">
        <ele>485</ele>
        <time>2017-04-08T07:13:03Z</time>
      </trkpt>
      <trkpt lat="45.59298" lon="4.60709">
        <ele>487</ele>
        <time>2017-04-08T07:13:08Z</time>
      </trkpt>
      <trkpt lat="45.59267" lon="4.60707">
        <ele>488</ele>
        <time>2017-04-08T07:13:13Z</time>
      </trkpt>
      <trkpt lat="45.59232" lon="4.60704">
        <ele>488</ele>
        <time>2017-04-08T07:13:18Z</time>
      </trkpt>
      <trkpt lat="45.59209" lon="4.60682">
        <ele>490</ele>
        <time>2017-04-08T07:13:23Z</time>
      </trkpt>
      <trkpt lat="45.59188" lon="4.60654">
        <ele>492</ele>
        <time>2017-04-08T07:13:28Z</time>
      </trkpt>
      <trkpt lat="45.59173" lon="4.60626">
        <ele>493</ele>
        <time>2017-04-08T07:13:33Z</time>
      </trkpt>
      <trkpt lat="45.59163" lon="4.60587">
        <ele>493</ele>
        <time>2017-04-08T07:13:38Z</time>
      </trkpt>
      <trkpt lat="45.5915" lon="4.60544">
        <ele>493</ele>
        <time>2017-04-08T07:13:43Z</time>
      </trkpt>
      <trkpt lat="45.59135" lon="4.60497">
        <ele>492</ele>
        <time>2017-04-08T07:13:48Z</time>
      </trkpt>
      <trkpt lat="45.59109" lon="4.6046">
        <ele>489</ele>
        <time>2017-04-08T07:13:54Z</time>
      </trkpt>
      <trkpt lat="45.5908" lon="4.60429">
        <ele>487</ele>
        <time>2017-04-08T07:13:59Z</time>
      </trkpt>
      <trkpt lat="45.5905" lon="4.60404">
        <ele>485</ele>
        <time>2017-04-08T07:14:04Z</time>
      </trkpt>
      <trkpt lat="45.5903" lon="4.60373">
        <ele>484</ele>
        <time>2017-04-08T07:14:09Z</time>
      </trkpt>
      <trkpt lat="45.58998" lon="4.6031">
        <ele>484</ele>
        <time>2017-04-08T07:14:18Z</time>
      </trkpt>
      <trkpt lat="45.5898" lon="4.60273">
        <ele>487</ele>
        <time>2017-04-08T07:14:23Z</time>
      </trkpt>
      <trkpt lat="45.58952" lon="4.60239">
        <ele>489</ele>
        <time>2017-04-08T07:14:29Z</time>
      </trkpt>
      <trkpt lat="45.58905" lon="4.60207">
        <ele>491</ele>
        <time>2017-04-08T07:14:39Z</time>
      </trkpt>
      <trkpt lat="45.58865" lon="4.6017">
        <ele>490</ele>
        <time>2017-04-08T07:14:48Z</time>
      </trkpt>
      <trkpt lat="45.58844" lon="4.60142">
        <ele>490</ele>
        <time>2017-04-08T07:14:53Z</time>
      </trkpt>
      <trkpt lat="45.58829" lon="4.60102">
        <ele>488</ele>
        <time>2017-04-08T07:14:58Z</time>
      </trkpt>
      <trkpt lat="45.58813" lon="4.60063">
        <ele>487</ele>
        <time>2017-04-08T07:15:03Z</time>
      </trkpt>
      <trkpt lat="45.58816" lon="4.60009">
        <ele>484</ele>
        <time>2017-04-08T07:15:08Z</time>
      </trkpt>
      <trkpt lat="45.5881" lon="4.59966">
        <ele>483</ele>
        <time>2017-04-08T07:15:14Z</time>
      </trkpt>
      <trkpt lat="45.58807" lon="4.59927">
        <ele>481</ele>
        <time>2017-04-08T07:15:19Z</time>
      </trkpt>
      <trkpt lat="45.58809" lon="4.59887">
        <ele>479</ele>
        <time>2017-04-08T07:15:24Z</time>
      </trkpt>
      <trkpt lat="45.58798" lon="4.59855">
        <ele>476</ele>
        <time>2017-04-08T07:15:29Z</time>
      </trkpt>
      <trkpt lat="45.58786" lon="4.59825">
        <ele>475</ele>
        <time>2017-04-08T07:15:34Z</time>
      </trkpt>
      <trkpt lat="45.58768" lon="4.59806">
        <ele>473</ele>
        <time>2017-04-08T07:15:39Z</time>
      </trkpt>
      <trkpt lat="45.58753" lon="4.59792">
        <ele>471</ele>
        <time>2017-04-08T07:15:48Z</time>
      </trkpt>
      <trkpt lat="45.58752" lon="4.59787">
        <ele>469</ele>
        <time>2017-04-08T07:16:08Z</time>
      </trkpt>
      <trkpt lat="45.58752" lon="4.59787">
        <ele>468</ele>
        <time>2017-04-08T07:16:11Z</time>
      </trkpt>
      <trkpt lat="45.58748" lon="4.59789">
        <ele>467</ele>
        <time>2017-04-08T07:16:20Z</time>
      </trkpt>
      <trkpt lat="45.58742" lon="4.59789">
        <ele>465</ele>
        <time>2017-04-08T07:16:25Z</time>
      </trkpt>
      <trkpt lat="45.5873" lon="4.5979">
        <ele>464</ele>
        <time>2017-04-08T07:16:30Z</time>
      </trkpt>
      <trkpt lat="45.58719" lon="4.59793">
        <ele>463</ele>
        <time>2017-04-08T07:16:35Z</time>
      </trkpt>
      <trkpt lat="45.58714" lon="4.59791">
        <ele>462</ele>
        <time>2017-04-08T07:16:40Z</time>
      </trkpt>
      <trkpt lat="45.58703" lon="4.59794">
        <ele>460</ele>
        <time>2017-04-08T07:16:45Z</time>
      </trkpt>
      <trkpt lat="45.5869" lon="4.59805">
        <ele>460</ele>
        <time>2017-04-08T07:16:50Z</time>
      </trkpt>
      <trkpt lat="45.58682" lon="4.59817">
        <ele>460</ele>
        <time>2017-04-08T07:16:55Z</time>
      </trkpt>
      <trkpt lat="45.58668" lon="4.5983">
        <ele>460</ele>
        <time>2017-04-08T07:17:06Z</time>
      </trkpt>
      <trkpt lat="45.58663" lon="4.59857">
        <ele>460</ele>
        <time>2017-04-08T07:17:15Z</time>
      </trkpt>
      <trkpt lat="45.58662" lon="4.59876">
        <ele>460</ele>
        <time>2017-04-08T07:17:20Z</time>
      </trkpt>
      <trkpt lat="45.58664" lon="4.599">
        <ele>460</ele>
        <time>2017-04-08T07:17:26Z</time>
      </trkpt>
      <trkpt lat="45.58677" lon="4.59951">
        <ele>460</ele>
        <time>2017-04-08T07:17:36Z</time>
      </trkpt>
      <trkpt lat="45.58677" lon="4.59974">
        <ele>460</ele>
        <time>2017-04-08T07:17:41Z</time>
      </trkpt>
      <trkpt lat="45.58677" lon="4.59983">
        <ele>459</ele>
        <time>2017-04-08T07:17:51Z</time>
      </trkpt>
      <trkpt lat="45.5868" lon="4.59996">
        <ele>459</ele>
        <time>2017-04-08T07:18:01Z</time>
      </trkpt>
      <trkpt lat="45.58679" lon="4.60016">
        <ele>459</ele>
        <time>2017-04-08T07:18:06Z</time>
      </trkpt>
      <trkpt lat="45.58675" lon="4.60042">
        <ele>459</ele>
        <time>2017-04-08T07:18:11Z</time>
      </trkpt>
      <trkpt lat="45.58675" lon="4.60077">
        <ele>458</ele>
        <time>2017-04-08T07:18:17Z</time>
      </trkpt>
      <trkpt lat="45.58675" lon="4.6011">
        <ele>457</ele>
        <time>2017-04-08T07:18:22Z</time>
      </trkpt>
      <trkpt lat="45.58672" lon="4.6014">
        <ele>457</ele>
        <time>2017-04-08T07:18:27Z</time>
      </trkpt>
      <trkpt lat="45.58667" lon="4.60168">
        <ele>456</ele>
        <time>2017-04-08T07:18:32Z</time>
      </trkpt>
      <trkpt lat="45.58667" lon="4.60195">
        <ele>455</ele>
        <time>2017-04-08T07:18:37Z</time>
      </trkpt>
      <trkpt lat="45.58664" lon="4.60223">
        <ele>454</ele>
        <time>2017-04-08T07:18:42Z</time>
      </trkpt>
      <trkpt lat="45.58657" lon="4.60241">
        <ele>451</ele>
        <time>2017-04-08T07:18:47Z</time>
      </trkpt>
      <trkpt lat="45.58648" lon="4.60258">
        <ele>448</ele>
        <time>2017-04-08T07:18:52Z</time>
      </trkpt>
      <trkpt lat="45.58641" lon="4.6027">
        <ele>444</ele>
        <time>2017-04-08T07:18:57Z</time>
      </trkpt>
      <trkpt lat="45.58632" lon="4.60293">
        <ele>446</ele>
        <time>2017-04-08T07:19:02Z</time>
      </trkpt>
      <trkpt lat="45.58612" lon="4.60336">
        <ele>450</ele>
        <time>2017-04-08T07:19:07Z</time>
      </trkpt>
      <trkpt lat="45.58599" lon="4.60369">
        <ele>454</ele>
        <time>2017-04-08T07:19:12Z</time>
      </trkpt>
      <trkpt lat="45.58586" lon="4.60398">
        <ele>459</ele>
        <time>2017-04-08T07:19:17Z</time>
      </trkpt>
      <trkpt lat="45.58577" lon="4.60428">
        <ele>464</ele>
        <time>2017-04-08T07:19:22Z</time>
      </trkpt>
      <trkpt lat="45.58571" lon="4.60461">
        <ele>461</ele>
        <time>2017-04-08T07:19:27Z</time>
      </trkpt>
      <trkpt lat="45.58558" lon="4.60506">
        <ele>458</ele>
        <time>2017-04-08T07:19:33Z</time>
      </trkpt>
      <trkpt lat="45.58539" lon="4.6054">
        <ele>455</ele>
        <time>2017-04-08T07:19:38Z</time>
      </trkpt>
      <trkpt lat="45.58515" lon="4.60564">
        <ele>452</ele>
        <time>2017-04-08T07:19:44Z</time>
      </trkpt>
      <trkpt lat="45.5849" lon="4.60574">
        <ele>448</ele>
        <time>2017-04-08T07:19:50Z</time>
      </trkpt>
      <trkpt lat="45.58459" lon="4.60589">
        <ele>444</ele>
        <time>2017-04-08T07:19:56Z</time>
      </trkpt>
      <trkpt lat="45.58437" lon="4.6058">
        <ele>440</ele>
        <time>2017-04-08T07:20:02Z</time>
      </trkpt>
      <trkpt lat="45.58402" lon="4.60589">
        <ele>436</ele>
        <time>2017-04-08T07:20:08Z</time>
      </trkpt>
      <trkpt lat="45.58365" lon="4.60604">
        <ele>432</ele>
        <time>2017-04-08T07:20:14Z</time>
      </trkpt>
      <trkpt lat="45.58341" lon="4.60603">
        <ele>429</ele>
        <time>2017-04-08T07:20:19Z</time>
      </trkpt>
      <trkpt lat="45.58316" lon="4.60604">
        <ele>426</ele>
        <time>2017-04-08T07:20:24Z</time>
      </trkpt>
      <trkpt lat="45.58289" lon="4.60608">
        <ele>424</ele>
        <time>2017-04-08T07:20:29Z</time>
      </trkpt>
      <trkpt lat="45.58262" lon="4.60607">
        <ele>422</ele>
        <time>2017-04-08T07:20:34Z</time>
      </trkpt>
      <trkpt lat="45.58235" lon="4.60602">
        <ele>420</ele>
        <time>2017-04-08T07:20:39Z</time>
      </trkpt>
      <trkpt lat="45.58207" lon="4.60583">
        <ele>417</ele>
        <time>2017-04-08T07:20:45Z</time>
      </trkpt>
      <trkpt lat="45.58123" lon="4.60571">
        <ele>414</ele>
        <time>2017-04-08T07:21:00Z</time>
      </trkpt>
      <trkpt lat="45.58103" lon="4.60574">
        <ele>411</ele>
        <time>2017-04-08T07:21:06Z</time>
      </trkpt>
      <trkpt lat="45.5808" lon="4.60616">
        <ele>407</ele>
        <time>2017-04-08T07:21:12Z</time>
      </trkpt>
      <trkpt lat="45.58067" lon="4.6064">
        <ele>404</ele>
        <time>2017-04-08T07:21:17Z</time>
      </trkpt>
      <trkpt lat="45.58037" lon="4.60673">
        <ele>400</ele>
        <time>2017-04-08T07:21:23Z</time>
      </trkpt>
      <trkpt lat="45.57965" lon="4.60718">
        <ele>399</ele>
        <time>2017-04-08T07:21:35Z</time>
      </trkpt>
      <trkpt lat="45.57937" lon="4.60714">
        <ele>397</ele>
        <time>2017-04-08T07:21:41Z</time>
      </trkpt>
      <trkpt lat="45.57907" lon="4.60718">
        <ele>395</ele>
        <time>2017-04-08T07:21:47Z</time>
      </trkpt>
      <trkpt lat="45.57873" lon="4.60758">
        <ele>394</ele>
        <time>2017-04-08T07:21:55Z</time>
      </trkpt>
      <trkpt lat="45.57856" lon="4.608">
        <ele>392</ele>
        <time>2017-04-08T07:22:01Z</time>
      </trkpt>
      <trkpt lat="45.57847" lon="4.6083">
        <ele>389</ele>
        <time>2017-04-08T07:22:07Z</time>
      </trkpt>
      <trkpt lat="45.57825" lon="4.60865">
        <ele>386</ele>
        <time>2017-04-08T07:22:13Z</time>
      </trkpt>
      <trkpt lat="45.57795" lon="4.60894">
        <ele>383</ele>
        <time>2017-04-08T07:22:19Z</time>
      </trkpt>
      <trkpt lat="45.57778" lon="4.60906">
        <ele>381</ele>
        <time>2017-04-08T07:22:24Z</time>
      </trkpt>
      <trkpt lat="45.57756" lon="4.60924">
        <ele>379</ele>
        <time>2017-04-08T07:22:29Z</time>
      </trkpt>
      <trkpt lat="45.57734" lon="4.60943">
        <ele>377</ele>
        <time>2017-04-08T07:22:35Z</time>
      </trkpt>
      <trkpt lat="45.5771" lon="4.6097">
        <ele>375</ele>
        <time>2017-04-08T07:22:41Z</time>
      </trkpt>
      <trkpt lat="45.57689" lon="4.60992">
        <ele>373</ele>
        <time>2017-04-08T07:22:46Z</time>
      </trkpt>
      <trkpt lat="45.57653" lon="4.61031">
        <ele>371</ele>
        <time>2017-04-08T07:22:56Z</time>
      </trkpt>
      <trkpt lat="45.57636" lon="4.61044">
        <ele>369</ele>
        <time>2017-04-08T07:23:01Z</time>
      </trkpt>
      <trkpt lat="45.57616" lon="4.61057">
        <ele>368</ele>
        <time>2017-04-08T07:23:06Z</time>
      </trkpt>
      <trkpt lat="45.57599" lon="4.61064">
        <ele>367</ele>
        <time>2017-04-08T07:23:11Z</time>
      </trkpt>
      <trkpt lat="45.57583" lon="4.61073">
        <ele>366</ele>
        <time>2017-04-08T07:23:16Z</time>
      </trkpt>
      <trkpt lat="45.57566" lon="4.6108">
        <ele>365</ele>
        <time>2017-04-08T07:23:21Z</time>
      </trkpt>
      <trkpt lat="45.57553" lon="4.61089">
        <ele>365</ele>
        <time>2017-04-08T07:23:26Z</time>
      </trkpt>
      <trkpt lat="45.57546" lon="4.61083">
        <ele>364</ele>
        <time>2017-04-08T07:23:31Z</time>
      </trkpt>
      <trkpt lat="45.57547" lon="4.61071">
        <ele>364</ele>
        <time>2017-04-08T07:23:36Z</time>
      </trkpt>
      <trkpt lat="45.57549" lon="4.61057">
        <ele>363</ele>
        <time>2017-04-08T07:23:41Z</time>
      </trkpt>
      <trkpt lat="45.57549" lon="4.61045">
        <ele>362</ele>
        <time>2017-04-08T07:23:46Z</time>
      </trkpt>
      <trkpt lat="45.5755" lon="4.61031">
        <ele>362</ele>
        <time>2017-04-08T07:23:51Z</time>
      </trkpt>
      <trkpt lat="45.57549" lon="4.61017">
        <ele>363</ele>
        <time>2017-04-08T07:23:56Z</time>
      </trkpt>
      <trkpt lat="45.57547" lon="4.61005">
        <ele>363</ele>
        <time>2017-04-08T07:24:01Z</time>
      </trkpt>
      <trkpt lat="45.57546" lon="4.60994">
        <ele>364</ele>
        <time>2017-04-08T07:24:06Z</time>
      </trkpt>
      <trkpt lat="45.57546" lon="4.60981">
        <ele>364</ele>
        <time>2017-04-08T07:24:11Z</time>
      </trkpt>
      <trkpt lat="45.57546" lon="4.60969">
        <ele>365</ele>
        <time>2017-04-08T07:24:16Z</time>
      </trkpt>
      <trkpt lat="45.57547" lon="4.60955">
        <ele>365</ele>
        <time>2017-04-08T07:24:21Z</time>
      </trkpt>
      <trkpt lat="45.57548" lon="4.60943">
        <ele>365</ele>
        <time>2017-04-08T07:24:26Z</time>
      </trkpt>
      <trkpt lat="45.57548" lon="4.6093">
        <ele>365</ele>
        <time>2017-04-08T07:24:31Z</time>
      </trkpt>
      <trkpt lat="45.57549" lon="4.60916">
        <ele>366</ele>
        <time>2017-04-08T07:24:36Z</time>
      </trkpt>
      <trkpt lat="45.5755" lon="4.60903">
        <ele>366</ele>
        <time>2017-04-08T07:24:41Z</time>
      </trkpt>
      <trkpt lat="45.5755" lon="4.60889">
        <ele>367</ele>
        <time>2017-04-08T07:24:46Z</time>
      </trkpt>
      <trkpt lat="45.57551" lon="4.60875">
        <ele>368</ele>
        <time>2017-04-08T07:24:51Z</time>
      </trkpt>
      <trkpt lat="45.57551" lon="4.60862">
        <ele>369</ele>
        <time>2017-04-08T07:24:56Z</time>
      </trkpt>
      <trkpt lat="45.57553" lon="4.60855">
        <ele>370</ele>
        <time>2017-04-08T07:25:01Z</time>
      </trkpt>
      <trkpt lat="45.57554" lon="4.60846">
        <ele>371</ele>
        <time>2017-04-08T07:25:06Z</time>
      </trkpt>
      <trkpt lat="45.57555" lon="4.60831">
        <ele>371</ele>
        <time>2017-04-08T07:25:11Z</time>
      </trkpt>
      <trkpt lat="45.57556" lon="4.60817">
        <ele>370</ele>
        <time>2017-04-08T07:25:16Z</time>
      </trkpt>
      <trkpt lat="45.57557" lon="4.60805">
        <ele>370</ele>
        <time>2017-04-08T07:25:21Z</time>
      </trkpt>
      <trkpt lat="45.57558" lon="4.60792">
        <ele>370</ele>
        <time>2017-04-08T07:25:26Z</time>
      </trkpt>
      <trkpt lat="45.57559" lon="4.60777">
        <ele>370</ele>
        <time>2017-04-08T07:25:31Z</time>
      </trkpt>
      <trkpt lat="45.57561" lon="4.60762">
        <ele>369</ele>
        <time>2017-04-08T07:25:36Z</time>
      </trkpt>
      <trkpt lat="45.57561" lon="4.6075">
        <ele>368</ele>
        <time>2017-04-08T07:25:41Z</time>
      </trkpt>
      <trkpt lat="45.57559" lon="4.6074">
        <ele>368</ele>
        <time>2017-04-08T07:25:46Z</time>
      </trkpt>
      <trkpt lat="45.57559" lon="4.60728">
        <ele>367</ele>
        <time>2017-04-08T07:25:51Z</time>
      </trkpt>
      <trkpt lat="45.57561" lon="4.60713">
        <ele>366</ele>
        <time>2017-04-08T07:25:56Z</time>
      </trkpt>
      <trkpt lat="45.57562" lon="4.607">
        <ele>366</ele>
        <time>2017-04-08T07:26:01Z</time>
      </trkpt>
      <trkpt lat="45.57562" lon="4.60688">
        <ele>366</ele>
        <time>2017-04-08T07:26:06Z</time>
      </trkpt>
      <trkpt lat="45.57562" lon="4.60676">
        <ele>365</ele>
        <time>2017-04-08T07:26:11Z</time>
      </trkpt>
      <trkpt lat="45.57562" lon="4.60663">
        <ele>365</ele>
        <time>2017-04-08T07:26:16Z</time>
      </trkpt>
      <trkpt lat="45.57563" lon="4.6065">
        <ele>365</ele>
        <time>2017-04-08T07:26:21Z</time>
      </trkpt>
      <trkpt lat="45.57564" lon="4.60639">
        <ele>365</ele>
        <time>2017-04-08T07:26:26Z</time>
      </trkpt>
      <trkpt lat="45.57564" lon="4.60632">
        <ele>365</ele>
        <time>2017-04-08T07:26:31Z</time>
      </trkpt>
      <trkpt lat="45.57564" lon="4.6063">
        <ele>365</ele>
        <time>2017-04-08T07:26:52Z</time>
      </trkpt>
      <trkpt lat="45.57565" lon="4.60627">
        <ele>365</ele>
        <time>2017-04-08T07:26:59Z</time>
      </trkpt>
      <trkpt lat="45.57559" lon="4.60633">
        <ele>364</ele>
        <time>2017-04-08T07:27:10Z</time>
      </trkpt>
      <trkpt lat="45.5756" lon="4.60621">
        <ele>359</ele>
        <time>2017-04-08T07:28:26Z</time>
      </trkpt>
      <trkpt lat="45.57562" lon="4.60615">
        <ele>358</ele>
        <time>2017-04-08T07:28:31Z</time>
      </trkpt>
      <trkpt lat="45.57559" lon="4.60598">
        <ele>356</ele>
        <time>2017-04-08T07:28:41Z</time>
      </trkpt>
      <trkpt lat="45.57558" lon="4.60589">
        <ele>355</ele>
        <time>2017-04-08T07:28:46Z</time>
      </trkpt>
      <trkpt lat="45.57558" lon="4.60579">
        <ele>355</ele>
        <time>2017-04-08T07:28:51Z</time>
      </trkpt>
      <trkpt lat="45.57557" lon="4.60568">
        <ele>356</ele>
        <time>2017-04-08T07:28:56Z</time>
      </trkpt>
      <trkpt lat="45.57558" lon="4.60556">
        <ele>357</ele>
        <time>2017-04-08T07:29:01Z</time>
      </trkpt>
      <trkpt lat="45.57556" lon="4.60544">
        <ele>359</ele>
        <time>2017-04-08T07:29:06Z</time>
      </trkpt>
      <trkpt lat="45.57554" lon="4.60531">
        <ele>360</ele>
        <time>2017-04-08T07:29:11Z</time>
      </trkpt>
      <trkpt lat="45.57554" lon="4.60521">
        <ele>362</ele>
        <time>2017-04-08T07:29:16Z</time>
      </trkpt>
      <trkpt lat="45.57554" lon="4.60509">
        <ele>363</ele>
        <time>2017-04-08T07:29:21Z</time>
      </trkpt>
      <trkpt lat="45.57553" lon="4.60497">
        <ele>365</ele>
        <time>2017-04-08T07:29:26Z</time>
      </trkpt>
      <trkpt lat="45.57552" lon="4.60485">
        <ele>368</ele>
        <time>2017-04-08T07:29:31Z</time>
      </trkpt>
      <trkpt lat="45.57552" lon="4.60474">
        <ele>369</ele>
        <time>2017-04-08T07:29:36Z</time>
      </trkpt>
      <trkpt lat="45.57551" lon="4.60462">
        <ele>370</ele>
        <time>2017-04-08T07:29:41Z</time>
      </trkpt>
      <trkpt lat="45.5755" lon="4.6045">
        <ele>373</ele>
        <time>2017-04-08T07:29:46Z</time>
      </trkpt>
      <trkpt lat="45.5755" lon="4.60434">
        <ele>375</ele>
        <time>2017-04-08T07:29:51Z</time>
      </trkpt>
      <trkpt lat="45.57549" lon="4.60421">
        <ele>377</ele>
        <time>2017-04-08T07:29:56Z</time>
      </trkpt>
      <trkpt lat="45.5755" lon="4.60408">
        <ele>380</ele>
        <time>2017-04-08T07:30:01Z</time>
      </trkpt>
      <trkpt lat="45.57552" lon="4.60393">
        <ele>382</ele>
        <time>2017-04-08T07:30:06Z</time>
      </trkpt>
      <trkpt lat="45.5755" lon="4.60379">
        <ele>383</ele>
        <time>2017-04-08T07:30:11Z</time>
      </trkpt>
      <trkpt lat="45.57549" lon="4.60363">
        <ele>384</ele>
        <time>2017-04-08T07:30:16Z</time>
      </trkpt>
      <trkpt lat="45.57546" lon="4.60348">
        <ele>383</ele>
        <time>2017-04-08T07:30:21Z</time>
      </trkpt>
      <trkpt lat="45.57545" lon="4.60331">
        <ele>382</ele>
        <time>2017-04-08T07:30:26Z</time>
      </trkpt>
      <trkpt lat="45.57543" lon="4.60315">
        <ele>380</ele>
        <time>2017-04-08T07:30:31Z</time>
      </trkpt>
      <trkpt lat="45.57539" lon="4.60305">
        <ele>378</ele>
        <time>2017-04-08T07:30:36Z</time>
      </trkpt>
      <trkpt lat="45.57535" lon="4.60295">
        <ele>377</ele>
        <time>2017-04-08T07:30:41Z</time>
      </trkpt>
      <trkpt lat="45.57531" lon="4.60284">
        <ele>376</ele>
        <time>2017-04-08T07:30:46Z</time>
      </trkpt>
      <trkpt lat="45.57525" lon="4.60274">
        <ele>376</ele>
        <time>2017-04-08T07:30:52Z</time>
      </trkpt>
      <trkpt lat="45.5752" lon="4.60264">
        <ele>377</ele>
        <time>2017-04-08T07:30:58Z</time>
      </trkpt>
      <trkpt lat="45.57507" lon="4.60236">
        <ele>379</ele>
        <time>2017-04-08T07:31:08Z</time>
      </trkpt>
      <trkpt lat="45.57498" lon="4.60213">
        <ele>382</ele>
        <time>2017-04-08T07:31:16Z</time>
      </trkpt>
      <trkpt lat="45.5749" lon="4.60204">
        <ele>385</ele>
        <time>2017-04-08T07:31:21Z</time>
      </trkpt>
      <trkpt lat="45.57489" lon="4.60191">
        <ele>389</ele>
        <time>2017-04-08T07:31:26Z</time>
      </trkpt>
      <trkpt lat="45.57498" lon="4.60182">
        <ele>393</ele>
        <time>2017-04-08T07:31:31Z</time>
      </trkpt>
      <trkpt lat="45.57509" lon="4.60174">
        <ele>398</ele>
        <time>2017-04-08T07:31:36Z</time>
      </trkpt>
      <trkpt lat="45.57518" lon="4.60165">
        <ele>400</ele>
        <time>2017-04-08T07:31:41Z</time>
      </trkpt>
      <trkpt lat="45.57526" lon="4.60156">
        <ele>403</ele>
        <time>2017-04-08T07:31:46Z</time>
      </trkpt>
      <trkpt lat="45.57534" lon="4.60145">
        <ele>404</ele>
        <time>2017-04-08T07:31:51Z</time>
      </trkpt>
      <trkpt lat="45.57542" lon="4.60136">
        <ele>407</ele>
        <time>2017-04-08T07:31:56Z</time>
      </trkpt>
      <trkpt lat="45.57546" lon="4.60124">
        <ele>408</ele>
        <time>2017-04-08T07:32:01Z</time>
      </trkpt>
      <trkpt lat="45.57538" lon="4.60113">
        <ele>409</ele>
        <time>2017-04-08T07:32:06Z</time>
      </trkpt>
      <trkpt lat="45.57529" lon="4.60102">
        <ele>411</ele>
        <time>2017-04-08T07:32:11Z</time>
      </trkpt>
      <trkpt lat="45.57517" lon="4.6009">
        <ele>412</ele>
        <time>2017-04-08T07:32:16Z</time>
      </trkpt>
      <trkpt lat="45.57497" lon="4.60069">
        <ele>413</ele>
        <time>2017-04-08T07:32:21Z</time>
      </trkpt>
      <trkpt lat="45.57469" lon="4.60053">
        <ele>415</ele>
        <time>2017-04-08T07:32:26Z</time>
      </trkpt>
      <trkpt lat="45.57443" lon="4.60035">
        <ele>416</ele>
        <time>2017-04-08T07:32:31Z</time>
      </trkpt>
      <trkpt lat="45.57415" lon="4.60027">
        <ele>418</ele>
        <time>2017-04-08T07:32:36Z</time>
      </trkpt>
      <trkpt lat="45.57393" lon="4.60017">
        <ele>418</ele>
        <time>2017-04-08T07:32:41Z</time>
      </trkpt>
      <trkpt lat="45.57378" lon="4.59997">
        <ele>418</ele>
        <time>2017-04-08T07:32:46Z</time>
      </trkpt>
      <trkpt lat="45.57358" lon="4.5999">
        <ele>418</ele>
        <time>2017-04-08T07:32:51Z</time>
      </trkpt>
      <trkpt lat="45.57335" lon="4.59989">
        <ele>418</ele>
        <time>2017-04-08T07:32:56Z</time>
      </trkpt>
      <trkpt lat="45.57315" lon="4.59984">
        <ele>419</ele>
        <time>2017-04-08T07:33:01Z</time>
      </trkpt>
      <trkpt lat="45.57293" lon="4.59981">
        <ele>419</ele>
        <time>2017-04-08T07:33:06Z</time>
      </trkpt>
      <trkpt lat="45.57278" lon="4.59968">
        <ele>420</ele>
        <time>2017-04-08T07:33:11Z</time>
      </trkpt>
      <trkpt lat="45.5727" lon="4.5995">
        <ele>421</ele>
        <time>2017-04-08T07:33:16Z</time>
      </trkpt>
      <trkpt lat="45.57266" lon="4.59931">
        <ele>422</ele>
        <time>2017-04-08T07:33:21Z</time>
      </trkpt>
      <trkpt lat="45.57254" lon="4.59922">
        <ele>422</ele>
        <time>2017-04-08T07:33:26Z</time>
      </trkpt>
      <trkpt lat="45.57234" lon="4.59916">
        <ele>423</ele>
        <time>2017-04-08T07:33:31Z</time>
      </trkpt>
      <trkpt lat="45.57236" lon="4.59885">
        <ele>423</ele>
        <time>2017-04-08T07:33:36Z</time>
      </trkpt>
      <trkpt lat="45.57237" lon="4.59837">
        <ele>423</ele>
        <time>2017-04-08T07:33:41Z</time>
      </trkpt>
      <trkpt lat="45.57239" lon="4.59796">
        <ele>424</ele>
        <time>2017-04-08T07:33:46Z</time>
      </trkpt>
      <trkpt lat="45.57233" lon="4.59747">
        <ele>423</ele>
        <time>2017-04-08T07:33:51Z</time>
      </trkpt>
      <trkpt lat="45.57237" lon="4.59708">
        <ele>423</ele>
        <time>2017-04-08T07:33:56Z</time>
      </trkpt>
      <trkpt lat="45.5725" lon="4.59689">
        <ele>423</ele>
        <time>2017-04-08T07:34:01Z</time>
      </trkpt>
      <trkpt lat="45.57259" lon="4.59666">
        <ele>423</ele>
        <time>2017-04-08T07:34:06Z</time>
      </trkpt>
      <trkpt lat="45.57258" lon="4.59637">
        <ele>422</ele>
        <time>2017-04-08T07:34:12Z</time>
      </trkpt>
      <trkpt lat="45.57246" lon="4.59605">
        <ele>421</ele>
        <time>2017-04-08T07:34:21Z</time>
      </trkpt>
      <trkpt lat="45.57242" lon="4.59584">
        <ele>420</ele>
        <time>2017-04-08T07:34:26Z</time>
      </trkpt>
      <trkpt lat="45.57238" lon="4.59562">
        <ele>419</ele>
        <time>2017-04-08T07:34:31Z</time>
      </trkpt>
      <trkpt lat="45.57235" lon="4.59544">
        <ele>418</ele>
        <time>2017-04-08T07:34:36Z</time>
      </trkpt>
      <trkpt lat="45.57239" lon="4.59521">
        <ele>417</ele>
        <time>2017-04-08T07:34:41Z</time>
      </trkpt>
      <trkpt lat="45.57241" lon="4.59509">
        <ele>417</ele>
        <time>2017-04-08T07:34:46Z</time>
      </trkpt>
      <trkpt lat="45.57241" lon="4.59491">
        <ele>416</ele>
        <time>2017-04-08T07:34:51Z</time>
      </trkpt>
      <trkpt lat="45.57244" lon="4.59468">
        <ele>415</ele>
        <time>2017-04-08T07:34:56Z</time>
      </trkpt>
      <trkpt lat="45.57244" lon="4.59451">
        <ele>414</ele>
        <time>2017-04-08T07:35:01Z</time>
      </trkpt>
      <trkpt lat="45.57247" lon="4.59418">
        <ele>414</ele>
        <time>2017-04-08T07:35:06Z</time>
      </trkpt>
      <trkpt lat="45.57246" lon="4.59393">
        <ele>413</ele>
        <time>2017-04-08T07:35:11Z</time>
      </trkpt>
      <trkpt lat="45.57241" lon="4.59373">
        <ele>414</ele>
        <time>2017-04-08T07:35:16Z</time>
      </trkpt>
      <trkpt lat="45.57238" lon="4.59342">
        <ele>414</ele>
        <time>2017-04-08T07:35:21Z</time>
      </trkpt>
      <trkpt lat="45.57222" lon="4.59301">
        <ele>414</ele>
        <time>2017-04-08T07:35:27Z</time>
      </trkpt>
      <trkpt lat="45.57238" lon="4.59226">
        <ele>412</ele>
        <time>2017-04-08T07:35:37Z</time>
      </trkpt>
      <trkpt lat="45.5725" lon="4.59201">
        <ele>409</ele>
        <time>2017-04-08T07:35:42Z</time>
      </trkpt>
      <trkpt lat="45.57238" lon="4.592">
        <ele>404</ele>
        <time>2017-04-08T07:35:47Z</time>
      </trkpt>
      <trkpt lat="45.57228" lon="4.59188">
        <ele>402</ele>
        <time>2017-04-08T07:35:52Z</time>
      </trkpt>
      <trkpt lat="45.5722" lon="4.59175">
        <ele>399</ele>
        <time>2017-04-08T07:35:57Z</time>
      </trkpt>
      <trkpt lat="45.57217" lon="4.59148">
        <ele>398</ele>
        <time>2017-04-08T07:36:02Z</time>
      </trkpt>
      <trkpt lat="45.57195" lon="4.59076">
        <ele>397</ele>
        <time>2017-04-08T07:36:12Z</time>
      </trkpt>
      <trkpt lat="45.57173" lon="4.59037">
        <ele>397</ele>
        <time>2017-04-08T07:36:17Z</time>
      </trkpt>
      <trkpt lat="45.57163" lon="4.59014">
        <ele>396</ele>
        <time>2017-04-08T07:36:22Z</time>
      </trkpt>
      <trkpt lat="45.57147" lon="4.58984">
        <ele>395</ele>
        <time>2017-04-08T07:36:31Z</time>
      </trkpt>
      <trkpt lat="45.57135" lon="4.58972">
        <ele>394</ele>
        <time>2017-04-08T07:36:36Z</time>
      </trkpt>
      <trkpt lat="45.57123" lon="4.58956">
        <ele>393</ele>
        <time>2017-04-08T07:36:42Z</time>
      </trkpt>
      <trkpt lat="45.57122" lon="4.58931">
        <ele>393</ele>
        <time>2017-04-08T07:36:51Z</time>
      </trkpt>
      <trkpt lat="45.57129" lon="4.58902">
        <ele>392</ele>
        <time>2017-04-08T07:36:57Z</time>
      </trkpt>
      <trkpt lat="45.57116" lon="4.58889">
        <ele>391</ele>
        <time>2017-04-08T07:37:07Z</time>
      </trkpt>
      <trkpt lat="45.57104" lon="4.58871">
        <ele>391</ele>
        <time>2017-04-08T07:37:16Z</time>
      </trkpt>
      <trkpt lat="45.57103" lon="4.58853">
        <ele>391</ele>
        <time>2017-04-08T07:37:21Z</time>
      </trkpt>
      <trkpt lat="45.57098" lon="4.58843">
        <ele>391</ele>
        <time>2017-04-08T07:37:27Z</time>
      </trkpt>
      <trkpt lat="45.57097" lon="4.58831">
        <ele>392</ele>
        <time>2017-04-08T07:37:32Z</time>
      </trkpt>
      <trkpt lat="45.57102" lon="4.588">
        <ele>392</ele>
        <time>2017-04-08T07:37:41Z</time>
      </trkpt>
      <trkpt lat="45.57106" lon="4.58792">
        <ele>391</ele>
        <time>2017-04-08T07:37:46Z</time>
      </trkpt>
      <trkpt lat="45.57111" lon="4.58779">
        <ele>392</ele>
        <time>2017-04-08T07:37:56Z</time>
      </trkpt>
      <trkpt lat="45.57114" lon="4.58769">
        <ele>392</ele>
        <time>2017-04-08T07:38:01Z</time>
      </trkpt>
      <trkpt lat="45.57122" lon="4.58754">
        <ele>393</ele>
        <time>2017-04-08T07:38:06Z</time>
      </trkpt>
      <trkpt lat="45.57122" lon="4.58763">
        <ele>395</ele>
        <time>2017-04-08T07:38:12Z</time>
      </trkpt>
      <trkpt lat="45.57118" lon="4.5876">
        <ele>396</ele>
        <time>2017-04-08T07:38:17Z</time>
      </trkpt>
      <trkpt lat="45.57116" lon="4.58753">
        <ele>395</ele>
        <time>2017-04-08T07:38:22Z</time>
      </trkpt>
      <trkpt lat="45.57116" lon="4.58754">
        <ele>393</ele>
        <time>2017-04-08T07:38:37Z</time>
      </trkpt>
      <trkpt lat="45.57115" lon="4.58753">
        <ele>394</ele>
        <time>2017-04-08T07:40:08Z</time>
      </trkpt>
      <trkpt lat="45.57115" lon="4.58752">
        <ele>393</ele>
        <time>2017-04-08T07:40:12Z</time>
      </trkpt>
      <trkpt lat="45.57108" lon="4.58724">
        <ele>392</ele>
        <time>2017-04-08T07:40:22Z</time>
      </trkpt>
      <trkpt lat="45.57106" lon="4.58706">
        <ele>392</ele>
        <time>2017-04-08T07:40:27Z</time>
      </trkpt>
      <trkpt lat="45.57112" lon="4.58689">
        <ele>392</ele>
        <time>2017-04-08T07:40:32Z</time>
      </trkpt>
      <trkpt lat="45.57122" lon="4.58655">
        <ele>392</ele>
        <time>2017-04-08T07:40:42Z</time>
      </trkpt>
      <trkpt lat="45.57141" lon="4.58627">
        <ele>392</ele>
        <time>2017-04-08T07:40:51Z</time>
      </trkpt>
      <trkpt lat="45.57151" lon="4.58616">
        <ele>391</ele>
        <time>2017-04-08T07:40:56Z</time>
      </trkpt>
      <trkpt lat="45.57166" lon="4.58598">
        <ele>392</ele>
        <time>2017-04-08T07:41:02Z</time>
      </trkpt>
      <trkpt lat="45.57156" lon="4.58593">
        <ele>393</ele>
        <time>2017-04-08T07:41:07Z</time>
      </trkpt>
      <trkpt lat="45.57148" lon="4.58582">
        <ele>394</ele>
        <time>2017-04-08T07:41:12Z</time>
      </trkpt>
      <trkpt lat="45.57142" lon="4.58585">
        <ele>396</ele>
        <time>2017-04-08T07:41:17Z</time>
      </trkpt>
      <trkpt lat="45.5713" lon="4.58585">
        <ele>399</ele>
        <time>2017-04-08T07:41:26Z</time>
      </trkpt>
      <trkpt lat="45.57122" lon="4.58578">
        <ele>401</ele>
        <time>2017-04-08T07:41:32Z</time>
      </trkpt>
      <trkpt lat="45.57121" lon="4.58569">
        <ele>404</ele>
        <time>2017-04-08T07:41:37Z</time>
      </trkpt>
      <trkpt lat="45.57122" lon="4.58563">
        <ele>406</ele>
        <time>2017-04-08T07:41:42Z</time>
      </trkpt>
      <trkpt lat="45.57124" lon="4.58548">
        <ele>408</ele>
        <time>2017-04-08T07:41:47Z</time>
      </trkpt>
      <trkpt lat="45.57121" lon="4.58531">
        <ele>407</ele>
        <time>2017-04-08T07:42:02Z</time>
      </trkpt>
      <trkpt lat="45.57121" lon="4.58534">
        <ele>406</ele>
        <time>2017-04-08T07:42:22Z</time>
      </trkpt>
      <trkpt lat="45.57121" lon="4.58534">
        <ele>404</ele>
        <time>2017-04-08T07:42:28Z</time>
      </trkpt>
      <trkpt lat="45.57117" lon="4.5852">
        <ele>402</ele>
        <time>2017-04-08T07:42:38Z</time>
      </trkpt>
      <trkpt lat="45.57115" lon="4.5853">
        <ele>403</ele>
        <time>2017-04-08T07:42:43Z</time>
      </trkpt>
      <trkpt lat="45.57119" lon="4.5852">
        <ele>404</ele>
        <time>2017-04-08T07:42:52Z</time>
      </trkpt>
      <trkpt lat="45.57119" lon="4.58512">
        <ele>404</ele>
        <time>2017-04-08T07:42:58Z</time>
      </trkpt>
      <trkpt lat="45.57121" lon="4.585">
        <ele>406</ele>
        <time>2017-04-08T07:43:08Z</time>
      </trkpt>
      <trkpt lat="45.57117" lon="4.58496">
        <ele>407</ele>
        <time>2017-04-08T07:43:18Z</time>
      </trkpt>
      <trkpt lat="45.57117" lon="4.58495">
        <ele>407</ele>
        <time>2017-04-08T07:43:38Z</time>
      </trkpt>
      <trkpt lat="45.57118" lon="4.58488">
        <ele>409</ele>
        <time>2017-04-08T07:43:43Z</time>
      </trkpt>
      <trkpt lat="45.5712" lon="4.58445">
        <ele>411</ele>
        <time>2017-04-08T07:43:54Z</time>
      </trkpt>
      <trkpt lat="45.57126" lon="4.58422">
        <ele>412</ele>
        <time>2017-04-08T07:44:03Z</time>
      </trkpt>
      <trkpt lat="45.57129" lon="4.58412">
        <ele>414</ele>
        <time>2017-04-08T07:44:08Z</time>
      </trkpt>
      <trkpt lat="45.57133" lon="4.58402">
        <ele>416</ele>
        <time>2017-04-08T07:44:13Z</time>
      </trkpt>
      <trkpt lat="45.57139" lon="4.58393">
        <ele>417</ele>
        <time>2017-04-08T07:44:18Z</time>
      </trkpt>
      <trkpt lat="45.57144" lon="4.5837">
        <ele>418</ele>
        <time>2017-04-08T07:44:23Z</time>
      </trkpt>
      <trkpt lat="45.57144" lon="4.58351">
        <ele>418</ele>
        <time>2017-04-08T07:44:28Z</time>
      </trkpt>
      <trkpt lat="45.57149" lon="4.58332">
        <ele>419</ele>
        <time>2017-04-08T07:44:33Z</time>
      </trkpt>
      <trkpt lat="45.57151" lon="4.5831">
        <ele>420</ele>
        <time>2017-04-08T07:44:38Z</time>
      </trkpt>
      <trkpt lat="45.57146" lon="4.58297">
        <ele>421</ele>
        <time>2017-04-08T07:44:43Z</time>
      </trkpt>
      <trkpt lat="45.57134" lon="4.58286">
        <ele>423</ele>
        <time>2017-04-08T07:44:48Z</time>
      </trkpt>
      <trkpt lat="45.57106" lon="4.58252">
        <ele>425</ele>
        <time>2017-04-08T07:44:53Z</time>
      </trkpt>
      <trkpt lat="45.57086" lon="4.58239">
        <ele>426</ele>
        <time>2017-04-08T07:44:58Z</time>
      </trkpt>
      <trkpt lat="45.57066" lon="4.58242">
        <ele>428</ele>
        <time>2017-04-08T07:45:08Z</time>
      </trkpt>
      <trkpt lat="45.5706" lon="4.58232">
        <ele>431</ele>
        <time>2017-04-08T07:45:13Z</time>
      </trkpt>
      <trkpt lat="45.57058" lon="4.58226">
        <ele>432</ele>
        <time>2017-04-08T07:45:18Z</time>
      </trkpt>
      <trkpt lat="45.57057" lon="4.5822">
        <ele>433</ele>
        <time>2017-04-08T07:45:28Z</time>
      </trkpt>
      <trkpt lat="45.57057" lon="4.58221">
        <ele>436</ele>
        <time>2017-04-08T07:45:53Z</time>
      </trkpt>
      <trkpt lat="45.57057" lon="4.58221">
        <ele>436</ele>
        <time>2017-04-08T07:45:59Z</time>
      </trkpt>
      <trkpt lat="45.57055" lon="4.5822">
        <ele>438</ele>
        <time>2017-04-08T07:46:20Z</time>
      </trkpt>
      <trkpt lat="45.57055" lon="4.5822">
        <ele>440</ele>
        <time>2017-04-08T07:46:29Z</time>
      </trkpt>
      <trkpt lat="45.5706" lon="4.58194">
        <ele>443</ele>
        <time>2017-04-08T07:46:40Z</time>
      </trkpt>
      <trkpt lat="45.57061" lon="4.58184">
        <ele>443</ele>
        <time>2017-04-08T07:46:45Z</time>
      </trkpt>
      <trkpt lat="45.57062" lon="4.58175">
        <ele>444</ele>
        <time>2017-04-08T07:46:54Z</time>
      </trkpt>
      <trkpt lat="45.57058" lon="4.58169">
        <ele>444</ele>
        <time>2017-04-08T07:47:19Z</time>
      </trkpt>
      <trkpt lat="45.57052" lon="4.58165">
        <ele>442</ele>
        <time>2017-04-08T07:47:24Z</time>
      </trkpt>
      <trkpt lat="45.57049" lon="4.58157">
        <ele>440</ele>
        <time>2017-04-08T07:47:29Z</time>
      </trkpt>
      <trkpt lat="45.57043" lon="4.58154">
        <ele>439</ele>
        <time>2017-04-08T07:47:34Z</time>
      </trkpt>
      <trkpt lat="45.57038" lon="4.5815">
        <ele>439</ele>
        <time>2017-04-08T07:47:43Z</time>
      </trkpt>
      <trkpt lat="45.57039" lon="4.58156">
        <ele>441</ele>
        <time>2017-04-08T07:48:04Z</time>
      </trkpt>
      <trkpt lat="45.5704" lon="4.58156">
        <ele>445</ele>
        <time>2017-04-08T07:48:12Z</time>
      </trkpt>
      <trkpt lat="45.57036" lon="4.5815">
        <ele>448</ele>
        <time>2017-04-08T07:48:36Z</time>
      </trkpt>
      <trkpt lat="45.57034" lon="4.58137">
        <ele>449</ele>
        <time>2017-04-08T07:48:41Z</time>
      </trkpt>
      <trkpt lat="45.57031" lon="4.58122">
        <ele>450</ele>
        <time>2017-04-08T07:48:47Z</time>
      </trkpt>
      <trkpt lat="45.57029" lon="4.5811">
        <ele>446</ele>
        <time>2017-04-08T07:48:52Z</time>
      </trkpt>
      <trkpt lat="45.57031" lon="4.58086">
        <ele>443</ele>
        <time>2017-04-08T07:49:02Z</time>
      </trkpt>
      <trkpt lat="45.57027" lon="4.58075">
        <ele>440</ele>
        <time>2017-04-08T07:49:07Z</time>
      </trkpt>
      <trkpt lat="45.57023" lon="4.58072">
        <ele>438</ele>
        <time>2017-04-08T07:49:12Z</time>
      </trkpt>
      <trkpt lat="45.57007" lon="4.58084">
        <ele>437</ele>
        <time>2017-04-08T07:49:21Z</time>
      </trkpt>
      <trkpt lat="45.56995" lon="4.58084">
        <ele>437</ele>
        <time>2017-04-08T07:49:27Z</time>
      </trkpt>
      <trkpt lat="45.56984" lon="4.58074">
        <ele>438</ele>
        <time>2017-04-08T07:49:32Z</time>
      </trkpt>
      <trkpt lat="45.56967" lon="4.58053">
        <ele>440</ele>
        <time>2017-04-08T07:49:42Z</time>
      </trkpt>
      <trkpt lat="45.56956" lon="4.58024">
        <ele>441</ele>
        <time>2017-04-08T07:49:51Z</time>
      </trkpt>
      <trkpt lat="45.56957" lon="4.58004">
        <ele>442</ele>
        <time>2017-04-08T07:49:56Z</time>
      </trkpt>
      <trkpt lat="45.56952" lon="4.57984">
        <ele>443</ele>
        <time>2017-04-08T07:50:01Z</time>
      </trkpt>
      <trkpt lat="45.56939" lon="4.57966">
        <ele>443</ele>
        <time>2017-04-08T07:50:06Z</time>
      </trkpt>
      <trkpt lat="45.56921" lon="4.57949">
        <ele>443</ele>
        <time>2017-04-08T07:50:12Z</time>
      </trkpt>
      <trkpt lat="45.56911" lon="4.57936">
        <ele>444</ele>
        <time>2017-04-08T07:50:17Z</time>
      </trkpt>
      <trkpt lat="45.569" lon="4.57922">
        <ele>444</ele>
        <time>2017-04-08T07:50:22Z</time>
      </trkpt>
      <trkpt lat="45.5689" lon="4.57903">
        <ele>444</ele>
        <time>2017-04-08T07:50:27Z</time>
      </trkpt>
      <trkpt lat="45.56877" lon="4.57887">
        <ele>444</ele>
        <time>2017-04-08T07:50:32Z</time>
      </trkpt>
      <trkpt lat="45.56866" lon="4.57873">
        <ele>445</ele>
        <time>2017-04-08T07:50:37Z</time>
      </trkpt>
      <trkpt lat="45.56856" lon="4.57862">
        <ele>445</ele>
        <time>2017-04-08T07:50:42Z</time>
      </trkpt>
      <trkpt lat="45.56849" lon="4.57852">
        <ele>447</ele>
        <time>2017-04-08T07:50:47Z</time>
      </trkpt>
      <trkpt lat="45.56841" lon="4.57841">
        <ele>448</ele>
        <time>2017-04-08T07:50:52Z</time>
      </trkpt>
      <trkpt lat="45.56831" lon="4.57837">
        <ele>449</ele>
        <time>2017-04-08T07:50:57Z</time>
      </trkpt>
      <trkpt lat="45.56822" lon="4.57831">
        <ele>451</ele>
        <time>2017-04-08T07:51:02Z</time>
      </trkpt>
      <trkpt lat="45.56813" lon="4.57825">
        <ele>453</ele>
        <time>2017-04-08T07:51:07Z</time>
      </trkpt>
      <trkpt lat="45.56805" lon="4.57816">
        <ele>454</ele>
        <time>2017-04-08T07:51:12Z</time>
      </trkpt>
      <trkpt lat="45.56798" lon="4.57806">
        <ele>456</ele>
        <time>2017-04-08T07:51:17Z</time>
      </trkpt>
      <trkpt lat="45.56786" lon="4.5779">
        <ele>458</ele>
        <time>2017-04-08T07:51:26Z</time>
      </trkpt>
      <trkpt lat="45.5678" lon="4.5778">
        <ele>461</ele>
        <time>2017-04-08T07:51:31Z</time>
      </trkpt>
      <trkpt lat="45.56773" lon="4.57766">
        <ele>462</ele>
        <time>2017-04-08T07:51:37Z</time>
      </trkpt>
      <trkpt lat="45.56766" lon="4.57757">
        <ele>463</ele>
        <time>2017-04-08T07:51:42Z</time>
      </trkpt>
      <trkpt lat="45.56758" lon="4.57739">
        <ele>461</ele>
        <time>2017-04-08T07:51:52Z</time>
      </trkpt>
      <trkpt lat="45.56755" lon="4.57741">
        <ele>462</ele>
        <time>2017-04-08T07:52:07Z</time>
      </trkpt>
      <trkpt lat="45.56754" lon="4.57741">
        <ele>462</ele>
        <time>2017-04-08T07:52:13Z</time>
      </trkpt>
      <trkpt lat="45.56746" lon="4.57725">
        <ele>462</ele>
        <time>2017-04-08T07:52:23Z</time>
      </trkpt>
      <trkpt lat="45.56732" lon="4.57715">
        <ele>462</ele>
        <time>2017-04-08T07:52:33Z</time>
      </trkpt>
      <trkpt lat="45.56729" lon="4.57702">
        <ele>464</ele>
        <time>2017-04-08T07:52:38Z</time>
      </trkpt>
      <trkpt lat="45.56728" lon="4.57695">
        <ele>463</ele>
        <time>2017-04-08T07:52:43Z</time>
      </trkpt>
      <trkpt lat="45.56725" lon="4.57686">
        <ele>463</ele>
        <time>2017-04-08T07:52:48Z</time>
      </trkpt>
      <trkpt lat="45.56722" lon="4.5768">
        <ele>464</ele>
        <time>2017-04-08T07:52:53Z</time>
      </trkpt>
      <trkpt lat="45.56714" lon="4.57675">
        <ele>466</ele>
        <time>2017-04-08T07:53:02Z</time>
      </trkpt>
      <trkpt lat="45.5671" lon="4.57668">
        <ele>468</ele>
        <time>2017-04-08T07:53:07Z</time>
      </trkpt>
      <trkpt lat="45.56708" lon="4.57658">
        <ele>469</ele>
        <time>2017-04-08T07:53:12Z</time>
      </trkpt>
      <trkpt lat="45.56706" lon="4.57644">
        <ele>470</ele>
        <time>2017-04-08T07:53:17Z</time>
      </trkpt>
      <trkpt lat="45.56702" lon="4.57633">
        <ele>469</ele>
        <time>2017-04-08T07:53:22Z</time>
      </trkpt>
      <trkpt lat="45.56698" lon="4.57624">
        <ele>468</ele>
        <time>2017-04-08T07:53:27Z</time>
      </trkpt>
      <trkpt lat="45.56694" lon="4.57619">
        <ele>467</ele>
        <time>2017-04-08T07:53:32Z</time>
      </trkpt>
      <trkpt lat="45.56694" lon="4.5762">
        <ele>468</ele>
        <time>2017-04-08T07:53:53Z</time>
      </trkpt>
      <trkpt lat="45.56694" lon="4.5762">
        <ele>470</ele>
        <time>2017-04-08T07:53:58Z</time>
      </trkpt>
      <trkpt lat="45.56691" lon="4.57611">
        <ele>472</ele>
        <time>2017-04-08T07:54:08Z</time>
      </trkpt>
      <trkpt lat="45.56688" lon="4.57603">
        <ele>473</ele>
        <time>2017-04-08T07:54:13Z</time>
      </trkpt>
      <trkpt lat="45.56683" lon="4.57592">
        <ele>475</ele>
        <time>2017-04-08T07:54:22Z</time>
      </trkpt>
      <trkpt lat="45.56679" lon="4.57588">
        <ele>478</ele>
        <time>2017-04-08T07:54:28Z</time>
      </trkpt>
      <trkpt lat="45.56674" lon="4.57587">
        <ele>480</ele>
        <time>2017-04-08T07:54:33Z</time>
      </trkpt>
      <trkpt lat="45.56672" lon="4.5758">
        <ele>483</ele>
        <time>2017-04-08T07:54:38Z</time>
      </trkpt>
      <trkpt lat="45.56674" lon="4.5758">
        <ele>494</ele>
        <time>2017-04-08T07:57:18Z</time>
      </trkpt>
      <trkpt lat="45.56674" lon="4.57579">
        <ele>494</ele>
        <time>2017-04-08T07:57:29Z</time>
      </trkpt>
      <trkpt lat="45.56655" lon="4.57552">
        <ele>494</ele>
        <time>2017-04-08T07:57:39Z</time>
      </trkpt>
      <trkpt lat="45.56639" lon="4.57535">
        <ele>494</ele>
        <time>2017-04-08T07:57:44Z</time>
      </trkpt>
      <trkpt lat="45.56622" lon="4.57518">
        <ele>494</ele>
        <time>2017-04-08T07:57:49Z</time>
      </trkpt>
      <trkpt lat="45.56592" lon="4.57478">
        <ele>494</ele>
        <time>2017-04-08T07:57:59Z</time>
      </trkpt>
      <trkpt lat="45.56576" lon="4.57459">
        <ele>494</ele>
        <time>2017-04-08T07:58:04Z</time>
      </trkpt>
      <trkpt lat="45.5656" lon="4.57435">
        <ele>493</ele>
        <time>2017-04-08T07:58:09Z</time>
      </trkpt>
      <trkpt lat="45.56541" lon="4.57417">
        <ele>493</ele>
        <time>2017-04-08T07:58:14Z</time>
      </trkpt>
      <trkpt lat="45.56523" lon="4.57406">
        <ele>493</ele>
        <time>2017-04-08T07:58:19Z</time>
      </trkpt>
      <trkpt lat="45.56507" lon="4.57414">
        <ele>496</ele>
        <time>2017-04-08T07:58:24Z</time>
      </trkpt>
      <trkpt lat="45.56496" lon="4.57434">
        <ele>498</ele>
        <time>2017-04-08T07:58:29Z</time>
      </trkpt>
      <trkpt lat="45.56503" lon="4.57445">
        <ele>495</ele>
        <time>2017-04-08T07:58:43Z</time>
      </trkpt>
      <trkpt lat="45.56509" lon="4.5746">
        <ele>492</ele>
        <time>2017-04-08T07:58:48Z</time>
      </trkpt>
      <trkpt lat="45.56516" lon="4.57475">
        <ele>488</ele>
        <time>2017-04-08T07:58:53Z</time>
      </trkpt>
      <trkpt lat="45.56523" lon="4.57491">
        <ele>482</ele>
        <time>2017-04-08T07:58:58Z</time>
      </trkpt>
      <trkpt lat="45.56531" lon="4.57508">
        <ele>477</ele>
        <time>2017-04-08T07:59:03Z</time>
      </trkpt>
      <trkpt lat="45.56542" lon="4.57523">
        <ele>477</ele>
        <time>2017-04-08T07:59:08Z</time>
      </trkpt>
      <trkpt lat="45.56553" lon="4.5754">
        <ele>479</ele>
        <time>2017-04-08T07:59:13Z</time>
      </trkpt>
      <trkpt lat="45.56563" lon="4.57556">
        <ele>479</ele>
        <time>2017-04-08T07:59:18Z</time>
      </trkpt>
      <trkpt lat="45.56582" lon="4.57587">
        <ele>477</ele>
        <time>2017-04-08T07:59:28Z</time>
      </trkpt>
      <trkpt lat="45.56589" lon="4.57609">
        <ele>475</ele>
        <time>2017-04-08T07:59:34Z</time>
      </trkpt>
      <trkpt lat="45.56606" lon="4.57648">
        <ele>473</ele>
        <time>2017-04-08T07:59:44Z</time>
      </trkpt>
      <trkpt lat="45.56622" lon="4.57681">
        <ele>471</ele>
        <time>2017-04-08T07:59:53Z</time>
      </trkpt>
      <trkpt lat="45.56628" lon="4.577">
        <ele>470</ele>
        <time>2017-04-08T07:59:58Z</time>
      </trkpt>
      <trkpt lat="45.56631" lon="4.57721">
        <ele>472</ele>
        <time>2017-04-08T08:00:03Z</time>
      </trkpt>
      <trkpt lat="45.5663" lon="4.5774">
        <ele>474</ele>
        <time>2017-04-08T08:00:08Z</time>
      </trkpt>
      <trkpt lat="45.56627" lon="4.5776">
        <ele>476</ele>
        <time>2017-04-08T08:00:13Z</time>
      </trkpt>
      <trkpt lat="45.56619" lon="4.57783">
        <ele>476</ele>
        <time>2017-04-08T08:00:18Z</time>
      </trkpt>
      <trkpt lat="45.56614" lon="4.57804">
        <ele>476</ele>
        <time>2017-04-08T08:00:23Z</time>
      </trkpt>
      <trkpt lat="45.56614" lon="4.57821">
        <ele>476</ele>
        <time>2017-04-08T08:00:28Z</time>
      </trkpt>
      <trkpt lat="45.56615" lon="4.57839">
        <ele>476</ele>
        <time>2017-04-08T08:00:33Z</time>
      </trkpt>
      <trkpt lat="45.5662" lon="4.57858">
        <ele>476</ele>
        <time>2017-04-08T08:00:38Z</time>
      </trkpt>
      <trkpt lat="45.56629" lon="4.57873">
        <ele>476</ele>
        <time>2017-04-08T08:00:43Z</time>
      </trkpt>
      <trkpt lat="45.56637" lon="4.57886">
        <ele>476</ele>
        <time>2017-04-08T08:00:48Z</time>
      </trkpt>
      <trkpt lat="45.56647" lon="4.57893">
        <ele>476</ele>
        <time>2017-04-08T08:00:53Z</time>
      </trkpt>
      <trkpt lat="45.56652" lon="4.57903">
        <ele>474</ele>
        <time>2017-04-08T08:00:59Z</time>
      </trkpt>
      <trkpt lat="45.56659" lon="4.57908">
        <ele>472</ele>
        <time>2017-04-08T08:01:04Z</time>
      </trkpt>
      <trkpt lat="45.56677" lon="4.57923">
        <ele>471</ele>
        <time>2017-04-08T08:01:14Z</time>
      </trkpt>
      <trkpt lat="45.56683" lon="4.57932">
        <ele>473</ele>
        <time>2017-04-08T08:01:24Z</time>
      </trkpt>
      <trkpt lat="45.56682" lon="4.57929">
        <ele>473</ele>
        <time>2017-04-08T08:01:38Z</time>
      </trkpt>
      <trkpt lat="45.56682" lon="4.57929">
        <ele>474</ele>
        <time>2017-04-08T08:01:43Z</time>
      </trkpt>
      <trkpt lat="45.56683" lon="4.57948">
        <ele>476</ele>
        <time>2017-04-08T08:01:52Z</time>
      </trkpt>
      <trkpt lat="45.56685" lon="4.57965">
        <ele>477</ele>
        <time>2017-04-08T08:01:58Z</time>
      </trkpt>
      <trkpt lat="45.56692" lon="4.57982">
        <ele>478</ele>
        <time>2017-04-08T08:02:07Z</time>
      </trkpt>
      <trkpt lat="45.56691" lon="4.57983">
        <ele>480</ele>
        <time>2017-04-08T08:02:22Z</time>
      </trkpt>
      <trkpt lat="45.56693" lon="4.57989">
        <ele>482</ele>
        <time>2017-04-08T08:02:27Z</time>
      </trkpt>
      <trkpt lat="45.56696" lon="4.57995">
        <ele>485</ele>
        <time>2017-04-08T08:02:41Z</time>
      </trkpt>
      <trkpt lat="45.56694" lon="4.58007">
        <ele>486</ele>
        <time>2017-04-08T08:02:56Z</time>
      </trkpt>
      <trkpt lat="45.56694" lon="4.58018">
        <ele>486</ele>
        <time>2017-04-08T08:03:01Z</time>
      </trkpt>
      <trkpt lat="45.56695" lon="4.58027">
        <ele>486</ele>
        <time>2017-04-08T08:03:06Z</time>
      </trkpt>
      <trkpt lat="45.56698" lon="4.58037">
        <ele>487</ele>
        <time>2017-04-08T08:03:11Z</time>
      </trkpt>
      <trkpt lat="45.56702" lon="4.58045">
        <ele>486</ele>
        <time>2017-04-08T08:03:16Z</time>
      </trkpt>
      <trkpt lat="45.56702" lon="4.58055">
        <ele>485</ele>
        <time>2017-04-08T08:03:21Z</time>
      </trkpt>
      <trkpt lat="45.56703" lon="4.58064">
        <ele>484</ele>
        <time>2017-04-08T08:03:26Z</time>
      </trkpt>
      <trkpt lat="45.56706" lon="4.58074">
        <ele>485</ele>
        <time>2017-04-08T08:03:31Z</time>
      </trkpt>
      <trkpt lat="45.5671" lon="4.58083">
        <ele>485</ele>
        <time>2017-04-08T08:03:36Z</time>
      </trkpt>
      <trkpt lat="45.56715" lon="4.5809">
        <ele>486</ele>
        <time>2017-04-08T08:03:41Z</time>
      </trkpt>
      <trkpt lat="45.56718" lon="4.58099">
        <ele>487</ele>
        <time>2017-04-08T08:03:46Z</time>
      </trkpt>
      <trkpt lat="45.56718" lon="4.58107">
        <ele>490</ele>
        <time>2017-04-08T08:03:51Z</time>
      </trkpt>
      <trkpt lat="45.56723" lon="4.58115">
        <ele>492</ele>
        <time>2017-04-08T08:03:56Z</time>
      </trkpt>
      <trkpt lat="45.56726" lon="4.58124">
        <ele>494</ele>
        <time>2017-04-08T08:04:01Z</time>
      </trkpt>
      <trkpt lat="45.5673" lon="4.58133">
        <ele>496</ele>
        <time>2017-04-08T08:04:06Z</time>
      </trkpt>
      <trkpt lat="45.56725" lon="4.58139">
        <ele>496</ele>
        <time>2017-04-08T08:04:12Z</time>
      </trkpt>
      <trkpt lat="45.56728" lon="4.58136">
        <ele>487</ele>
        <time>2017-04-08T08:07:09Z</time>
      </trkpt>
      <trkpt lat="45.5673" lon="4.58139">
        <ele>489</ele>
        <time>2017-04-08T08:07:13Z</time>
      </trkpt>
      <trkpt lat="45.56731" lon="4.58153">
        <ele>492</ele>
        <time>2017-04-08T08:07:23Z</time>
      </trkpt>
      <trkpt lat="45.56722" lon="4.58154">
        <ele>493</ele>
        <time>2017-04-08T08:07:28Z</time>
      </trkpt>
      <trkpt lat="45.56723" lon="4.58148">
        <ele>494</ele>
        <time>2017-04-08T08:07:37Z</time>
      </trkpt>
      <trkpt lat="45.56723" lon="4.58152">
        <ele>496</ele>
        <time>2017-04-08T08:07:52Z</time>
      </trkpt>
      <trkpt lat="45.56721" lon="4.58151">
        <ele>497</ele>
        <time>2017-04-08T08:07:58Z</time>
      </trkpt>
      <trkpt lat="45.5672" lon="4.5816">
        <ele>499</ele>
        <time>2017-04-08T08:08:18Z</time>
      </trkpt>
      <trkpt lat="45.56718" lon="4.58163">
        <ele>503</ele>
        <time>2017-04-08T08:08:37Z</time>
      </trkpt>
      <trkpt lat="45.56718" lon="4.58164">
        <ele>508</ele>
        <time>2017-04-08T08:08:43Z</time>
      </trkpt>
      <trkpt lat="45.56713" lon="4.58164">
        <ele>509</ele>
        <time>2017-04-08T08:08:57Z</time>
      </trkpt>
      <trkpt lat="45.56706" lon="4.58167">
        <ele>513</ele>
        <time>2017-04-08T08:09:22Z</time>
      </trkpt>
      <trkpt lat="45.56706" lon="4.58141">
        <ele>512</ele>
        <time>2017-04-08T08:09:28Z</time>
      </trkpt>
      <trkpt lat="45.56702" lon="4.58147">
        <ele>511</ele>
        <time>2017-04-08T08:09:37Z</time>
      </trkpt>
      <trkpt lat="45.56702" lon="4.58152">
        <ele>511</ele>
        <time>2017-04-08T08:09:52Z</time>
      </trkpt>
      <trkpt lat="45.56697" lon="4.58157">
        <ele>513</ele>
        <time>2017-04-08T08:09:58Z</time>
      </trkpt>
      <trkpt lat="45.56684" lon="4.58161">
        <ele>512</ele>
        <time>2017-04-08T08:10:07Z</time>
      </trkpt>
      <trkpt lat="45.56679" lon="4.58162">
        <ele>513</ele>
        <time>2017-04-08T08:10:12Z</time>
      </trkpt>
      <trkpt lat="45.56674" lon="4.58164">
        <ele>514</ele>
        <time>2017-04-08T08:10:17Z</time>
      </trkpt>
      <trkpt lat="45.56669" lon="4.58166">
        <ele>515</ele>
        <time>2017-04-08T08:10:22Z</time>
      </trkpt>
      <trkpt lat="45.56664" lon="4.58166">
        <ele>514</ele>
        <time>2017-04-08T08:10:28Z</time>
      </trkpt>
      <trkpt lat="45.56658" lon="4.5817">
        <ele>516</ele>
        <time>2017-04-08T08:10:38Z</time>
      </trkpt>
      <trkpt lat="45.56653" lon="4.58173">
        <ele>517</ele>
        <time>2017-04-08T08:10:43Z</time>
      </trkpt>
      <trkpt lat="45.56653" lon="4.58174">
        <ele>518</ele>
        <time>2017-04-08T08:11:08Z</time>
      </trkpt>
      <trkpt lat="45.5665" lon="4.58178">
        <ele>521</ele>
        <time>2017-04-08T08:11:14Z</time>
      </trkpt>
      <trkpt lat="45.56641" lon="4.58178">
        <ele>523</ele>
        <time>2017-04-08T08:11:25Z</time>
      </trkpt>
      <trkpt lat="45.5663" lon="4.58176">
        <ele>526</ele>
        <time>2017-04-08T08:11:34Z</time>
      </trkpt>
      <trkpt lat="45.56625" lon="4.58172">
        <ele>529</ele>
        <time>2017-04-08T08:11:40Z</time>
      </trkpt>
      <trkpt lat="45.56618" lon="4.58172">
        <ele>531</ele>
        <time>2017-04-08T08:11:49Z</time>
      </trkpt>
      <trkpt lat="45.56611" lon="4.58174">
        <ele>531</ele>
        <time>2017-04-08T08:11:54Z</time>
      </trkpt>
      <trkpt lat="45.56601" lon="4.5818">
        <ele>531</ele>
        <time>2017-04-08T08:11:59Z</time>
      </trkpt>
      <trkpt lat="45.56593" lon="4.58184">
        <ele>532</ele>
        <time>2017-04-08T08:12:04Z</time>
      </trkpt>
      <trkpt lat="45.56578" lon="4.58184">
        <ele>530</ele>
        <time>2017-04-08T08:12:14Z</time>
      </trkpt>
      <trkpt lat="45.5657" lon="4.58184">
        <ele>531</ele>
        <time>2017-04-08T08:12:23Z</time>
      </trkpt>
      <trkpt lat="45.56562" lon="4.58188">
        <ele>531</ele>
        <time>2017-04-08T08:12:28Z</time>
      </trkpt>
      <trkpt lat="45.56557" lon="4.58178">
        <ele>529</ele>
        <time>2017-04-08T08:12:33Z</time>
      </trkpt>
      <trkpt lat="45.56553" lon="4.58172">
        <ele>525</ele>
        <time>2017-04-08T08:12:39Z</time>
      </trkpt>
      <trkpt lat="45.56549" lon="4.58176">
        <ele>524</ele>
        <time>2017-04-08T08:12:54Z</time>
      </trkpt>
      <trkpt lat="45.56537" lon="4.58182">
        <ele>524</ele>
        <time>2017-04-08T08:13:04Z</time>
      </trkpt>
      <trkpt lat="45.56522" lon="4.58192">
        <ele>526</ele>
        <time>2017-04-08T08:13:13Z</time>
      </trkpt>
      <trkpt lat="45.56516" lon="4.58196">
        <ele>532</ele>
        <time>2017-04-08T08:13:18Z</time>
      </trkpt>
      <trkpt lat="45.5651" lon="4.58198">
        <ele>539</ele>
        <time>2017-04-08T08:13:23Z</time>
      </trkpt>
      <trkpt lat="45.56505" lon="4.582">
        <ele>545</ele>
        <time>2017-04-08T08:13:28Z</time>
      </trkpt>
      <trkpt lat="45.565" lon="4.58199">
        <ele>549</ele>
        <time>2017-04-08T08:13:33Z</time>
      </trkpt>
      <trkpt lat="45.56494" lon="4.58199">
        <ele>551</ele>
        <time>2017-04-08T08:13:38Z</time>
      </trkpt>
      <trkpt lat="45.56485" lon="4.58202">
        <ele>551</ele>
        <time>2017-04-08T08:13:44Z</time>
      </trkpt>
      <trkpt lat="45.56487" lon="4.58196">
        <ele>550</ele>
        <time>2017-04-08T08:13:54Z</time>
      </trkpt>
      <trkpt lat="45.56486" lon="4.58195">
        <ele>549</ele>
        <time>2017-04-08T08:14:08Z</time>
      </trkpt>
      <trkpt lat="45.56486" lon="4.58195">
        <ele>548</ele>
        <time>2017-04-08T08:14:12Z</time>
      </trkpt>
      <trkpt lat="45.56486" lon="4.58196">
        <ele>546</ele>
        <time>2017-04-08T08:14:37Z</time>
      </trkpt>
      <trkpt lat="45.56486" lon="4.58196">
        <ele>538</ele>
        <time>2017-04-08T08:14:43Z</time>
      </trkpt>
      <trkpt lat="45.5648" lon="4.58203">
        <ele>534</ele>
        <time>2017-04-08T08:14:53Z</time>
      </trkpt>
      <trkpt lat="45.5647" lon="4.58205">
        <ele>533</ele>
        <time>2017-04-08T08:15:01Z</time>
      </trkpt>
      <trkpt lat="45.56468" lon="4.58211">
        <ele>533</ele>
        <time>2017-04-08T08:15:17Z</time>
      </trkpt>
      <trkpt lat="45.56464" lon="4.58209">
        <ele>532</ele>
        <time>2017-04-08T08:15:27Z</time>
      </trkpt>
      <trkpt lat="45.56458" lon="4.58214">
        <ele>541</ele>
        <time>2017-04-08T08:15:37Z</time>
      </trkpt>
      <trkpt lat="45.56453" lon="4.58217">
        <ele>545</ele>
        <time>2017-04-08T08:15:42Z</time>
      </trkpt>
      <trkpt lat="45.5645" lon="4.58212">
        <ele>545</ele>
        <time>2017-04-08T08:15:47Z</time>
      </trkpt>
      <trkpt lat="45.56447" lon="4.58206">
        <ele>545</ele>
        <time>2017-04-08T08:15:52Z</time>
      </trkpt>
      <trkpt lat="45.56443" lon="4.5821">
        <ele>546</ele>
        <time>2017-04-08T08:15:57Z</time>
      </trkpt>
      <trkpt lat="45.56439" lon="4.58217">
        <ele>545</ele>
        <time>2017-04-08T08:16:02Z</time>
      </trkpt>
      <trkpt lat="45.56436" lon="4.58226">
        <ele>547</ele>
        <time>2017-04-08T08:16:07Z</time>
      </trkpt>
      <trkpt lat="45.56432" lon="4.58235">
        <ele>550</ele>
        <time>2017-04-08T08:16:12Z</time>
      </trkpt>
      <trkpt lat="45.56428" lon="4.58241">
        <ele>553</ele>
        <time>2017-04-08T08:16:17Z</time>
      </trkpt>
      <trkpt lat="45.56424" lon="4.58246">
        <ele>555</ele>
        <time>2017-04-08T08:16:27Z</time>
      </trkpt>
      <trkpt lat="45.56421" lon="4.58255">
        <ele>558</ele>
        <time>2017-04-08T08:16:37Z</time>
      </trkpt>
      <trkpt lat="45.56413" lon="4.58256">
        <ele>559</ele>
        <time>2017-04-08T08:16:47Z</time>
      </trkpt>
      <trkpt lat="45.56406" lon="4.58262">
        <ele>561</ele>
        <time>2017-04-08T08:16:58Z</time>
      </trkpt>
      <trkpt lat="45.56397" lon="4.58268">
        <ele>562</ele>
        <time>2017-04-08T08:17:10Z</time>
      </trkpt>
      <trkpt lat="45.56376" lon="4.58286">
        <ele>565</ele>
        <time>2017-04-08T08:17:43Z</time>
      </trkpt>
      <trkpt lat="45.56372" lon="4.58296">
        <ele>567</ele>
        <time>2017-04-08T08:17:53Z</time>
      </trkpt>
      <trkpt lat="45.56366" lon="4.58296">
        <ele>569</ele>
        <time>2017-04-08T08:18:02Z</time>
      </trkpt>
      <trkpt lat="45.5636" lon="4.583">
        <ele>571</ele>
        <time>2017-04-08T08:18:09Z</time>
      </trkpt>
      <trkpt lat="45.56355" lon="4.58309">
        <ele>575</ele>
        <time>2017-04-08T08:18:17Z</time>
      </trkpt>
      <trkpt lat="45.5635" lon="4.58315">
        <ele>576</ele>
        <time>2017-04-08T08:18:38Z</time>
      </trkpt>
      <trkpt lat="45.5632" lon="4.58358">
        <ele>589</ele>
        <time>2017-04-08T08:23:30Z</time>
      </trkpt>
      <trkpt lat="45.56318" lon="4.5837">
        <ele>588</ele>
        <time>2017-04-08T08:23:35Z</time>
      </trkpt>
      <trkpt lat="45.56312" lon="4.58387">
        <ele>589</ele>
        <time>2017-04-08T08:23:41Z</time>
      </trkpt>
      <trkpt lat="45.56297" lon="4.58401">
        <ele>590</ele>
        <time>2017-04-08T08:23:49Z</time>
      </trkpt>
      <trkpt lat="45.56287" lon="4.58396">
        <ele>590</ele>
        <time>2017-04-08T08:23:55Z</time>
      </trkpt>
      <trkpt lat="45.5628" lon="4.58381">
        <ele>592</ele>
        <time>2017-04-08T08:24:00Z</time>
      </trkpt>
      <trkpt lat="45.56273" lon="4.58365">
        <ele>593</ele>
        <time>2017-04-08T08:24:05Z</time>
      </trkpt>
      <trkpt lat="45.56266" lon="4.58353">
        <ele>593</ele>
        <time>2017-04-08T08:24:10Z</time>
      </trkpt>
      <trkpt lat="45.56261" lon="4.58339">
        <ele>593</ele>
        <time>2017-04-08T08:24:15Z</time>
      </trkpt>
      <trkpt lat="45.56255" lon="4.58305">
        <ele>594</ele>
        <time>2017-04-08T08:24:25Z</time>
      </trkpt>
      <trkpt lat="45.56253" lon="4.58279">
        <ele>595</ele>
        <time>2017-04-08T08:24:31Z</time>
      </trkpt>
      <trkpt lat="45.5625" lon="4.58248">
        <ele>596</ele>
        <time>2017-04-08T08:24:40Z</time>
      </trkpt>
      <trkpt lat="45.56247" lon="4.58232">
        <ele>595</ele>
        <time>2017-04-08T08:24:45Z</time>
      </trkpt>
      <trkpt lat="45.56241" lon="4.58219">
        <ele>596</ele>
        <time>2017-04-08T08:24:50Z</time>
      </trkpt>
      <trkpt lat="45.56233" lon="4.58207">
        <ele>597</ele>
        <time>2017-04-08T08:24:55Z</time>
      </trkpt>
      <trkpt lat="45.56228" lon="4.58192">
        <ele>597</ele>
        <time>2017-04-08T08:25:00Z</time>
      </trkpt>
      <trkpt lat="45.56221" lon="4.58173">
        <ele>596</ele>
        <time>2017-04-08T08:25:06Z</time>
      </trkpt>
      <trkpt lat="45.56208" lon="4.58142">
        <ele>597</ele>
        <time>2017-04-08T08:25:14Z</time>
      </trkpt>
      <trkpt lat="45.56193" lon="4.58111">
        <ele>596</ele>
        <time>2017-04-08T08:25:21Z</time>
      </trkpt>
      <trkpt lat="45.56177" lon="4.5809">
        <ele>594</ele>
        <time>2017-04-08T08:25:30Z</time>
      </trkpt>
      <trkpt lat="45.56165" lon="4.58077">
        <ele>594</ele>
        <time>2017-04-08T08:25:36Z</time>
      </trkpt>
      <trkpt lat="45.56156" lon="4.58066">
        <ele>594</ele>
        <time>2017-04-08T08:25:41Z</time>
      </trkpt>
      <trkpt lat="45.56141" lon="4.58049">
        <ele>594</ele>
        <time>2017-04-08T08:25:49Z</time>
      </trkpt>
      <trkpt lat="45.56128" lon="4.58049">
        <ele>594</ele>
        <time>2017-04-08T08:25:55Z</time>
      </trkpt>
      <trkpt lat="45.56123" lon="4.58068">
        <ele>595</ele>
        <time>2017-04-08T08:26:00Z</time>
      </trkpt>
      <trkpt lat="45.56124" lon="4.58091">
        <ele>596</ele>
        <time>2017-04-08T08:26:05Z</time>
      </trkpt>
      <trkpt lat="45.56127" lon="4.58115">
        <ele>596</ele>
        <time>2017-04-08T08:26:15Z</time>
      </trkpt>
      <trkpt lat="45.56123" lon="4.58145">
        <ele>597</ele>
        <time>2017-04-08T08:26:26Z</time>
      </trkpt>
      <trkpt lat="45.56124" lon="4.58182">
        <ele>597</ele>
        <time>2017-04-08T08:26:36Z</time>
      </trkpt>
      <trkpt lat="45.56126" lon="4.58198">
        <ele>599</ele>
        <time>2017-04-08T08:26:41Z</time>
      </trkpt>
      <trkpt lat="45.56126" lon="4.58224">
        <ele>599</ele>
        <time>2017-04-08T08:26:49Z</time>
      </trkpt>
      <trkpt lat="45.5612" lon="4.58245">
        <ele>600</ele>
        <time>2017-04-08T08:26:55Z</time>
      </trkpt>
      <trkpt lat="45.56111" lon="4.58262">
        <ele>599</ele>
        <time>2017-04-08T08:27:00Z</time>
      </trkpt>
      <trkpt lat="45.56108" lon="4.58267">
        <ele>597</ele>
        <time>2017-04-08T08:27:05Z</time>
      </trkpt>
      <trkpt lat="45.56104" lon="4.58273">
        <ele>594</ele>
        <time>2017-04-08T08:27:15Z</time>
      </trkpt>
      <trkpt lat="45.56104" lon="4.58285">
        <ele>592</ele>
        <time>2017-04-08T08:27:20Z</time>
      </trkpt>
      <trkpt lat="45.56101" lon="4.58301">
        <ele>589</ele>
        <time>2017-04-08T08:27:26Z</time>
      </trkpt>
      <trkpt lat="45.56086" lon="4.58316">
        <ele>587</ele>
        <time>2017-04-08T08:27:34Z</time>
      </trkpt>
      <trkpt lat="45.56046" lon="4.58329">
        <ele>585</ele>
        <time>2017-04-08T08:27:41Z</time>
      </trkpt>
      <trkpt lat="45.56018" lon="4.58335">
        <ele>583</ele>
        <time>2017-04-08T08:27:46Z</time>
      </trkpt>
      <trkpt lat="45.55986" lon="4.58323">
        <ele>580</ele>
        <time>2017-04-08T08:27:51Z</time>
      </trkpt>
      <trkpt lat="45.55942" lon="4.58336">
        <ele>576</ele>
        <time>2017-04-08T08:27:56Z</time>
      </trkpt>
      <trkpt lat="45.55858" lon="4.58369">
        <ele>572</ele>
        <time>2017-04-08T08:28:05Z</time>
      </trkpt>
      <trkpt lat="45.55829" lon="4.58387">
        <ele>569</ele>
        <time>2017-04-08T08:28:11Z</time>
      </trkpt>
      <trkpt lat="45.5582" lon="4.58393">
        <ele>565</ele>
        <time>2017-04-08T08:28:16Z</time>
      </trkpt>
      <trkpt lat="45.55788" lon="4.58443">
        <ele>563</ele>
        <time>2017-04-08T08:28:25Z</time>
      </trkpt>
      <trkpt lat="45.55761" lon="4.58461">
        <ele>561</ele>
        <time>2017-04-08T08:28:31Z</time>
      </trkpt>
      <trkpt lat="45.55708" lon="4.58485">
        <ele>559</ele>
        <time>2017-04-08T08:28:40Z</time>
      </trkpt>
      <trkpt lat="45.55668" lon="4.58498">
        <ele>556</ele>
        <time>2017-04-08T08:28:46Z</time>
      </trkpt>
      <trkpt lat="45.55621" lon="4.58518">
        <ele>554</ele>
        <time>2017-04-08T08:28:56Z</time>
      </trkpt>
      <trkpt lat="45.55584" lon="4.5852">
        <ele>550</ele>
        <time>2017-04-08T08:29:01Z</time>
      </trkpt>
      <trkpt lat="45.55546" lon="4.58529">
        <ele>545</ele>
        <time>2017-04-08T08:29:10Z</time>
      </trkpt>
      <trkpt lat="45.5553" lon="4.58559">
        <ele>541</ele>
        <time>2017-04-08T08:29:15Z</time>
      </trkpt>
      <trkpt lat="45.55519" lon="4.58594">
        <ele>537</ele>
        <time>2017-04-08T08:29:20Z</time>
      </trkpt>
      <trkpt lat="45.55499" lon="4.58623">
        <ele>533</ele>
        <time>2017-04-08T08:29:26Z</time>
      </trkpt>
      <trkpt lat="45.55483" lon="4.58663">
        <ele>529</ele>
        <time>2017-04-08T08:29:35Z</time>
      </trkpt>
      <trkpt lat="45.55473" lon="4.58703">
        <ele>526</ele>
        <time>2017-04-08T08:29:40Z</time>
      </trkpt>
      <trkpt lat="45.55453" lon="4.58763">
        <ele>522</ele>
        <time>2017-04-08T08:29:45Z</time>
      </trkpt>
      <trkpt lat="45.5542" lon="4.58823">
        <ele>518</ele>
        <time>2017-04-08T08:29:51Z</time>
      </trkpt>
      <trkpt lat="45.5537" lon="4.58849">
        <ele>512</ele>
        <time>2017-04-08T08:30:01Z</time>
      </trkpt>
      <trkpt lat="45.55346" lon="4.58884">
        <ele>509</ele>
        <time>2017-04-08T08:30:06Z</time>
      </trkpt>
      <trkpt lat="45.55317" lon="4.5892">
        <ele>506</ele>
        <time>2017-04-08T08:30:11Z</time>
      </trkpt>
      <trkpt lat="45.55252" lon="4.58981">
        <ele>502</ele>
        <time>2017-04-08T08:30:20Z</time>
      </trkpt>
      <trkpt lat="45.55217" lon="4.59002">
        <ele>498</ele>
        <time>2017-04-08T08:30:25Z</time>
      </trkpt>
      <trkpt lat="45.55188" lon="4.59012">
        <ele>496</ele>
        <time>2017-04-08T08:30:30Z</time>
      </trkpt>
      <trkpt lat="45.55162" lon="4.59025">
        <ele>492</ele>
        <time>2017-04-08T08:30:36Z</time>
      </trkpt>
      <trkpt lat="45.55143" lon="4.59042">
        <ele>489</ele>
        <time>2017-04-08T08:30:41Z</time>
      </trkpt>
      <trkpt lat="45.55104" lon="4.59041">
        <ele>487</ele>
        <time>2017-04-08T08:30:51Z</time>
      </trkpt>
      <trkpt lat="45.55071" lon="4.59049">
        <ele>486</ele>
        <time>2017-04-08T08:30:56Z</time>
      </trkpt>
      <trkpt lat="45.55042" lon="4.59044">
        <ele>484</ele>
        <time>2017-04-08T08:31:01Z</time>
      </trkpt>
      <trkpt lat="45.55034" lon="4.59021">
        <ele>483</ele>
        <time>2017-04-08T08:31:10Z</time>
      </trkpt>
      <trkpt lat="45.5504" lon="4.59">
        <ele>482</ele>
        <time>2017-04-08T08:31:15Z</time>
      </trkpt>
      <trkpt lat="45.55042" lon="4.58985">
        <ele>483</ele>
        <time>2017-04-08T08:31:20Z</time>
      </trkpt>
      <trkpt lat="45.55046" lon="4.58968">
        <ele>483</ele>
        <time>2017-04-08T08:31:25Z</time>
      </trkpt>
      <trkpt lat="45.55053" lon="4.58956">
        <ele>483</ele>
        <time>2017-04-08T08:31:30Z</time>
      </trkpt>
      <trkpt lat="45.55062" lon="4.58937">
        <ele>483</ele>
        <time>2017-04-08T08:31:35Z</time>
      </trkpt>
      <trkpt lat="45.5506" lon="4.58912">
        <ele>482</ele>
        <time>2017-04-08T08:31:40Z</time>
      </trkpt>
      <trkpt lat="45.55064" lon="4.58866">
        <ele>480</ele>
        <time>2017-04-08T08:31:45Z</time>
      </trkpt>
      <trkpt lat="45.55075" lon="4.58832">
        <ele>479</ele>
        <time>2017-04-08T08:31:50Z</time>
      </trkpt>
      <trkpt lat="45.55095" lon="4.58822">
        <ele>478</ele>
        <time>2017-04-08T08:31:55Z</time>
      </trkpt>
      <trkpt lat="45.55116" lon="4.58822">
        <ele>476</ele>
        <time>2017-04-08T08:32:00Z</time>
      </trkpt>
      <trkpt lat="45.55138" lon="4.58824">
        <ele>475</ele>
        <time>2017-04-08T08:32:05Z</time>
      </trkpt>
      <trkpt lat="45.55159" lon="4.58818">
        <ele>475</ele>
        <time>2017-04-08T08:32:10Z</time>
      </trkpt>
      <trkpt lat="45.55179" lon="4.58804">
        <ele>481</ele>
        <time>2017-04-08T08:32:15Z</time>
      </trkpt>
      <trkpt lat="45.55199" lon="4.58782">
        <ele>484</ele>
        <time>2017-04-08T08:32:20Z</time>
      </trkpt>
      <trkpt lat="45.55214" lon="4.58758">
        <ele>491</ele>
        <time>2017-04-08T08:32:25Z</time>
      </trkpt>
      <trkpt lat="45.55225" lon="4.58728">
        <ele>495</ele>
        <time>2017-04-08T08:32:30Z</time>
      </trkpt>
      <trkpt lat="45.55232" lon="4.58695">
        <ele>496</ele>
        <time>2017-04-08T08:32:35Z</time>
      </trkpt>
      <trkpt lat="45.55238" lon="4.58659">
        <ele>489</ele>
        <time>2017-04-08T08:32:40Z</time>
      </trkpt>
      <trkpt lat="45.55247" lon="4.58623">
        <ele>485</ele>
        <time>2017-04-08T08:32:45Z</time>
      </trkpt>
      <trkpt lat="45.55241" lon="4.58589">
        <ele>483</ele>
        <time>2017-04-08T08:32:50Z</time>
      </trkpt>
      <trkpt lat="45.55232" lon="4.58548">
        <ele>480</ele>
        <time>2017-04-08T08:32:56Z</time>
      </trkpt>
      <trkpt lat="45.55194" lon="4.58479">
        <ele>478</ele>
        <time>2017-04-08T08:33:05Z</time>
      </trkpt>
      <trkpt lat="45.55162" lon="4.58457">
        <ele>476</ele>
        <time>2017-04-08T08:33:11Z</time>
      </trkpt>
      <trkpt lat="45.55122" lon="4.58424">
        <ele>475</ele>
        <time>2017-04-08T08:33:20Z</time>
      </trkpt>
      <trkpt lat="45.55095" lon="4.58399">
        <ele>469</ele>
        <time>2017-04-08T08:33:26Z</time>
      </trkpt>
      <trkpt lat="45.55088" lon="4.58345">
        <ele>466</ele>
        <time>2017-04-08T08:33:35Z</time>
      </trkpt>
      <trkpt lat="45.55089" lon="4.58311">
        <ele>465</ele>
        <time>2017-04-08T08:33:40Z</time>
      </trkpt>
      <trkpt lat="45.55088" lon="4.58293">
        <ele>465</ele>
        <time>2017-04-08T08:33:45Z</time>
      </trkpt>
      <trkpt lat="45.55096" lon="4.58277">
        <ele>465</ele>
        <time>2017-04-08T08:33:50Z</time>
      </trkpt>
      <trkpt lat="45.55108" lon="4.58257">
        <ele>466</ele>
        <time>2017-04-08T08:33:55Z</time>
      </trkpt>
      <trkpt lat="45.55115" lon="4.58242">
        <ele>466</ele>
        <time>2017-04-08T08:34:00Z</time>
      </trkpt>
      <trkpt lat="45.5512" lon="4.58233">
        <ele>467</ele>
        <time>2017-04-08T08:34:05Z</time>
      </trkpt>
      <trkpt lat="45.55133" lon="4.5823">
        <ele>467</ele>
        <time>2017-04-08T08:34:15Z</time>
      </trkpt>
      <trkpt lat="45.55145" lon="4.58225">
        <ele>467</ele>
        <time>2017-04-08T08:34:20Z</time>
      </trkpt>
      <trkpt lat="45.55164" lon="4.58216">
        <ele>465</ele>
        <time>2017-04-08T08:34:25Z</time>
      </trkpt>
      <trkpt lat="45.55177" lon="4.5821">
        <ele>464</ele>
        <time>2017-04-08T08:34:30Z</time>
      </trkpt>
      <trkpt lat="45.55191" lon="4.58199">
        <ele>463</ele>
        <time>2017-04-08T08:34:35Z</time>
      </trkpt>
      <trkpt lat="45.55204" lon="4.58181">
        <ele>461</ele>
        <time>2017-04-08T08:34:40Z</time>
      </trkpt>
      <trkpt lat="45.55212" lon="4.58159">
        <ele>461</ele>
        <time>2017-04-08T08:34:45Z</time>
      </trkpt>
      <trkpt lat="45.55216" lon="4.5813">
        <ele>461</ele>
        <time>2017-04-08T08:34:50Z</time>
      </trkpt>
      <trkpt lat="45.55214" lon="4.58098">
        <ele>462</ele>
        <time>2017-04-08T08:34:56Z</time>
      </trkpt>
      <trkpt lat="45.5519" lon="4.5805">
        <ele>461</ele>
        <time>2017-04-08T08:35:06Z</time>
      </trkpt>
      <trkpt lat="45.5517" lon="4.58018">
        <ele>463</ele>
        <time>2017-04-08T08:35:15Z</time>
      </trkpt>
      <trkpt lat="45.55151" lon="4.58014">
        <ele>464</ele>
        <time>2017-04-08T08:35:21Z</time>
      </trkpt>
      <trkpt lat="45.55132" lon="4.5802">
        <ele>464</ele>
        <time>2017-04-08T08:35:26Z</time>
      </trkpt>
      <trkpt lat="45.55106" lon="4.58043">
        <ele>464</ele>
        <time>2017-04-08T08:35:31Z</time>
      </trkpt>
      <trkpt lat="45.55069" lon="4.58066">
        <ele>465</ele>
        <time>2017-04-08T08:35:40Z</time>
      </trkpt>
      <trkpt lat="45.55045" lon="4.58078">
        <ele>465</ele>
        <time>2017-04-08T08:35:46Z</time>
      </trkpt>
      <trkpt lat="45.55025" lon="4.58098">
        <ele>466</ele>
        <time>2017-04-08T08:35:51Z</time>
      </trkpt>
      <trkpt lat="45.5499" lon="4.5812">
        <ele>467</ele>
        <time>2017-04-08T08:36:00Z</time>
      </trkpt>
      <trkpt lat="45.54969" lon="4.58128">
        <ele>468</ele>
        <time>2017-04-08T08:36:05Z</time>
      </trkpt>
      <trkpt lat="45.54956" lon="4.58132">
        <ele>468</ele>
        <time>2017-04-08T08:36:10Z</time>
      </trkpt>
      <trkpt lat="45.54936" lon="4.58142">
        <ele>469</ele>
        <time>2017-04-08T08:36:15Z</time>
      </trkpt>
      <trkpt lat="45.54916" lon="4.5814">
        <ele>469</ele>
        <time>2017-04-08T08:36:20Z</time>
      </trkpt>
      <trkpt lat="45.54903" lon="4.58138">
        <ele>468</ele>
        <time>2017-04-08T08:36:25Z</time>
      </trkpt>
      <trkpt lat="45.54884" lon="4.58139">
        <ele>468</ele>
        <time>2017-04-08T08:36:30Z</time>
      </trkpt>
      <trkpt lat="45.54868" lon="4.5814">
        <ele>468</ele>
        <time>2017-04-08T08:36:35Z</time>
      </trkpt>
      <trkpt lat="45.54853" lon="4.58139">
        <ele>468</ele>
        <time>2017-04-08T08:36:40Z</time>
      </trkpt>
      <trkpt lat="45.54843" lon="4.58135">
        <ele>469</ele>
        <time>2017-04-08T08:36:45Z</time>
      </trkpt>
      <trkpt lat="45.54833" lon="4.58129">
        <ele>469</ele>
        <time>2017-04-08T08:36:50Z</time>
      </trkpt>
      <trkpt lat="45.54812" lon="4.58132">
        <ele>471</ele>
        <time>2017-04-08T08:36:55Z</time>
      </trkpt>
      <trkpt lat="45.54795" lon="4.58127">
        <ele>472</ele>
        <time>2017-04-08T08:37:00Z</time>
      </trkpt>
      <trkpt lat="45.5478" lon="4.58126">
        <ele>474</ele>
        <time>2017-04-08T08:37:05Z</time>
      </trkpt>
      <trkpt lat="45.54778" lon="4.58101">
        <ele>476</ele>
        <time>2017-04-08T08:37:10Z</time>
      </trkpt>
      <trkpt lat="45.54762" lon="4.58097">
        <ele>477</ele>
        <time>2017-04-08T08:37:15Z</time>
      </trkpt>
      <trkpt lat="45.54746" lon="4.58089">
        <ele>476</ele>
        <time>2017-04-08T08:37:21Z</time>
      </trkpt>
      <trkpt lat="45.54728" lon="4.58088">
        <ele>475</ele>
        <time>2017-04-08T08:37:26Z</time>
      </trkpt>
      <trkpt lat="45.5471" lon="4.58049">
        <ele>473</ele>
        <time>2017-04-08T08:37:36Z</time>
      </trkpt>
      <trkpt lat="45.54699" lon="4.58039">
        <ele>473</ele>
        <time>2017-04-08T08:37:41Z</time>
      </trkpt>
      <trkpt lat="45.54689" lon="4.58027">
        <ele>472</ele>
        <time>2017-04-08T08:37:46Z</time>
      </trkpt>
      <trkpt lat="45.54677" lon="4.57997">
        <ele>472</ele>
        <time>2017-04-08T08:37:55Z</time>
      </trkpt>
      <trkpt lat="45.54676" lon="4.5797">
        <ele>472</ele>
        <time>2017-04-08T08:38:00Z</time>
      </trkpt>
      <trkpt lat="45.54675" lon="4.57954">
        <ele>473</ele>
        <time>2017-04-08T08:38:05Z</time>
      </trkpt>
      <trkpt lat="45.54673" lon="4.57943">
        <ele>473</ele>
        <time>2017-04-08T08:38:10Z</time>
      </trkpt>
      <trkpt lat="45.5466" lon="4.57946">
        <ele>473</ele>
        <time>2017-04-08T08:38:16Z</time>
      </trkpt>
      <trkpt lat="45.54635" lon="4.57965">
        <ele>473</ele>
        <time>2017-04-08T08:38:25Z</time>
      </trkpt>
      <trkpt lat="45.54622" lon="4.57973">
        <ele>473</ele>
        <time>2017-04-08T08:38:30Z</time>
      </trkpt>
      <trkpt lat="45.54611" lon="4.57991">
        <ele>471</ele>
        <time>2017-04-08T08:38:36Z</time>
      </trkpt>
      <trkpt lat="45.54571" lon="4.58023">
        <ele>468</ele>
        <time>2017-04-08T08:38:45Z</time>
      </trkpt>
      <trkpt lat="45.54544" lon="4.58051">
        <ele>465</ele>
        <time>2017-04-08T08:38:50Z</time>
      </trkpt>
      <trkpt lat="45.54506" lon="4.58091">
        <ele>463</ele>
        <time>2017-04-08T08:38:56Z</time>
      </trkpt>
      <trkpt lat="45.54483" lon="4.58104">
        <ele>459</ele>
        <time>2017-04-08T08:39:01Z</time>
      </trkpt>
      <trkpt lat="45.5447" lon="4.58117">
        <ele>455</ele>
        <time>2017-04-08T08:39:10Z</time>
      </trkpt>
      <trkpt lat="45.54459" lon="4.58134">
        <ele>452</ele>
        <time>2017-04-08T08:39:15Z</time>
      </trkpt>
      <trkpt lat="45.54455" lon="4.58159">
        <ele>450</ele>
        <time>2017-04-08T08:39:20Z</time>
      </trkpt>
      <trkpt lat="45.54456" lon="4.58189">
        <ele>448</ele>
        <time>2017-04-08T08:39:25Z</time>
      </trkpt>
      <trkpt lat="45.5446" lon="4.58211">
        <ele>447</ele>
        <time>2017-04-08T08:39:30Z</time>
      </trkpt>
      <trkpt lat="45.54469" lon="4.58226">
        <ele>448</ele>
        <time>2017-04-08T08:39:35Z</time>
      </trkpt>
      <trkpt lat="45.54483" lon="4.5824">
        <ele>448</ele>
        <time>2017-04-08T08:39:40Z</time>
      </trkpt>
      <trkpt lat="45.54498" lon="4.58244">
        <ele>447</ele>
        <time>2017-04-08T08:39:45Z</time>
      </trkpt>
      <trkpt lat="45.54512" lon="4.58255">
        <ele>446</ele>
        <time>2017-04-08T08:39:50Z</time>
      </trkpt>
      <trkpt lat="45.54526" lon="4.58272">
        <ele>444</ele>
        <time>2017-04-08T08:39:55Z</time>
      </trkpt>
      <trkpt lat="45.54546" lon="4.58286">
        <ele>444</ele>
        <time>2017-04-08T08:40:00Z</time>
      </trkpt>
      <trkpt lat="45.5457" lon="4.58295">
        <ele>442</ele>
        <time>2017-04-08T08:40:05Z</time>
      </trkpt>
      <trkpt lat="45.54592" lon="4.58301">
        <ele>441</ele>
        <time>2017-04-08T08:40:10Z</time>
      </trkpt>
      <trkpt lat="45.54625" lon="4.58323">
        <ele>439</ele>
        <time>2017-04-08T08:40:15Z</time>
      </trkpt>
      <trkpt lat="45.54664" lon="4.5833">
        <ele>438</ele>
        <time>2017-04-08T08:40:20Z</time>
      </trkpt>
      <trkpt lat="45.54702" lon="4.58332">
        <ele>436</ele>
        <time>2017-04-08T08:40:25Z</time>
      </trkpt>
      <trkpt lat="45.54729" lon="4.58337">
        <ele>436</ele>
        <time>2017-04-08T08:40:30Z</time>
      </trkpt>
      <trkpt lat="45.54756" lon="4.58352">
        <ele>437</ele>
        <time>2017-04-08T08:40:35Z</time>
      </trkpt>
      <trkpt lat="45.5479" lon="4.58352">
        <ele>438</ele>
        <time>2017-04-08T08:40:40Z</time>
      </trkpt>
      <trkpt lat="45.54824" lon="4.58376">
        <ele>437</ele>
        <time>2017-04-08T08:40:45Z</time>
      </trkpt>
      <trkpt lat="45.5485" lon="4.58407">
        <ele>434</ele>
        <time>2017-04-08T08:40:50Z</time>
      </trkpt>
      <trkpt lat="45.54882" lon="4.58447">
        <ele>430</ele>
        <time>2017-04-08T08:40:55Z</time>
      </trkpt>
      <trkpt lat="45.549" lon="4.5849">
        <ele>426</ele>
        <time>2017-04-08T08:41:00Z</time>
      </trkpt>
      <trkpt lat="45.549" lon="4.58532">
        <ele>423</ele>
        <time>2017-04-08T08:41:05Z</time>
      </trkpt>
      <trkpt lat="45.54881" lon="4.58552">
        <ele>422</ele>
        <time>2017-04-08T08:41:10Z</time>
      </trkpt>
      <trkpt lat="45.54861" lon="4.58565">
        <ele>423</ele>
        <time>2017-04-08T08:41:15Z</time>
      </trkpt>
      <trkpt lat="45.54842" lon="4.58578">
        <ele>426</ele>
        <time>2017-04-08T08:41:20Z</time>
      </trkpt>
      <trkpt lat="45.54826" lon="4.58587">
        <ele>429</ele>
        <time>2017-04-08T08:41:25Z</time>
      </trkpt>
      <trkpt lat="45.54808" lon="4.58595">
        <ele>431</ele>
        <time>2017-04-08T08:41:30Z</time>
      </trkpt>
      <trkpt lat="45.54782" lon="4.58604">
        <ele>431</ele>
        <time>2017-04-08T08:41:36Z</time>
      </trkpt>
      <trkpt lat="45.54757" lon="4.58632">
        <ele>431</ele>
        <time>2017-04-08T08:41:45Z</time>
      </trkpt>
      <trkpt lat="45.54742" lon="4.5865">
        <ele>431</ele>
        <time>2017-04-08T08:41:50Z</time>
      </trkpt>
      <trkpt lat="45.54726" lon="4.58659">
        <ele>430</ele>
        <time>2017-04-08T08:41:55Z</time>
      </trkpt>
      <trkpt lat="45.54716" lon="4.58665">
        <ele>430</ele>
        <time>2017-04-08T08:42:00Z</time>
      </trkpt>
      <trkpt lat="45.54705" lon="4.58671">
        <ele>430</ele>
        <time>2017-04-08T08:42:05Z</time>
      </trkpt>
      <trkpt lat="45.54694" lon="4.58677">
        <ele>432</ele>
        <time>2017-04-08T08:42:10Z</time>
      </trkpt>
      <trkpt lat="45.54684" lon="4.58689">
        <ele>432</ele>
        <time>2017-04-08T08:42:15Z</time>
      </trkpt>
      <trkpt lat="45.5467" lon="4.587">
        <ele>433</ele>
        <time>2017-04-08T08:42:20Z</time>
      </trkpt>
      <trkpt lat="45.5466" lon="4.58712">
        <ele>434</ele>
        <time>2017-04-08T08:42:25Z</time>
      </trkpt>
      <trkpt lat="45.5465" lon="4.58716">
        <ele>436</ele>
        <time>2017-04-08T08:42:30Z</time>
      </trkpt>
      <trkpt lat="45.54636" lon="4.58718">
        <ele>438</ele>
        <time>2017-04-08T08:42:35Z</time>
      </trkpt>
      <trkpt lat="45.54627" lon="4.58722">
        <ele>439</ele>
        <time>2017-04-08T08:42:40Z</time>
      </trkpt>
      <trkpt lat="45.5461" lon="4.58732">
        <ele>441</ele>
        <time>2017-04-08T08:42:45Z</time>
      </trkpt>
      <trkpt lat="45.54598" lon="4.58737">
        <ele>441</ele>
        <time>2017-04-08T08:42:50Z</time>
      </trkpt>
      <trkpt lat="45.54582" lon="4.58746">
        <ele>441</ele>
        <time>2017-04-08T08:42:55Z</time>
      </trkpt>
      <trkpt lat="45.54565" lon="4.58761">
        <ele>442</ele>
        <time>2017-04-08T08:43:00Z</time>
      </trkpt>
      <trkpt lat="45.54552" lon="4.58767">
        <ele>442</ele>
        <time>2017-04-08T08:43:05Z</time>
      </trkpt>
      <trkpt lat="45.54539" lon="4.58782">
        <ele>442</ele>
        <time>2017-04-08T08:43:10Z</time>
      </trkpt>
      <trkpt lat="45.54536" lon="4.58796">
        <ele>442</ele>
        <time>2017-04-08T08:43:15Z</time>
      </trkpt>
      <trkpt lat="45.54526" lon="4.58819">
        <ele>443</ele>
        <time>2017-04-08T08:43:20Z</time>
      </trkpt>
      <trkpt lat="45.54525" lon="4.58843">
        <ele>443</ele>
        <time>2017-04-08T08:43:25Z</time>
      </trkpt>
      <trkpt lat="45.54526" lon="4.58864">
        <ele>442</ele>
        <time>2017-04-08T08:43:30Z</time>
      </trkpt>
      <trkpt lat="45.54525" lon="4.58885">
        <ele>441</ele>
        <time>2017-04-08T08:43:35Z</time>
      </trkpt>
      <trkpt lat="45.54525" lon="4.58907">
        <ele>442</ele>
        <time>2017-04-08T08:43:40Z</time>
      </trkpt>
      <trkpt lat="45.54521" lon="4.58928">
        <ele>443</ele>
        <time>2017-04-08T08:43:45Z</time>
      </trkpt>
      <trkpt lat="45.54526" lon="4.58951">
        <ele>445</ele>
        <time>2017-04-08T08:43:50Z</time>
      </trkpt>
      <trkpt lat="45.54529" lon="4.58975">
        <ele>447</ele>
        <time>2017-04-08T08:43:55Z</time>
      </trkpt>
      <trkpt lat="45.54529" lon="4.59001">
        <ele>449</ele>
        <time>2017-04-08T08:44:00Z</time>
      </trkpt>
      <trkpt lat="45.54529" lon="4.59022">
        <ele>448</ele>
        <time>2017-04-08T08:44:05Z</time>
      </trkpt>
      <trkpt lat="45.54531" lon="4.59044">
        <ele>448</ele>
        <time>2017-04-08T08:44:10Z</time>
      </trkpt>
      <trkpt lat="45.54534" lon="4.59061">
        <ele>447</ele>
        <time>2017-04-08T08:44:15Z</time>
      </trkpt>
      <trkpt lat="45.54536" lon="4.59087">
        <ele>447</ele>
        <time>2017-04-08T08:44:20Z</time>
      </trkpt>
      <trkpt lat="45.5454" lon="4.59108">
        <ele>447</ele>
        <time>2017-04-08T08:44:25Z</time>
      </trkpt>
      <trkpt lat="45.54548" lon="4.59126">
        <ele>447</ele>
        <time>2017-04-08T08:44:30Z</time>
      </trkpt>
      <trkpt lat="45.54546" lon="4.59146">
        <ele>446</ele>
        <time>2017-04-08T08:44:35Z</time>
      </trkpt>
      <trkpt lat="45.54519" lon="4.59135">
        <ele>446</ele>
        <time>2017-04-08T08:44:40Z</time>
      </trkpt>
      <trkpt lat="45.545" lon="4.59142">
        <ele>445</ele>
        <time>2017-04-08T08:44:45Z</time>
      </trkpt>
      <trkpt lat="45.54479" lon="4.59156">
        <ele>443</ele>
        <time>2017-04-08T08:44:50Z</time>
      </trkpt>
      <trkpt lat="45.54467" lon="4.59165">
        <ele>442</ele>
        <time>2017-04-08T08:44:55Z</time>
      </trkpt>
      <trkpt lat="45.54468" lon="4.59186">
        <ele>442</ele>
        <time>2017-04-08T08:45:01Z</time>
      </trkpt>
      <trkpt lat="45.54471" lon="4.59223">
        <ele>442</ele>
        <time>2017-04-08T08:45:06Z</time>
      </trkpt>
      <trkpt lat="45.54487" lon="4.59281">
        <ele>442</ele>
        <time>2017-04-08T08:45:16Z</time>
      </trkpt>
      <trkpt lat="45.54494" lon="4.59313">
        <ele>442</ele>
        <time>2017-04-08T08:45:21Z</time>
      </trkpt>
      <trkpt lat="45.54497" lon="4.59343">
        <ele>440</ele>
        <time>2017-04-08T08:45:26Z</time>
      </trkpt>
      <trkpt lat="45.54499" lon="4.59375">
        <ele>438</ele>
        <time>2017-04-08T08:45:31Z</time>
      </trkpt>
      <trkpt lat="45.54496" lon="4.59408">
        <ele>436</ele>
        <time>2017-04-08T08:45:36Z</time>
      </trkpt>
      <trkpt lat="45.54519" lon="4.59435">
        <ele>434</ele>
        <time>2017-04-08T08:45:41Z</time>
      </trkpt>
      <trkpt lat="45.54532" lon="4.59436">
        <ele>432</ele>
        <time>2017-04-08T08:45:50Z</time>
      </trkpt>
      <trkpt lat="45.54544" lon="4.59432">
        <ele>431</ele>
        <time>2017-04-08T08:45:55Z</time>
      </trkpt>
      <trkpt lat="45.54548" lon="4.59422">
        <ele>432</ele>
        <time>2017-04-08T08:46:00Z</time>
      </trkpt>
      <trkpt lat="45.54553" lon="4.59414">
        <ele>435</ele>
        <time>2017-04-08T08:46:10Z</time>
      </trkpt>
      <trkpt lat="45.5456" lon="4.59409">
        <ele>435</ele>
        <time>2017-04-08T08:46:15Z</time>
      </trkpt>
      <trkpt lat="45.54569" lon="4.59396">
        <ele>436</ele>
        <time>2017-04-08T08:46:20Z</time>
      </trkpt>
      <trkpt lat="45.54571" lon="4.59385">
        <ele>437</ele>
        <time>2017-04-08T08:46:25Z</time>
      </trkpt>
      <trkpt lat="45.54579" lon="4.59374">
        <ele>437</ele>
        <time>2017-04-08T08:46:30Z</time>
      </trkpt>
      <trkpt lat="45.54587" lon="4.59357">
        <ele>437</ele>
        <time>2017-04-08T08:46:36Z</time>
      </trkpt>
      <trkpt lat="45.54601" lon="4.59344">
        <ele>437</ele>
        <time>2017-04-08T08:46:45Z</time>
      </trkpt>
      <trkpt lat="45.5461" lon="4.5934">
        <ele>438</ele>
        <time>2017-04-08T08:46:50Z</time>
      </trkpt>
      <trkpt lat="45.54617" lon="4.59327">
        <ele>438</ele>
        <time>2017-04-08T08:46:55Z</time>
      </trkpt>
      <trkpt lat="45.54623" lon="4.59316">
        <ele>440</ele>
        <time>2017-04-08T08:47:01Z</time>
      </trkpt>
      <trkpt lat="45.54767" lon="4.59407">
        <ele>445</ele>
        <time>2017-04-08T08:48:02Z</time>
      </trkpt>
      <trkpt lat="45.548" lon="4.59417">
        <ele>446</ele>
        <time>2017-04-08T08:48:08Z</time>
      </trkpt>
      <trkpt lat="45.54829" lon="4.59443">
        <ele>448</ele>
        <time>2017-04-08T08:48:13Z</time>
      </trkpt>
      <trkpt lat="45.54852" lon="4.59488">
        <ele>447</ele>
        <time>2017-04-08T08:48:18Z</time>
      </trkpt>
      <trkpt lat="45.54858" lon="4.59513">
        <ele>445</ele>
        <time>2017-04-08T08:48:24Z</time>
      </trkpt>
      <trkpt lat="45.54864" lon="4.59515">
        <ele>443</ele>
        <time>2017-04-08T08:48:29Z</time>
      </trkpt>
      <trkpt lat="45.54851" lon="4.59527">
        <ele>442</ele>
        <time>2017-04-08T08:48:34Z</time>
      </trkpt>
      <trkpt lat="45.54781" lon="4.59588">
        <ele>439</ele>
        <time>2017-04-08T08:48:42Z</time>
      </trkpt>
      <trkpt lat="45.54745" lon="4.59646">
        <ele>435</ele>
        <time>2017-04-08T08:48:47Z</time>
      </trkpt>
      <trkpt lat="45.5471" lon="4.59681">
        <ele>431</ele>
        <time>2017-04-08T08:48:52Z</time>
      </trkpt>
      <trkpt lat="45.54685" lon="4.59711">
        <ele>426</ele>
        <time>2017-04-08T08:48:57Z</time>
      </trkpt>
      <trkpt lat="45.54673" lon="4.59724">
        <ele>422</ele>
        <time>2017-04-08T08:49:02Z</time>
      </trkpt>
      <trkpt lat="45.54686" lon="4.5975">
        <ele>419</ele>
        <time>2017-04-08T08:49:07Z</time>
      </trkpt>
      <trkpt lat="45.54699" lon="4.59783">
        <ele>417</ele>
        <time>2017-04-08T08:49:12Z</time>
      </trkpt>
      <trkpt lat="45.54706" lon="4.59813">
        <ele>415</ele>
        <time>2017-04-08T08:49:17Z</time>
      </trkpt>
      <trkpt lat="45.54719" lon="4.59836">
        <ele>413</ele>
        <time>2017-04-08T08:49:22Z</time>
      </trkpt>
      <trkpt lat="45.5472" lon="4.59869">
        <ele>412</ele>
        <time>2017-04-08T08:49:27Z</time>
      </trkpt>
      <trkpt lat="45.54702" lon="4.59939">
        <ele>412</ele>
        <time>2017-04-08T08:49:33Z</time>
      </trkpt>
      <trkpt lat="45.54721" lon="4.59946">
        <ele>412</ele>
        <time>2017-04-08T08:49:39Z</time>
      </trkpt>
      <trkpt lat="45.54742" lon="4.59955">
        <ele>412</ele>
        <time>2017-04-08T08:49:48Z</time>
      </trkpt>
      <trkpt lat="45.54765" lon="4.5995">
        <ele>412</ele>
        <time>2017-04-08T08:49:53Z</time>
      </trkpt>
      <trkpt lat="45.54771" lon="4.59973">
        <ele>411</ele>
        <time>2017-04-08T08:49:58Z</time>
      </trkpt>
      <trkpt lat="45.54799" lon="4.60051">
        <ele>408</ele>
        <time>2017-04-08T08:50:08Z</time>
      </trkpt>
      <trkpt lat="45.54812" lon="4.60183">
        <ele>405</ele>
        <time>2017-04-08T08:50:18Z</time>
      </trkpt>
      <trkpt lat="45.54812" lon="4.60284">
        <ele>403</ele>
        <time>2017-04-08T08:50:27Z</time>
      </trkpt>
      <trkpt lat="45.54804" lon="4.60353">
        <ele>402</ele>
        <time>2017-04-08T08:50:32Z</time>
      </trkpt>
      <trkpt lat="45.54808" lon="4.60408">
        <ele>400</ele>
        <time>2017-04-08T08:50:37Z</time>
      </trkpt>
      <trkpt lat="45.54812" lon="4.60459">
        <ele>398</ele>
        <time>2017-04-08T08:50:42Z</time>
      </trkpt>
      <trkpt lat="45.54822" lon="4.60499">
        <ele>396</ele>
        <time>2017-04-08T08:50:47Z</time>
      </trkpt>
      <trkpt lat="45.54823" lon="4.60547">
        <ele>395</ele>
        <time>2017-04-08T08:50:52Z</time>
      </trkpt>
      <trkpt lat="45.54829" lon="4.60589">
        <ele>392</ele>
        <time>2017-04-08T08:50:57Z</time>
      </trkpt>
      <trkpt lat="45.54837" lon="4.60636">
        <ele>390</ele>
        <time>2017-04-08T08:51:02Z</time>
      </trkpt>
      <trkpt lat="45.54841" lon="4.60681">
        <ele>389</ele>
        <time>2017-04-08T08:51:07Z</time>
      </trkpt>
      <trkpt lat="45.54826" lon="4.60761">
        <ele>388</ele>
        <time>2017-04-08T08:51:17Z</time>
      </trkpt>
      <trkpt lat="45.54816" lon="4.60798">
        <ele>387</ele>
        <time>2017-04-08T08:51:22Z</time>
      </trkpt>
      <trkpt lat="45.54815" lon="4.60834">
        <ele>387</ele>
        <time>2017-04-08T08:51:27Z</time>
      </trkpt>
      <trkpt lat="45.54812" lon="4.60859">
        <ele>386</ele>
        <time>2017-04-08T08:51:32Z</time>
      </trkpt>
      <trkpt lat="45.54809" lon="4.6088">
        <ele>386</ele>
        <time>2017-04-08T08:51:37Z</time>
      </trkpt>
      <trkpt lat="45.54812" lon="4.60884">
        <ele>386</ele>
        <time>2017-04-08T08:51:42Z</time>
      </trkpt>
      <trkpt lat="45.54811" lon="4.60872">
        <ele>386</ele>
        <time>2017-04-08T08:51:47Z</time>
      </trkpt>
      <trkpt lat="45.54817" lon="4.60901">
        <ele>387</ele>
        <time>2017-04-08T08:51:57Z</time>
      </trkpt>
      <trkpt lat="45.54837" lon="4.60894">
        <ele>387</ele>
        <time>2017-04-08T08:52:02Z</time>
      </trkpt>
      <trkpt lat="45.54855" lon="4.60878">
        <ele>388</ele>
        <time>2017-04-08T08:52:07Z</time>
      </trkpt>
      <trkpt lat="45.54874" lon="4.6086">
        <ele>389</ele>
        <time>2017-04-08T08:52:16Z</time>
      </trkpt>
      <trkpt lat="45.54879" lon="4.60868">
        <ele>390</ele>
        <time>2017-04-08T08:52:21Z</time>
      </trkpt>
      <trkpt lat="45.54894" lon="4.60894">
        <ele>391</ele>
        <time>2017-04-08T08:52:27Z</time>
      </trkpt>
      <trkpt lat="45.54903" lon="4.60921">
        <ele>391</ele>
        <time>2017-04-08T08:52:32Z</time>
      </trkpt>
      <trkpt lat="45.54905" lon="4.60961">
        <ele>390</ele>
        <time>2017-04-08T08:52:37Z</time>
      </trkpt>
      <trkpt lat="45.5491" lon="4.61064">
        <ele>389</ele>
        <time>2017-04-08T08:52:47Z</time>
      </trkpt>
      <trkpt lat="45.54921" lon="4.61102">
        <ele>386</ele>
        <time>2017-04-08T08:52:52Z</time>
      </trkpt>
      <trkpt lat="45.54937" lon="4.61129">
        <ele>384</ele>
        <time>2017-04-08T08:52:57Z</time>
      </trkpt>
      <trkpt lat="45.54955" lon="4.61148">
        <ele>381</ele>
        <time>2017-04-08T08:53:02Z</time>
      </trkpt>
      <trkpt lat="45.54968" lon="4.61185">
        <ele>379</ele>
        <time>2017-04-08T08:53:07Z</time>
      </trkpt>
      <trkpt lat="45.54987" lon="4.61229">
        <ele>378</ele>
        <time>2017-04-08T08:53:12Z</time>
      </trkpt>
      <trkpt lat="45.55001" lon="4.61281">
        <ele>377</ele>
        <time>2017-04-08T08:53:17Z</time>
      </trkpt>
      <trkpt lat="45.5503" lon="4.61325">
        <ele>375</ele>
        <time>2017-04-08T08:53:22Z</time>
      </trkpt>
      <trkpt lat="45.55045" lon="4.61374">
        <ele>374</ele>
        <time>2017-04-08T08:53:27Z</time>
      </trkpt>
      <trkpt lat="45.55063" lon="4.61422">
        <ele>374</ele>
        <time>2017-04-08T08:53:32Z</time>
      </trkpt>
      <trkpt lat="45.55089" lon="4.61451">
        <ele>374</ele>
        <time>2017-04-08T08:53:37Z</time>
      </trkpt>
      <trkpt lat="45.55115" lon="4.6148">
        <ele>372</ele>
        <time>2017-04-08T08:53:42Z</time>
      </trkpt>
      <trkpt lat="45.55143" lon="4.61526">
        <ele>370</ele>
        <time>2017-04-08T08:53:47Z</time>
      </trkpt>
      <trkpt lat="45.55173" lon="4.61569">
        <ele>367</ele>
        <time>2017-04-08T08:53:52Z</time>
      </trkpt>
      <trkpt lat="45.55186" lon="4.61588">
        <ele>362</ele>
        <time>2017-04-08T08:53:58Z</time>
      </trkpt>
      <trkpt lat="45.55198" lon="4.61648">
        <ele>356</ele>
        <time>2017-04-08T08:54:07Z</time>
      </trkpt>
      <trkpt lat="45.55199" lon="4.61661">
        <ele>352</ele>
        <time>2017-04-08T08:54:12Z</time>
      </trkpt>
      <trkpt lat="45.55199" lon="4.61664">
        <ele>348</ele>
        <time>2017-04-08T08:54:37Z</time>
      </trkpt>
      <trkpt lat="45.55226" lon="4.61654">
        <ele>345</ele>
        <time>2017-04-08T08:54:43Z</time>
      </trkpt>
      <trkpt lat="45.55277" lon="4.61611">
        <ele>342</ele>
        <time>2017-04-08T08:54:52Z</time>
      </trkpt>
      <trkpt lat="45.55297" lon="4.61624">
        <ele>340</ele>
        <time>2017-04-08T08:55:01Z</time>
      </trkpt>
      <trkpt lat="45.55249" lon="4.61757">
        <ele>339</ele>
        <time>2017-04-08T09:04:46Z</time>
      </trkpt>
      <trkpt lat="45.55248" lon="4.61757">
        <ele>334</ele>
        <time>2017-04-08T09:04:49Z</time>
      </trkpt>
      <trkpt lat="45.55235" lon="4.61781">
        <ele>338</ele>
        <time>2017-04-08T09:04:59Z</time>
      </trkpt>
      <trkpt lat="45.5523" lon="4.61796">
        <ele>341</ele>
        <time>2017-04-08T09:05:04Z</time>
      </trkpt>
      <trkpt lat="45.55224" lon="4.61812">
        <ele>342</ele>
        <time>2017-04-08T09:05:09Z</time>
      </trkpt>
      <trkpt lat="45.55219" lon="4.61829">
        <ele>342</ele>
        <time>2017-04-08T09:05:14Z</time>
      </trkpt>
      <trkpt lat="45.55212" lon="4.61855">
        <ele>348</ele>
        <time>2017-04-08T09:05:19Z</time>
      </trkpt>
      <trkpt lat="45.55205" lon="4.61881">
        <ele>345</ele>
        <time>2017-04-08T09:05:29Z</time>
      </trkpt>
      <trkpt lat="45.55205" lon="4.61898">
        <ele>343</ele>
        <time>2017-04-08T09:05:34Z</time>
      </trkpt>
      <trkpt lat="45.55205" lon="4.6192">
        <ele>343</ele>
        <time>2017-04-08T09:05:39Z</time>
      </trkpt>
      <trkpt lat="45.55204" lon="4.61934">
        <ele>343</ele>
        <time>2017-04-08T09:05:44Z</time>
      </trkpt>
      <trkpt lat="45.55206" lon="4.61957">
        <ele>342</ele>
        <time>2017-04-08T09:05:49Z</time>
      </trkpt>
      <trkpt lat="45.55208" lon="4.61967">
        <ele>343</ele>
        <time>2017-04-08T09:05:54Z</time>
      </trkpt>
      <trkpt lat="45.55212" lon="4.61982">
        <ele>344</ele>
        <time>2017-04-08T09:05:59Z</time>
      </trkpt>
      <trkpt lat="45.55207" lon="4.62001">
        <ele>344</ele>
        <time>2017-04-08T09:06:04Z</time>
      </trkpt>
      <trkpt lat="45.55202" lon="4.6202">
        <ele>345</ele>
        <time>2017-04-08T09:06:09Z</time>
      </trkpt>
      <trkpt lat="45.55202" lon="4.6204">
        <ele>344</ele>
        <time>2017-04-08T09:06:14Z</time>
      </trkpt>
      <trkpt lat="45.55199" lon="4.62051">
        <ele>342</ele>
        <time>2017-04-08T09:06:19Z</time>
      </trkpt>
      <trkpt lat="45.55194" lon="4.6207">
        <ele>342</ele>
        <time>2017-04-08T09:06:24Z</time>
      </trkpt>
      <trkpt lat="45.55191" lon="4.62082">
        <ele>342</ele>
        <time>2017-04-08T09:06:29Z</time>
      </trkpt>
      <trkpt lat="45.55191" lon="4.6209">
        <ele>342</ele>
        <time>2017-04-08T09:06:34Z</time>
      </trkpt>
      <trkpt lat="45.55191" lon="4.62107">
        <ele>343</ele>
        <time>2017-04-08T09:06:39Z</time>
      </trkpt>
      <trkpt lat="45.55197" lon="4.62127">
        <ele>345</ele>
        <time>2017-04-08T09:06:44Z</time>
      </trkpt>
      <trkpt lat="45.55201" lon="4.62142">
        <ele>346</ele>
        <time>2017-04-08T09:06:49Z</time>
      </trkpt>
      <trkpt lat="45.55206" lon="4.62157">
        <ele>347</ele>
        <time>2017-04-08T09:06:54Z</time>
      </trkpt>
      <trkpt lat="45.55219" lon="4.62162">
        <ele>348</ele>
        <time>2017-04-08T09:06:59Z</time>
      </trkpt>
      <trkpt lat="45.55228" lon="4.62168">
        <ele>349</ele>
        <time>2017-04-08T09:07:04Z</time>
      </trkpt>
      <trkpt lat="45.5523" lon="4.62175">
        <ele>351</ele>
        <time>2017-04-08T09:07:09Z</time>
      </trkpt>
      <trkpt lat="45.55245" lon="4.62159">
        <ele>353</ele>
        <time>2017-04-08T09:07:14Z</time>
      </trkpt>
      <trkpt lat="45.5526" lon="4.62135">
        <ele>355</ele>
        <time>2017-04-08T09:07:23Z</time>
      </trkpt>
      <trkpt lat="45.55267" lon="4.62125">
        <ele>356</ele>
        <time>2017-04-08T09:07:28Z</time>
      </trkpt>
      <trkpt lat="45.55281" lon="4.62112">
        <ele>358</ele>
        <time>2017-04-08T09:07:34Z</time>
      </trkpt>
      <trkpt lat="45.55294" lon="4.62093">
        <ele>359</ele>
        <time>2017-04-08T09:07:43Z</time>
      </trkpt>
      <trkpt lat="45.5531" lon="4.62077">
        <ele>360</ele>
        <time>2017-04-08T09:07:49Z</time>
      </trkpt>
      <trkpt lat="45.55313" lon="4.62066">
        <ele>362</ele>
        <time>2017-04-08T09:07:54Z</time>
      </trkpt>
      <trkpt lat="45.55323" lon="4.62052">
        <ele>363</ele>
        <time>2017-04-08T09:07:59Z</time>
      </trkpt>
      <trkpt lat="45.55344" lon="4.62027">
        <ele>363</ele>
        <time>2017-04-08T09:08:09Z</time>
      </trkpt>
      <trkpt lat="45.55354" lon="4.6201">
        <ele>362</ele>
        <time>2017-04-08T09:08:14Z</time>
      </trkpt>
      <trkpt lat="45.55359" lon="4.62007">
        <ele>361</ele>
        <time>2017-04-08T09:08:19Z</time>
      </trkpt>
      <trkpt lat="45.5537" lon="4.61995">
        <ele>361</ele>
        <time>2017-04-08T09:08:24Z</time>
      </trkpt>
      <trkpt lat="45.55376" lon="4.61983">
        <ele>361</ele>
        <time>2017-04-08T09:08:29Z</time>
      </trkpt>
      <trkpt lat="45.55393" lon="4.61968">
        <ele>362</ele>
        <time>2017-04-08T09:08:34Z</time>
      </trkpt>
      <trkpt lat="45.55399" lon="4.61955">
        <ele>365</ele>
        <time>2017-04-08T09:08:39Z</time>
      </trkpt>
      <trkpt lat="45.55405" lon="4.6194">
        <ele>367</ele>
        <time>2017-04-08T09:08:44Z</time>
      </trkpt>
      <trkpt lat="45.55412" lon="4.61929">
        <ele>371</ele>
        <time>2017-04-08T09:08:49Z</time>
      </trkpt>
      <trkpt lat="45.55423" lon="4.61913">
        <ele>374</ele>
        <time>2017-04-08T09:08:54Z</time>
      </trkpt>
      <trkpt lat="45.55434" lon="4.61899">
        <ele>377</ele>
        <time>2017-04-08T09:08:59Z</time>
      </trkpt>
      <trkpt lat="45.55446" lon="4.61883">
        <ele>377</ele>
        <time>2017-04-08T09:09:04Z</time>
      </trkpt>
      <trkpt lat="45.55453" lon="4.61874">
        <ele>377</ele>
        <time>2017-04-08T09:09:09Z</time>
      </trkpt>
      <trkpt lat="45.55461" lon="4.6186">
        <ele>375</ele>
        <time>2017-04-08T09:09:14Z</time>
      </trkpt>
      <trkpt lat="45.55465" lon="4.61855">
        <ele>373</ele>
        <time>2017-04-08T09:09:19Z</time>
      </trkpt>
      <trkpt lat="45.55476" lon="4.61842">
        <ele>372</ele>
        <time>2017-04-08T09:09:24Z</time>
      </trkpt>
      <trkpt lat="45.55497" lon="4.61811">
        <ele>373</ele>
        <time>2017-04-08T09:09:34Z</time>
      </trkpt>
      <trkpt lat="45.55508" lon="4.618">
        <ele>374</ele>
        <time>2017-04-08T09:09:39Z</time>
      </trkpt>
      <trkpt lat="45.55515" lon="4.61785">
        <ele>374</ele>
        <time>2017-04-08T09:09:44Z</time>
      </trkpt>
      <trkpt lat="45.55535" lon="4.61767">
        <ele>375</ele>
        <time>2017-04-08T09:09:54Z</time>
      </trkpt>
      <trkpt lat="45.55543" lon="4.61767">
        <ele>375</ele>
        <time>2017-04-08T09:09:59Z</time>
      </trkpt>
      <trkpt lat="45.55548" lon="4.6178">
        <ele>375</ele>
        <time>2017-04-08T09:10:05Z</time>
      </trkpt>
      <trkpt lat="45.5557" lon="4.61767">
        <ele>374</ele>
        <time>2017-04-08T09:10:10Z</time>
      </trkpt>
      <trkpt lat="45.55602" lon="4.61761">
        <ele>375</ele>
        <time>2017-04-08T09:10:19Z</time>
      </trkpt>
      <trkpt lat="45.55613" lon="4.61765">
        <ele>376</ele>
        <time>2017-04-08T09:10:24Z</time>
      </trkpt>
      <trkpt lat="45.55622" lon="4.61775">
        <ele>377</ele>
        <time>2017-04-08T09:10:29Z</time>
      </trkpt>
      <trkpt lat="45.55627" lon="4.61795">
        <ele>379</ele>
        <time>2017-04-08T09:10:34Z</time>
      </trkpt>
      <trkpt lat="45.55647" lon="4.61796">
        <ele>383</ele>
        <time>2017-04-08T09:10:40Z</time>
      </trkpt>
      <trkpt lat="45.55678" lon="4.61791">
        <ele>386</ele>
        <time>2017-04-08T09:10:49Z</time>
      </trkpt>
      <trkpt lat="45.557" lon="4.61789">
        <ele>389</ele>
        <time>2017-04-08T09:10:55Z</time>
      </trkpt>
      <trkpt lat="45.55715" lon="4.61799">
        <ele>393</ele>
        <time>2017-04-08T09:11:00Z</time>
      </trkpt>
      <trkpt lat="45.5575" lon="4.61787">
        <ele>389</ele>
        <time>2017-04-08T09:11:09Z</time>
      </trkpt>
      <trkpt lat="45.55765" lon="4.61789">
        <ele>387</ele>
        <time>2017-04-08T09:11:14Z</time>
      </trkpt>
      <trkpt lat="45.55787" lon="4.6178">
        <ele>385</ele>
        <time>2017-04-08T09:11:19Z</time>
      </trkpt>
      <trkpt lat="45.55806" lon="4.61784">
        <ele>385</ele>
        <time>2017-04-08T09:11:24Z</time>
      </trkpt>
      <trkpt lat="45.55836" lon="4.61786">
        <ele>382</ele>
        <time>2017-04-08T09:11:29Z</time>
      </trkpt>
      <trkpt lat="45.55864" lon="4.61772">
        <ele>385</ele>
        <time>2017-04-08T09:11:34Z</time>
      </trkpt>
      <trkpt lat="45.55902" lon="4.61743">
        <ele>384</ele>
        <time>2017-04-08T09:11:39Z</time>
      </trkpt>
      <trkpt lat="45.55924" lon="4.61725">
        <ele>382</ele>
        <time>2017-04-08T09:11:44Z</time>
      </trkpt>
      <trkpt lat="45.55959" lon="4.61704">
        <ele>379</ele>
        <time>2017-04-08T09:11:53Z</time>
      </trkpt>
      <trkpt lat="45.55978" lon="4.61687">
        <ele>376</ele>
        <time>2017-04-08T09:11:59Z</time>
      </trkpt>
      <trkpt lat="45.56014" lon="4.61657">
        <ele>376</ele>
        <time>2017-04-08T09:12:08Z</time>
      </trkpt>
      <trkpt lat="45.56038" lon="4.61653">
        <ele>377</ele>
        <time>2017-04-08T09:12:14Z</time>
      </trkpt>
      <trkpt lat="45.5606" lon="4.61651">
        <ele>377</ele>
        <time>2017-04-08T09:12:19Z</time>
      </trkpt>
      <trkpt lat="45.56084" lon="4.61652">
        <ele>377</ele>
        <time>2017-04-08T09:12:24Z</time>
      </trkpt>
      <trkpt lat="45.561" lon="4.61663">
        <ele>379</ele>
        <time>2017-04-08T09:12:29Z</time>
      </trkpt>
      <trkpt lat="45.56121" lon="4.61664">
        <ele>379</ele>
        <time>2017-04-08T09:12:34Z</time>
      </trkpt>
      <trkpt lat="45.56138" lon="4.61669">
        <ele>378</ele>
        <time>2017-04-08T09:12:39Z</time>
      </trkpt>
      <trkpt lat="45.56154" lon="4.61667">
        <ele>378</ele>
        <time>2017-04-08T09:12:44Z</time>
      </trkpt>
      <trkpt lat="45.56163" lon="4.61674">
        <ele>379</ele>
        <time>2017-04-08T09:12:49Z</time>
      </trkpt>
      <trkpt lat="45.5616" lon="4.61693">
        <ele>379</ele>
        <time>2017-04-08T09:12:54Z</time>
      </trkpt>
      <trkpt lat="45.56167" lon="4.61702">
        <ele>380</ele>
        <time>2017-04-08T09:12:59Z</time>
      </trkpt>
      <trkpt lat="45.56172" lon="4.61718">
        <ele>382</ele>
        <time>2017-04-08T09:13:04Z</time>
      </trkpt>
      <trkpt lat="45.56178" lon="4.61731">
        <ele>383</ele>
        <time>2017-04-08T09:13:09Z</time>
      </trkpt>
      <trkpt lat="45.56187" lon="4.61747">
        <ele>383</ele>
        <time>2017-04-08T09:13:15Z</time>
      </trkpt>
      <trkpt lat="45.562" lon="4.61778">
        <ele>383</ele>
        <time>2017-04-08T09:13:24Z</time>
      </trkpt>
      <trkpt lat="45.56209" lon="4.618">
        <ele>383</ele>
        <time>2017-04-08T09:13:29Z</time>
      </trkpt>
      <trkpt lat="45.56218" lon="4.61818">
        <ele>382</ele>
        <time>2017-04-08T09:13:34Z</time>
      </trkpt>
      <trkpt lat="45.56223" lon="4.6184">
        <ele>381</ele>
        <time>2017-04-08T09:13:39Z</time>
      </trkpt>
      <trkpt lat="45.56224" lon="4.61869">
        <ele>381</ele>
        <time>2017-04-08T09:13:44Z</time>
      </trkpt>
      <trkpt lat="45.5623" lon="4.61896">
        <ele>381</ele>
        <time>2017-04-08T09:13:49Z</time>
      </trkpt>
      <trkpt lat="45.56243" lon="4.6192">
        <ele>381</ele>
        <time>2017-04-08T09:13:54Z</time>
      </trkpt>
      <trkpt lat="45.56258" lon="4.6194">
        <ele>381</ele>
        <time>2017-04-08T09:13:59Z</time>
      </trkpt>
      <trkpt lat="45.56272" lon="4.61981">
        <ele>381</ele>
        <time>2017-04-08T09:14:04Z</time>
      </trkpt>
      <trkpt lat="45.56295" lon="4.6202">
        <ele>380</ele>
        <time>2017-04-08T09:14:09Z</time>
      </trkpt>
      <trkpt lat="45.56325" lon="4.62065">
        <ele>378</ele>
        <time>2017-04-08T09:14:14Z</time>
      </trkpt>
      <trkpt lat="45.56352" lon="4.62109">
        <ele>376</ele>
        <time>2017-04-08T09:14:19Z</time>
      </trkpt>
      <trkpt lat="45.56376" lon="4.6215">
        <ele>373</ele>
        <time>2017-04-08T09:14:24Z</time>
      </trkpt>
      <trkpt lat="45.56423" lon="4.62176">
        <ele>368</ele>
        <time>2017-04-08T09:14:30Z</time>
      </trkpt>
      <trkpt lat="45.56473" lon="4.62261">
        <ele>365</ele>
        <time>2017-04-08T09:14:39Z</time>
      </trkpt>
      <trkpt lat="45.56498" lon="4.62289">
        <ele>361</ele>
        <time>2017-04-08T09:14:44Z</time>
      </trkpt>
      <trkpt lat="45.56504" lon="4.62317">
        <ele>356</ele>
        <time>2017-04-08T09:14:49Z</time>
      </trkpt>
      <trkpt lat="45.565" lon="4.6235">
        <ele>352</ele>
        <time>2017-04-08T09:14:54Z</time>
      </trkpt>
      <trkpt lat="45.56489" lon="4.62405">
        <ele>350</ele>
        <time>2017-04-08T09:14:59Z</time>
      </trkpt>
      <trkpt lat="45.56483" lon="4.62458">
        <ele>348</ele>
        <time>2017-04-08T09:15:04Z</time>
      </trkpt>
      <trkpt lat="45.56478" lon="4.62514">
        <ele>346</ele>
        <time>2017-04-08T09:15:09Z</time>
      </trkpt>
      <trkpt lat="45.56472" lon="4.62571">
        <ele>342</ele>
        <time>2017-04-08T09:15:14Z</time>
      </trkpt>
      <trkpt lat="45.56484" lon="4.62609">
        <ele>339</ele>
        <time>2017-04-08T09:15:19Z</time>
      </trkpt>
      <trkpt lat="45.56513" lon="4.62618">
        <ele>335</ele>
        <time>2017-04-08T09:15:25Z</time>
      </trkpt>
      <trkpt lat="45.56562" lon="4.62608">
        <ele>332</ele>
        <time>2017-04-08T09:15:34Z</time>
      </trkpt>
      <trkpt lat="45.56601" lon="4.62575">
        <ele>330</ele>
        <time>2017-04-08T09:15:40Z</time>
      </trkpt>
      <trkpt lat="45.56628" lon="4.62598">
        <ele>329</ele>
        <time>2017-04-08T09:15:45Z</time>
      </trkpt>
      <trkpt lat="45.56686" lon="4.62604">
        <ele>328</ele>
        <time>2017-04-08T09:15:54Z</time>
      </trkpt>
      <trkpt lat="45.56707" lon="4.62591">
        <ele>325</ele>
        <time>2017-04-08T09:15:59Z</time>
      </trkpt>
      <trkpt lat="45.56728" lon="4.62561">
        <ele>321</ele>
        <time>2017-04-08T09:16:05Z</time>
      </trkpt>
      <trkpt lat="45.56744" lon="4.62553">
        <ele>318</ele>
        <time>2017-04-08T09:16:14Z</time>
      </trkpt>
      <trkpt lat="45.56743" lon="4.62574">
        <ele>317</ele>
        <time>2017-04-08T09:16:19Z</time>
      </trkpt>
      <trkpt lat="45.56733" lon="4.62601">
        <ele>317</ele>
        <time>2017-04-08T09:16:24Z</time>
      </trkpt>
      <trkpt lat="45.56731" lon="4.62609">
        <ele>317</ele>
        <time>2017-04-08T09:16:29Z</time>
      </trkpt>
      <trkpt lat="45.5674" lon="4.62652">
        <ele>323</ele>
        <time>2017-04-08T09:16:35Z</time>
      </trkpt>
      <trkpt lat="45.56726" lon="4.62689">
        <ele>327</ele>
        <time>2017-04-08T09:16:44Z</time>
      </trkpt>
      <trkpt lat="45.5672" lon="4.62703">
        <ele>330</ele>
        <time>2017-04-08T09:16:50Z</time>
      </trkpt>
      <trkpt lat="45.5667" lon="4.6279">
        <ele>335</ele>
        <time>2017-04-08T09:17:53Z</time>
      </trkpt>
      <trkpt lat="45.56665" lon="4.62792">
        <ele>334</ele>
        <time>2017-04-08T09:18:06Z</time>
      </trkpt>
      <trkpt lat="45.56656" lon="4.62804">
        <ele>334</ele>
        <time>2017-04-08T09:18:18Z</time>
      </trkpt>
      <trkpt lat="45.56648" lon="4.62809">
        <ele>334</ele>
        <time>2017-04-08T09:18:30Z</time>
      </trkpt>
      <trkpt lat="45.5664" lon="4.62813">
        <ele>332</ele>
        <time>2017-04-08T09:18:38Z</time>
      </trkpt>
      <trkpt lat="45.56633" lon="4.62813">
        <ele>330</ele>
        <time>2017-04-08T09:18:46Z</time>
      </trkpt>
      <trkpt lat="45.56625" lon="4.62815">
        <ele>331</ele>
        <time>2017-04-08T09:18:55Z</time>
      </trkpt>
      <trkpt lat="45.56623" lon="4.62813">
        <ele>329</ele>
        <time>2017-04-08T09:19:10Z</time>
      </trkpt>
      <trkpt lat="45.56624" lon="4.62811">
        <ele>328</ele>
        <time>2017-04-08T09:19:15Z</time>
      </trkpt>
      <trkpt lat="45.56622" lon="4.62814">
        <ele>328</ele>
        <time>2017-04-08T09:19:39Z</time>
      </trkpt>
      <trkpt lat="45.56622" lon="4.62814">
        <ele>328</ele>
        <time>2017-04-08T09:19:43Z</time>
      </trkpt>
      <trkpt lat="45.56617" lon="4.6282">
        <ele>326</ele>
        <time>2017-04-08T09:19:51Z</time>
      </trkpt>
      <trkpt lat="45.56611" lon="4.62825">
        <ele>327</ele>
        <time>2017-04-08T09:19:56Z</time>
      </trkpt>
      <trkpt lat="45.56603" lon="4.62832">
        <ele>327</ele>
        <time>2017-04-08T09:20:01Z</time>
      </trkpt>
      <trkpt lat="45.56593" lon="4.6284">
        <ele>329</ele>
        <time>2017-04-08T09:20:07Z</time>
      </trkpt>
      <trkpt lat="45.56578" lon="4.62856">
        <ele>330</ele>
        <time>2017-04-08T09:20:17Z</time>
      </trkpt>
      <trkpt lat="45.56568" lon="4.62864">
        <ele>331</ele>
        <time>2017-04-08T09:20:27Z</time>
      </trkpt>
      <trkpt lat="45.5657" lon="4.62863">
        <ele>333</ele>
        <time>2017-04-08T09:20:42Z</time>
      </trkpt>
      <trkpt lat="45.5657" lon="4.62863">
        <ele>336</ele>
        <time>2017-04-08T09:20:44Z</time>
      </trkpt>
      <trkpt lat="45.56567" lon="4.62872">
        <ele>339</ele>
        <time>2017-04-08T09:21:08Z</time>
      </trkpt>
      <trkpt lat="45.56566" lon="4.6287">
        <ele>341</ele>
        <time>2017-04-08T09:21:23Z</time>
      </trkpt>
      <trkpt lat="45.56566" lon="4.6287">
        <ele>343</ele>
        <time>2017-04-08T09:21:30Z</time>
      </trkpt>
      <trkpt lat="45.56566" lon="4.62871">
        <ele>343</ele>
        <time>2017-04-08T09:21:54Z</time>
      </trkpt>
      <trkpt lat="45.56573" lon="4.62877">
        <ele>342</ele>
        <time>2017-04-08T09:22:00Z</time>
      </trkpt>
      <trkpt lat="45.56582" lon="4.62893">
        <ele>339</ele>
        <time>2017-04-08T09:22:09Z</time>
      </trkpt>
      <trkpt lat="45.5659" lon="4.62895">
        <ele>338</ele>
        <time>2017-04-08T09:22:14Z</time>
      </trkpt>
      <trkpt lat="45.56599" lon="4.62893">
        <ele>337</ele>
        <time>2017-04-08T09:22:19Z</time>
      </trkpt>
      <trkpt lat="45.56603" lon="4.62902">
        <ele>338</ele>
        <time>2017-04-08T09:22:24Z</time>
      </trkpt>
      <trkpt lat="45.56601" lon="4.62909">
        <ele>339</ele>
        <time>2017-04-08T09:22:39Z</time>
      </trkpt>
      <trkpt lat="45.56605" lon="4.62915">
        <ele>339</ele>
        <time>2017-04-08T09:22:44Z</time>
      </trkpt>
      <trkpt lat="45.5661" lon="4.62917">
        <ele>342</ele>
        <time>2017-04-08T09:22:49Z</time>
      </trkpt>
      <trkpt lat="45.56616" lon="4.62918">
        <ele>344</ele>
        <time>2017-04-08T09:22:54Z</time>
      </trkpt>
      <trkpt lat="45.56619" lon="4.62923">
        <ele>346</ele>
        <time>2017-04-08T09:22:59Z</time>
      </trkpt>
      <trkpt lat="45.56623" lon="4.62929">
        <ele>349</ele>
        <time>2017-04-08T09:23:04Z</time>
      </trkpt>
      <trkpt lat="45.5663" lon="4.62936">
        <ele>351</ele>
        <time>2017-04-08T09:23:14Z</time>
      </trkpt>
      <trkpt lat="45.56636" lon="4.62945">
        <ele>351</ele>
        <time>2017-04-08T09:23:24Z</time>
      </trkpt>
      <trkpt lat="45.56647" lon="4.62945">
        <ele>352</ele>
        <time>2017-04-08T09:23:34Z</time>
      </trkpt>
      <trkpt lat="45.56651" lon="4.62952">
        <ele>352</ele>
        <time>2017-04-08T09:23:44Z</time>
      </trkpt>
      <trkpt lat="45.56652" lon="4.62949">
        <ele>353</ele>
        <time>2017-04-08T09:24:09Z</time>
      </trkpt>
      <trkpt lat="45.56652" lon="4.62949">
        <ele>354</ele>
        <time>2017-04-08T09:24:15Z</time>
      </trkpt>
      <trkpt lat="45.56652" lon="4.62948">
        <ele>356</ele>
        <time>2017-04-08T09:24:39Z</time>
      </trkpt>
      <trkpt lat="45.56652" lon="4.62948">
        <ele>357</ele>
        <time>2017-04-08T09:24:45Z</time>
      </trkpt>
      <trkpt lat="45.56658" lon="4.62957">
        <ele>357</ele>
        <time>2017-04-08T09:24:59Z</time>
      </trkpt>
      <trkpt lat="45.56665" lon="4.62969">
        <ele>356</ele>
        <time>2017-04-08T09:25:04Z</time>
      </trkpt>
      <trkpt lat="45.56667" lon="4.62985">
        <ele>355</ele>
        <time>2017-04-08T09:25:09Z</time>
      </trkpt>
      <trkpt lat="45.56671" lon="4.62998">
        <ele>355</ele>
        <time>2017-04-08T09:25:14Z</time>
      </trkpt>
      <trkpt lat="45.56679" lon="4.63015">
        <ele>357</ele>
        <time>2017-04-08T09:25:24Z</time>
      </trkpt>
      <trkpt lat="45.56686" lon="4.63029">
        <ele>359</ele>
        <time>2017-04-08T09:25:33Z</time>
      </trkpt>
      <trkpt lat="45.56694" lon="4.63047">
        <ele>361</ele>
        <time>2017-04-08T09:25:43Z</time>
      </trkpt>
      <trkpt lat="45.56698" lon="4.63057">
        <ele>365</ele>
        <time>2017-04-08T09:25:48Z</time>
      </trkpt>
      <trkpt lat="45.56702" lon="4.63064">
        <ele>367</ele>
        <time>2017-04-08T09:25:53Z</time>
      </trkpt>
      <trkpt lat="45.56708" lon="4.63072">
        <ele>369</ele>
        <time>2017-04-08T09:25:59Z</time>
      </trkpt>
      <trkpt lat="45.56709" lon="4.63083">
        <ele>370</ele>
        <time>2017-04-08T09:26:04Z</time>
      </trkpt>
      <trkpt lat="45.56714" lon="4.63106">
        <ele>371</ele>
        <time>2017-04-08T09:26:14Z</time>
      </trkpt>
      <trkpt lat="45.56718" lon="4.63127">
        <ele>371</ele>
        <time>2017-04-08T09:26:23Z</time>
      </trkpt>
      <trkpt lat="45.56722" lon="4.63136">
        <ele>372</ele>
        <time>2017-04-08T09:26:28Z</time>
      </trkpt>
      <trkpt lat="45.56728" lon="4.63144">
        <ele>372</ele>
        <time>2017-04-08T09:26:33Z</time>
      </trkpt>
      <trkpt lat="45.56733" lon="4.63151">
        <ele>373</ele>
        <time>2017-04-08T09:26:38Z</time>
      </trkpt>
      <trkpt lat="45.56736" lon="4.63161">
        <ele>373</ele>
        <time>2017-04-08T09:26:43Z</time>
      </trkpt>
      <trkpt lat="45.56742" lon="4.63177">
        <ele>372</ele>
        <time>2017-04-08T09:26:49Z</time>
      </trkpt>
      <trkpt lat="45.56749" lon="4.63209">
        <ele>373</ele>
        <time>2017-04-08T09:26:59Z</time>
      </trkpt>
      <trkpt lat="45.56751" lon="4.63225">
        <ele>374</ele>
        <time>2017-04-08T09:27:04Z</time>
      </trkpt>
      <trkpt lat="45.56755" lon="4.63238">
        <ele>375</ele>
        <time>2017-04-08T09:27:09Z</time>
      </trkpt>
      <trkpt lat="45.56762" lon="4.63264">
        <ele>375</ele>
        <time>2017-04-08T09:27:18Z</time>
      </trkpt>
      <trkpt lat="45.56768" lon="4.6328">
        <ele>377</ele>
        <time>2017-04-08T09:27:24Z</time>
      </trkpt>
      <trkpt lat="45.56776" lon="4.63308">
        <ele>378</ele>
        <time>2017-04-08T09:27:33Z</time>
      </trkpt>
      <trkpt lat="45.56782" lon="4.63325">
        <ele>379</ele>
        <time>2017-04-08T09:27:39Z</time>
      </trkpt>
      <trkpt lat="45.56787" lon="4.63338">
        <ele>381</ele>
        <time>2017-04-08T09:27:44Z</time>
      </trkpt>
      <trkpt lat="45.56791" lon="4.63366">
        <ele>383</ele>
        <time>2017-04-08T09:27:53Z</time>
      </trkpt>
      <trkpt lat="45.56794" lon="4.6338">
        <ele>384</ele>
        <time>2017-04-08T09:27:58Z</time>
      </trkpt>
      <trkpt lat="45.56799" lon="4.63393">
        <ele>383</ele>
        <time>2017-04-08T09:28:03Z</time>
      </trkpt>
      <trkpt lat="45.56803" lon="4.63411">
        <ele>383</ele>
        <time>2017-04-08T09:28:09Z</time>
      </trkpt>
      <trkpt lat="45.56815" lon="4.63438">
        <ele>382</ele>
        <time>2017-04-08T09:28:19Z</time>
      </trkpt>
      <trkpt lat="45.56821" lon="4.63453">
        <ele>382</ele>
        <time>2017-04-08T09:28:24Z</time>
      </trkpt>
      <trkpt lat="45.56828" lon="4.6347">
        <ele>382</ele>
        <time>2017-04-08T09:28:29Z</time>
      </trkpt>
      <trkpt lat="45.56834" lon="4.63486">
        <ele>382</ele>
        <time>2017-04-08T09:28:34Z</time>
      </trkpt>
      <trkpt lat="45.56844" lon="4.63501">
        <ele>382</ele>
        <time>2017-04-08T09:28:39Z</time>
      </trkpt>
      <trkpt lat="45.56851" lon="4.63516">
        <ele>382</ele>
        <time>2017-04-08T09:28:44Z</time>
      </trkpt>
      <trkpt lat="45.56861" lon="4.63529">
        <ele>382</ele>
        <time>2017-04-08T09:28:49Z</time>
      </trkpt>
      <trkpt lat="45.56875" lon="4.63557">
        <ele>382</ele>
        <time>2017-04-08T09:28:59Z</time>
      </trkpt>
      <trkpt lat="45.56878" lon="4.63574">
        <ele>382</ele>
        <time>2017-04-08T09:29:04Z</time>
      </trkpt>
      <trkpt lat="45.56885" lon="4.63589">
        <ele>381</ele>
        <time>2017-04-08T09:29:09Z</time>
      </trkpt>
      <trkpt lat="45.56893" lon="4.63605">
        <ele>380</ele>
        <time>2017-04-08T09:29:14Z</time>
      </trkpt>
      <trkpt lat="45.56911" lon="4.63635">
        <ele>380</ele>
        <time>2017-04-08T09:29:24Z</time>
      </trkpt>
      <trkpt lat="45.56923" lon="4.63668">
        <ele>379</ele>
        <time>2017-04-08T09:29:34Z</time>
      </trkpt>
      <trkpt lat="45.56927" lon="4.63687">
        <ele>378</ele>
        <time>2017-04-08T09:29:39Z</time>
      </trkpt>
      <trkpt lat="45.56932" lon="4.63707">
        <ele>378</ele>
        <time>2017-04-08T09:29:44Z</time>
      </trkpt>
      <trkpt lat="45.56936" lon="4.63725">
        <ele>377</ele>
        <time>2017-04-08T09:29:49Z</time>
      </trkpt>
      <trkpt lat="45.56942" lon="4.63742">
        <ele>377</ele>
        <time>2017-04-08T09:29:54Z</time>
      </trkpt>
      <trkpt lat="45.56947" lon="4.63758">
        <ele>377</ele>
        <time>2017-04-08T09:29:59Z</time>
      </trkpt>
      <trkpt lat="45.56951" lon="4.63776">
        <ele>377</ele>
        <time>2017-04-08T09:30:04Z</time>
      </trkpt>
      <trkpt lat="45.56955" lon="4.63794">
        <ele>377</ele>
        <time>2017-04-08T09:30:09Z</time>
      </trkpt>
      <trkpt lat="45.56959" lon="4.63812">
        <ele>378</ele>
        <time>2017-04-08T09:30:14Z</time>
      </trkpt>
      <trkpt lat="45.56965" lon="4.6383">
        <ele>378</ele>
        <time>2017-04-08T09:30:19Z</time>
      </trkpt>
      <trkpt lat="45.56968" lon="4.63847">
        <ele>379</ele>
        <time>2017-04-08T09:30:24Z</time>
      </trkpt>
      <trkpt lat="45.56974" lon="4.6386">
        <ele>379</ele>
        <time>2017-04-08T09:30:29Z</time>
      </trkpt>
      <trkpt lat="45.56982" lon="4.63869">
        <ele>380</ele>
        <time>2017-04-08T09:30:34Z</time>
      </trkpt>
      <trkpt lat="45.56988" lon="4.6388">
        <ele>380</ele>
        <time>2017-04-08T09:30:39Z</time>
      </trkpt>
      <trkpt lat="45.56993" lon="4.63889">
        <ele>381</ele>
        <time>2017-04-08T09:30:44Z</time>
      </trkpt>
      <trkpt lat="45.56997" lon="4.63896">
        <ele>382</ele>
        <time>2017-04-08T09:30:49Z</time>
      </trkpt>
      <trkpt lat="45.57005" lon="4.63908">
        <ele>382</ele>
        <time>2017-04-08T09:30:59Z</time>
      </trkpt>
      <trkpt lat="45.57009" lon="4.63918">
        <ele>383</ele>
        <time>2017-04-08T09:31:04Z</time>
      </trkpt>
      <trkpt lat="45.57013" lon="4.63929">
        <ele>383</ele>
        <time>2017-04-08T09:31:09Z</time>
      </trkpt>
      <trkpt lat="45.57019" lon="4.63936">
        <ele>383</ele>
        <time>2017-04-08T09:31:14Z</time>
      </trkpt>
      <trkpt lat="45.57026" lon="4.63944">
        <ele>384</ele>
        <time>2017-04-08T09:31:19Z</time>
      </trkpt>
      <trkpt lat="45.57031" lon="4.63952">
        <ele>384</ele>
        <time>2017-04-08T09:31:24Z</time>
      </trkpt>
      <trkpt lat="45.57037" lon="4.63961">
        <ele>384</ele>
        <time>2017-04-08T09:31:29Z</time>
      </trkpt>
      <trkpt lat="45.57046" lon="4.63968">
        <ele>384</ele>
        <time>2017-04-08T09:31:34Z</time>
      </trkpt>
      <trkpt lat="45.57055" lon="4.63976">
        <ele>384</ele>
        <time>2017-04-08T09:31:39Z</time>
      </trkpt>
      <trkpt lat="45.57061" lon="4.63986">
        <ele>385</ele>
        <time>2017-04-08T09:31:44Z</time>
      </trkpt>
      <trkpt lat="45.57068" lon="4.63993">
        <ele>385</ele>
        <time>2017-04-08T09:31:49Z</time>
      </trkpt>
      <trkpt lat="45.57071" lon="4.64005">
        <ele>386</ele>
        <time>2017-04-08T09:31:54Z</time>
      </trkpt>
      <trkpt lat="45.57074" lon="4.64016">
        <ele>387</ele>
        <time>2017-04-08T09:31:59Z</time>
      </trkpt>
      <trkpt lat="45.57087" lon="4.64034">
        <ele>388</ele>
        <time>2017-04-08T09:32:09Z</time>
      </trkpt>
      <trkpt lat="45.57088" lon="4.64045">
        <ele>389</ele>
        <time>2017-04-08T09:32:14Z</time>
      </trkpt>
      <trkpt lat="45.57092" lon="4.64053">
        <ele>389</ele>
        <time>2017-04-08T09:32:19Z</time>
      </trkpt>
      <trkpt lat="45.57107" lon="4.64054">
        <ele>389</ele>
        <time>2017-04-08T09:32:24Z</time>
      </trkpt>
      <trkpt lat="45.57116" lon="4.64058">
        <ele>389</ele>
        <time>2017-04-08T09:32:29Z</time>
      </trkpt>
      <trkpt lat="45.57121" lon="4.64071">
        <ele>389</ele>
        <time>2017-04-08T09:32:34Z</time>
      </trkpt>
      <trkpt lat="45.57123" lon="4.64087">
        <ele>389</ele>
        <time>2017-04-08T09:32:39Z</time>
      </trkpt>
      <trkpt lat="45.57125" lon="4.64103">
        <ele>389</ele>
        <time>2017-04-08T09:32:44Z</time>
      </trkpt>
      <trkpt lat="45.57132" lon="4.64129">
        <ele>390</ele>
        <time>2017-04-08T09:32:53Z</time>
      </trkpt>
      <trkpt lat="45.5714" lon="4.64143">
        <ele>391</ele>
        <time>2017-04-08T09:32:59Z</time>
      </trkpt>
      <trkpt lat="45.57146" lon="4.64156">
        <ele>391</ele>
        <time>2017-04-08T09:33:04Z</time>
      </trkpt>
      <trkpt lat="45.57156" lon="4.64181">
        <ele>392</ele>
        <time>2017-04-08T09:33:13Z</time>
      </trkpt>
      <trkpt lat="45.57161" lon="4.642">
        <ele>392</ele>
        <time>2017-04-08T09:33:19Z</time>
      </trkpt>
      <trkpt lat="45.57163" lon="4.64216">
        <ele>392</ele>
        <time>2017-04-08T09:33:24Z</time>
      </trkpt>
      <trkpt lat="45.57169" lon="4.64227">
        <ele>392</ele>
        <time>2017-04-08T09:33:29Z</time>
      </trkpt>
      <trkpt lat="45.57169" lon="4.64244">
        <ele>393</ele>
        <time>2017-04-08T09:33:34Z</time>
      </trkpt>
      <trkpt lat="45.57162" lon="4.64253">
        <ele>400</ele>
        <time>2017-04-08T09:34:39Z</time>
      </trkpt>
      <trkpt lat="45.57163" lon="4.64251">
        <ele>400</ele>
        <time>2017-04-08T09:34:45Z</time>
      </trkpt>
      <trkpt lat="45.57175" lon="4.64236">
        <ele>400</ele>
        <time>2017-04-08T09:34:53Z</time>
      </trkpt>
      <trkpt lat="45.57184" lon="4.64227">
        <ele>399</ele>
        <time>2017-04-08T09:34:58Z</time>
      </trkpt>
      <trkpt lat="45.57193" lon="4.64222">
        <ele>400</ele>
        <time>2017-04-08T09:35:03Z</time>
      </trkpt>
      <trkpt lat="45.57202" lon="4.64216">
        <ele>401</ele>
        <time>2017-04-08T09:35:08Z</time>
      </trkpt>
      <trkpt lat="45.57214" lon="4.64204">
        <ele>399</ele>
        <time>2017-04-08T09:35:14Z</time>
      </trkpt>
      <trkpt lat="45.57243" lon="4.64174">
        <ele>397</ele>
        <time>2017-04-08T09:35:24Z</time>
      </trkpt>
      <trkpt lat="45.57251" lon="4.64176">
        <ele>398</ele>
        <time>2017-04-08T09:35:30Z</time>
      </trkpt>
      <trkpt lat="45.57269" lon="4.64171">
        <ele>396</ele>
        <time>2017-04-08T09:35:39Z</time>
      </trkpt>
      <trkpt lat="45.5728" lon="4.64163">
        <ele>394</ele>
        <time>2017-04-08T09:35:44Z</time>
      </trkpt>
      <trkpt lat="45.57291" lon="4.64156">
        <ele>394</ele>
        <time>2017-04-08T09:35:49Z</time>
      </trkpt>
      <trkpt lat="45.57306" lon="4.64146">
        <ele>394</ele>
        <time>2017-04-08T09:35:54Z</time>
      </trkpt>
      <trkpt lat="45.57317" lon="4.64144">
        <ele>392</ele>
        <time>2017-04-08T09:35:59Z</time>
      </trkpt>
      <trkpt lat="45.57327" lon="4.64149">
        <ele>393</ele>
        <time>2017-04-08T09:36:04Z</time>
      </trkpt>
      <trkpt lat="45.57337" lon="4.6415">
        <ele>394</ele>
        <time>2017-04-08T09:36:09Z</time>
      </trkpt>
      <trkpt lat="45.57348" lon="4.64146">
        <ele>395</ele>
        <time>2017-04-08T09:36:14Z</time>
      </trkpt>
      <trkpt lat="45.5736" lon="4.64141">
        <ele>397</ele>
        <time>2017-04-08T09:36:19Z</time>
      </trkpt>
      <trkpt lat="45.57372" lon="4.64129">
        <ele>399</ele>
        <time>2017-04-08T09:36:24Z</time>
      </trkpt>
      <trkpt lat="45.57383" lon="4.64121">
        <ele>401</ele>
        <time>2017-04-08T09:36:29Z</time>
      </trkpt>
      <trkpt lat="45.57394" lon="4.64116">
        <ele>402</ele>
        <time>2017-04-08T09:36:34Z</time>
      </trkpt>
      <trkpt lat="45.57406" lon="4.64113">
        <ele>402</ele>
        <time>2017-04-08T09:36:39Z</time>
      </trkpt>
      <trkpt lat="45.57416" lon="4.64109">
        <ele>403</ele>
        <time>2017-04-08T09:36:44Z</time>
      </trkpt>
      <trkpt lat="45.57439" lon="4.64098">
        <ele>403</ele>
        <time>2017-04-08T09:36:54Z</time>
      </trkpt>
      <trkpt lat="45.57449" lon="4.64096">
        <ele>404</ele>
        <time>2017-04-08T09:36:59Z</time>
      </trkpt>
      <trkpt lat="45.57457" lon="4.64095">
        <ele>406</ele>
        <time>2017-04-08T09:37:04Z</time>
      </trkpt>
      <trkpt lat="45.57467" lon="4.64092">
        <ele>408</ele>
        <time>2017-04-08T09:37:09Z</time>
      </trkpt>
      <trkpt lat="45.57479" lon="4.64085">
        <ele>410</ele>
        <time>2017-04-08T09:37:14Z</time>
      </trkpt>
      <trkpt lat="45.5749" lon="4.64079">
        <ele>412</ele>
        <time>2017-04-08T09:37:19Z</time>
      </trkpt>
      <trkpt lat="45.57499" lon="4.64074">
        <ele>412</ele>
        <time>2017-04-08T09:37:24Z</time>
      </trkpt>
      <trkpt lat="45.57511" lon="4.64068">
        <ele>411</ele>
        <time>2017-04-08T09:37:29Z</time>
      </trkpt>
      <trkpt lat="45.57523" lon="4.64063">
        <ele>409</ele>
        <time>2017-04-08T09:37:34Z</time>
      </trkpt>
      <trkpt lat="45.57536" lon="4.64056">
        <ele>408</ele>
        <time>2017-04-08T09:37:39Z</time>
      </trkpt>
      <trkpt lat="45.57547" lon="4.64047">
        <ele>406</ele>
        <time>2017-04-08T09:37:44Z</time>
      </trkpt>
      <trkpt lat="45.57554" lon="4.64046">
        <ele>405</ele>
        <time>2017-04-08T09:37:49Z</time>
      </trkpt>
      <trkpt lat="45.57561" lon="4.64047">
        <ele>405</ele>
        <time>2017-04-08T09:37:59Z</time>
      </trkpt>
      <trkpt lat="45.57568" lon="4.64037">
        <ele>407</ele>
        <time>2017-04-08T09:38:04Z</time>
      </trkpt>
      <trkpt lat="45.57575" lon="4.64027">
        <ele>408</ele>
        <time>2017-04-08T09:38:09Z</time>
      </trkpt>
      <trkpt lat="45.57584" lon="4.64017">
        <ele>410</ele>
        <time>2017-04-08T09:38:14Z</time>
      </trkpt>
      <trkpt lat="45.57594" lon="4.64004">
        <ele>411</ele>
        <time>2017-04-08T09:38:19Z</time>
      </trkpt>
      <trkpt lat="45.57603" lon="4.63995">
        <ele>413</ele>
        <time>2017-04-08T09:38:24Z</time>
      </trkpt>
      <trkpt lat="45.57611" lon="4.63986">
        <ele>413</ele>
        <time>2017-04-08T09:38:29Z</time>
      </trkpt>
      <trkpt lat="45.57618" lon="4.63979">
        <ele>415</ele>
        <time>2017-04-08T09:38:34Z</time>
      </trkpt>
      <trkpt lat="45.57626" lon="4.63971">
        <ele>416</ele>
        <time>2017-04-08T09:38:39Z</time>
      </trkpt>
      <trkpt lat="45.57634" lon="4.6396">
        <ele>419</ele>
        <time>2017-04-08T09:38:44Z</time>
      </trkpt>
      <trkpt lat="45.57642" lon="4.63946">
        <ele>421</ele>
        <time>2017-04-08T09:38:49Z</time>
      </trkpt>
      <trkpt lat="45.57651" lon="4.6393">
        <ele>423</ele>
        <time>2017-04-08T09:38:54Z</time>
      </trkpt>
      <trkpt lat="45.5766" lon="4.63915">
        <ele>424</ele>
        <time>2017-04-08T09:38:59Z</time>
      </trkpt>
      <trkpt lat="45.5767" lon="4.63899">
        <ele>423</ele>
        <time>2017-04-08T09:39:04Z</time>
      </trkpt>
      <trkpt lat="45.57679" lon="4.63884">
        <ele>421</ele>
        <time>2017-04-08T09:39:09Z</time>
      </trkpt>
      <trkpt lat="45.57685" lon="4.63873">
        <ele>418</ele>
        <time>2017-04-08T09:39:14Z</time>
      </trkpt>
      <trkpt lat="45.57691" lon="4.63859">
        <ele>417</ele>
        <time>2017-04-08T09:39:19Z</time>
      </trkpt>
      <trkpt lat="45.57698" lon="4.63842">
        <ele>414</ele>
        <time>2017-04-08T09:39:24Z</time>
      </trkpt>
      <trkpt lat="45.5771" lon="4.63811">
        <ele>414</ele>
        <time>2017-04-08T09:39:34Z</time>
      </trkpt>
      <trkpt lat="45.57717" lon="4.63798">
        <ele>414</ele>
        <time>2017-04-08T09:39:39Z</time>
      </trkpt>
      <trkpt lat="45.57722" lon="4.63786">
        <ele>414</ele>
        <time>2017-04-08T09:39:44Z</time>
      </trkpt>
      <trkpt lat="45.57731" lon="4.63767">
        <ele>415</ele>
        <time>2017-04-08T09:39:53Z</time>
      </trkpt>
      <trkpt lat="45.57739" lon="4.63756">
        <ele>417</ele>
        <time>2017-04-08T09:39:59Z</time>
      </trkpt>
      <trkpt lat="45.57746" lon="4.63747">
        <ele>419</ele>
        <time>2017-04-08T09:40:04Z</time>
      </trkpt>
      <trkpt lat="45.57752" lon="4.63741">
        <ele>423</ele>
        <time>2017-04-08T09:40:09Z</time>
      </trkpt>
      <trkpt lat="45.5776" lon="4.63727">
        <ele>426</ele>
        <time>2017-04-08T09:40:14Z</time>
      </trkpt>
      <trkpt lat="45.57766" lon="4.63717">
        <ele>427</ele>
        <time>2017-04-08T09:40:19Z</time>
      </trkpt>
      <trkpt lat="45.57773" lon="4.63708">
        <ele>428</ele>
        <time>2017-04-08T09:40:24Z</time>
      </trkpt>
      <trkpt lat="45.57782" lon="4.63696">
        <ele>428</ele>
        <time>2017-04-08T09:40:29Z</time>
      </trkpt>
      <trkpt lat="45.57804" lon="4.6367">
        <ele>425</ele>
        <time>2017-04-08T09:40:39Z</time>
      </trkpt>
      <trkpt lat="45.57815" lon="4.6366">
        <ele>424</ele>
        <time>2017-04-08T09:40:44Z</time>
      </trkpt>
      <trkpt lat="45.57826" lon="4.63656">
        <ele>420</ele>
        <time>2017-04-08T09:40:49Z</time>
      </trkpt>
      <trkpt lat="45.57834" lon="4.6365">
        <ele>419</ele>
        <time>2017-04-08T09:40:54Z</time>
      </trkpt>
      <trkpt lat="45.57843" lon="4.63646">
        <ele>419</ele>
        <time>2017-04-08T09:40:59Z</time>
      </trkpt>
      <trkpt lat="45.57849" lon="4.63648">
        <ele>421</ele>
        <time>2017-04-08T09:41:04Z</time>
      </trkpt>
      <trkpt lat="45.57857" lon="4.63645">
        <ele>423</ele>
        <time>2017-04-08T09:41:09Z</time>
      </trkpt>
      <trkpt lat="45.57865" lon="4.6364">
        <ele>427</ele>
        <time>2017-04-08T09:41:14Z</time>
      </trkpt>
      <trkpt lat="45.57874" lon="4.63638">
        <ele>430</ele>
        <time>2017-04-08T09:41:19Z</time>
      </trkpt>
      <trkpt lat="45.57884" lon="4.63638">
        <ele>431</ele>
        <time>2017-04-08T09:41:24Z</time>
      </trkpt>
      <trkpt lat="45.5789" lon="4.6365">
        <ele>432</ele>
        <time>2017-04-08T09:41:29Z</time>
      </trkpt>
      <trkpt lat="45.57897" lon="4.63661">
        <ele>434</ele>
        <time>2017-04-08T09:41:34Z</time>
      </trkpt>
      <trkpt lat="45.57911" lon="4.63669">
        <ele>433</ele>
        <time>2017-04-08T09:41:39Z</time>
      </trkpt>
      <trkpt lat="45.57924" lon="4.63679">
        <ele>434</ele>
        <time>2017-04-08T09:41:44Z</time>
      </trkpt>
      <trkpt lat="45.57937" lon="4.6369">
        <ele>435</ele>
        <time>2017-04-08T09:41:49Z</time>
      </trkpt>
      <trkpt lat="45.57951" lon="4.63695">
        <ele>437</ele>
        <time>2017-04-08T09:41:54Z</time>
      </trkpt>
      <trkpt lat="45.57963" lon="4.63702">
        <ele>438</ele>
        <time>2017-04-08T09:41:59Z</time>
      </trkpt>
      <trkpt lat="45.57975" lon="4.63712">
        <ele>439</ele>
        <time>2017-04-08T09:42:04Z</time>
      </trkpt>
      <trkpt lat="45.57982" lon="4.6373">
        <ele>440</ele>
        <time>2017-04-08T09:42:09Z</time>
      </trkpt>
      <trkpt lat="45.57978" lon="4.63761">
        <ele>441</ele>
        <time>2017-04-08T09:42:14Z</time>
      </trkpt>
      <trkpt lat="45.57969" lon="4.63802">
        <ele>435</ele>
        <time>2017-04-08T09:42:19Z</time>
      </trkpt>
      <trkpt lat="45.57976" lon="4.63831">
        <ele>431</ele>
        <time>2017-04-08T09:42:24Z</time>
      </trkpt>
      <trkpt lat="45.57999" lon="4.63838">
        <ele>429</ele>
        <time>2017-04-08T09:42:29Z</time>
      </trkpt>
      <trkpt lat="45.58027" lon="4.63837">
        <ele>427</ele>
        <time>2017-04-08T09:42:34Z</time>
      </trkpt>
      <trkpt lat="45.58061" lon="4.6383">
        <ele>424</ele>
        <time>2017-04-08T09:42:39Z</time>
      </trkpt>
      <trkpt lat="45.58082" lon="4.63836">
        <ele>426</ele>
        <time>2017-04-08T09:42:44Z</time>
      </trkpt>
      <trkpt lat="45.58102" lon="4.63852">
        <ele>426</ele>
        <time>2017-04-08T09:42:49Z</time>
      </trkpt>
      <trkpt lat="45.5813" lon="4.63869">
        <ele>425</ele>
        <time>2017-04-08T09:42:54Z</time>
      </trkpt>
      <trkpt lat="45.58158" lon="4.63886">
        <ele>423</ele>
        <time>2017-04-08T09:42:59Z</time>
      </trkpt>
      <trkpt lat="45.58186" lon="4.63886">
        <ele>422</ele>
        <time>2017-04-08T09:43:04Z</time>
      </trkpt>
      <trkpt lat="45.5821" lon="4.63884">
        <ele>422</ele>
        <time>2017-04-08T09:43:09Z</time>
      </trkpt>
      <trkpt lat="45.58231" lon="4.63893">
        <ele>420</ele>
        <time>2017-04-08T09:43:14Z</time>
      </trkpt>
      <trkpt lat="45.5825" lon="4.63884">
        <ele>419</ele>
        <time>2017-04-08T09:43:19Z</time>
      </trkpt>
      <trkpt lat="45.58273" lon="4.63883">
        <ele>418</ele>
        <time>2017-04-08T09:43:24Z</time>
      </trkpt>
      <trkpt lat="45.58291" lon="4.63882">
        <ele>417</ele>
        <time>2017-04-08T09:43:29Z</time>
      </trkpt>
      <trkpt lat="45.58309" lon="4.6388">
        <ele>416</ele>
        <time>2017-04-08T09:43:34Z</time>
      </trkpt>
      <trkpt lat="45.58302" lon="4.63923">
        <ele>418</ele>
        <time>2017-04-08T09:43:39Z</time>
      </trkpt>
      <trkpt lat="45.58289" lon="4.63963">
        <ele>420</ele>
        <time>2017-04-08T09:43:44Z</time>
      </trkpt>
      <trkpt lat="45.58281" lon="4.64004">
        <ele>423</ele>
        <time>2017-04-08T09:43:49Z</time>
      </trkpt>
      <trkpt lat="45.58263" lon="4.64052">
        <ele>424</ele>
        <time>2017-04-08T09:43:54Z</time>
      </trkpt>
      <trkpt lat="45.58247" lon="4.64107">
        <ele>425</ele>
        <time>2017-04-08T09:43:59Z</time>
      </trkpt>
      <trkpt lat="45.58241" lon="4.64139">
        <ele>422</ele>
        <time>2017-04-08T09:44:04Z</time>
      </trkpt>
      <trkpt lat="45.58257" lon="4.64149">
        <ele>419</ele>
        <time>2017-04-08T09:44:09Z</time>
      </trkpt>
      <trkpt lat="45.58268" lon="4.64155">
        <ele>416</ele>
        <time>2017-04-08T09:44:14Z</time>
      </trkpt>
      <trkpt lat="45.58276" lon="4.64149">
        <ele>415</ele>
        <time>2017-04-08T09:44:19Z</time>
      </trkpt>
      <trkpt lat="45.58279" lon="4.64137">
        <ele>414</ele>
        <time>2017-04-08T09:44:24Z</time>
      </trkpt>
      <trkpt lat="45.58281" lon="4.64131">
        <ele>414</ele>
        <time>2017-04-08T09:44:29Z</time>
      </trkpt>
      <trkpt lat="45.58279" lon="4.64137">
        <ele>413</ele>
        <time>2017-04-08T09:44:48Z</time>
      </trkpt>
    </trkseg>
  </trk>
</gpx>